<?xml version="1.0" encoding="UTF-8" standalone="no" ?>
<gpx xmlns="http://www.topografix.com/GPX/1/1" xmlns:xsi="http://www.w3.org/2001/XMLSchema-instance" xsi:schemaLocation="http://www.topografix.com/GPX/1/1 http://www.topografix.com/GPX/1/1/gpx.xsd" version="1.1" creator="VisuGPX - https://www.visugpx.com">
  <metadata>
    <name>Rando Vtt olima/chantraine</name>
    <desc><![CDATA[Rando assez dur et technique niveau dificille.]]></desc>
  </metadata>
  <trk>
    <name><![CDATA[OLIMA]]></name>
    <trkseg>
      <trkpt lat="48.17315" lon="6.4227">
        <ele>349.1</ele>
        <time>2012-04-02T11:58:18Z</time>
      </trkpt>
      <trkpt lat="48.17305" lon="6.42258">
        <ele>347.65</ele>
        <time>2012-04-02T11:58:21Z</time>
      </trkpt>
      <trkpt lat="48.17283" lon="6.42232">
        <ele>342.37</ele>
        <time>2012-04-02T11:58:32Z</time>
      </trkpt>
      <trkpt lat="48.17292" lon="6.42231">
        <ele>355.83</ele>
        <time>2012-04-02T11:58:46Z</time>
      </trkpt>
      <trkpt lat="48.1729" lon="6.42232">
        <ele>360.15</ele>
        <time>2012-04-02T11:58:51Z</time>
      </trkpt>
      <trkpt lat="48.17296" lon="6.42227">
        <ele>364</ele>
        <time>2012-04-02T11:58:58Z</time>
      </trkpt>
      <trkpt lat="48.17306" lon="6.4221">
        <ele>366.4</ele>
        <time>2012-04-02T11:59:06Z</time>
      </trkpt>
      <trkpt lat="48.1733" lon="6.42171">
        <ele>366.88</ele>
        <time>2012-04-02T11:59:21Z</time>
      </trkpt>
      <trkpt lat="48.17352" lon="6.42132">
        <ele>365.44</ele>
        <time>2012-04-02T11:59:31Z</time>
      </trkpt>
      <trkpt lat="48.17359" lon="6.42074">
        <ele>364.96</ele>
        <time>2012-04-02T11:59:42Z</time>
      </trkpt>
      <trkpt lat="48.17352" lon="6.42036">
        <ele>366.4</ele>
        <time>2012-04-02T11:59:53Z</time>
      </trkpt>
      <trkpt lat="48.17334" lon="6.41993">
        <ele>373.61</ele>
        <time>2012-04-02T12:00:07Z</time>
      </trkpt>
      <trkpt lat="48.17312" lon="6.41971">
        <ele>372.17</ele>
        <time>2012-04-02T12:00:18Z</time>
      </trkpt>
      <trkpt lat="48.173" lon="6.41961">
        <ele>369.76</ele>
        <time>2012-04-02T12:00:25Z</time>
      </trkpt>
      <trkpt lat="48.17274" lon="6.41948">
        <ele>370.73</ele>
        <time>2012-04-02T12:00:38Z</time>
      </trkpt>
      <trkpt lat="48.17264" lon="6.41933">
        <ele>368.8</ele>
        <time>2012-04-02T12:00:45Z</time>
      </trkpt>
      <trkpt lat="48.17255" lon="6.41923">
        <ele>367.84</ele>
        <time>2012-04-02T12:00:51Z</time>
      </trkpt>
      <trkpt lat="48.17245" lon="6.41914">
        <ele>367.36</ele>
        <time>2012-04-02T12:00:56Z</time>
      </trkpt>
      <trkpt lat="48.1723" lon="6.41884">
        <ele>368.8</ele>
        <time>2012-04-02T12:01:06Z</time>
      </trkpt>
      <trkpt lat="48.17227" lon="6.41878">
        <ele>370.24</ele>
        <time>2012-04-02T12:01:08Z</time>
      </trkpt>
      <trkpt lat="48.17212" lon="6.41842">
        <ele>380.34</ele>
        <time>2012-04-02T12:01:18Z</time>
      </trkpt>
      <trkpt lat="48.17201" lon="6.41826">
        <ele>386.11</ele>
        <time>2012-04-02T12:01:26Z</time>
      </trkpt>
      <trkpt lat="48.17189" lon="6.41813">
        <ele>388.51</ele>
        <time>2012-04-02T12:01:31Z</time>
      </trkpt>
      <trkpt lat="48.17168" lon="6.41768">
        <ele>394.28</ele>
        <time>2012-04-02T12:01:43Z</time>
      </trkpt>
      <trkpt lat="48.17162" lon="6.41754">
        <ele>394.76</ele>
        <time>2012-04-02T12:01:46Z</time>
      </trkpt>
      <trkpt lat="48.17144" lon="6.41724">
        <ele>395.24</ele>
        <time>2012-04-02T12:01:55Z</time>
      </trkpt>
      <trkpt lat="48.17129" lon="6.41676">
        <ele>394.76</ele>
        <time>2012-04-02T12:02:05Z</time>
      </trkpt>
      <trkpt lat="48.17119" lon="6.41638">
        <ele>399.57</ele>
        <time>2012-04-02T12:02:13Z</time>
      </trkpt>
      <trkpt lat="48.17106" lon="6.41589">
        <ele>397.16</ele>
        <time>2012-04-02T12:02:24Z</time>
      </trkpt>
      <trkpt lat="48.171" lon="6.41563">
        <ele>395.24</ele>
        <time>2012-04-02T12:02:28Z</time>
      </trkpt>
      <trkpt lat="48.17089" lon="6.41531">
        <ele>393.32</ele>
        <time>2012-04-02T12:02:33Z</time>
      </trkpt>
      <trkpt lat="48.17081" lon="6.41491">
        <ele>393.32</ele>
        <time>2012-04-02T12:02:38Z</time>
      </trkpt>
      <trkpt lat="48.17072" lon="6.41444">
        <ele>396.2</ele>
        <time>2012-04-02T12:02:47Z</time>
      </trkpt>
      <trkpt lat="48.17063" lon="6.41407">
        <ele>397.16</ele>
        <time>2012-04-02T12:02:56Z</time>
      </trkpt>
      <trkpt lat="48.17054" lon="6.41362">
        <ele>399.08</ele>
        <time>2012-04-02T12:03:05Z</time>
      </trkpt>
      <trkpt lat="48.17047" lon="6.41327">
        <ele>401.49</ele>
        <time>2012-04-02T12:03:11Z</time>
      </trkpt>
      <trkpt lat="48.17046" lon="6.4132">
        <ele>401.97</ele>
        <time>2012-04-02T12:03:12Z</time>
      </trkpt>
      <trkpt lat="48.17043" lon="6.41313">
        <ele>401.97</ele>
        <time>2012-04-02T12:03:13Z</time>
      </trkpt>
      <trkpt lat="48.17041" lon="6.41306">
        <ele>402.45</ele>
        <time>2012-04-02T12:03:14Z</time>
      </trkpt>
      <trkpt lat="48.17039" lon="6.41298">
        <ele>402.45</ele>
        <time>2012-04-02T12:03:15Z</time>
      </trkpt>
      <trkpt lat="48.17018" lon="6.41213">
        <ele>403.41</ele>
        <time>2012-04-02T12:03:25Z</time>
      </trkpt>
      <trkpt lat="48.17013" lon="6.41191">
        <ele>405.81</ele>
        <time>2012-04-02T12:03:31Z</time>
      </trkpt>
      <trkpt lat="48.17012" lon="6.41188">
        <ele>405.81</ele>
        <time>2012-04-02T12:03:32Z</time>
      </trkpt>
      <trkpt lat="48.17011" lon="6.41185">
        <ele>405.81</ele>
        <time>2012-04-02T12:03:33Z</time>
      </trkpt>
      <trkpt lat="48.1701" lon="6.41182">
        <ele>405.81</ele>
        <time>2012-04-02T12:03:34Z</time>
      </trkpt>
      <trkpt lat="48.17009" lon="6.41178">
        <ele>405.81</ele>
        <time>2012-04-02T12:03:35Z</time>
      </trkpt>
      <trkpt lat="48.17" lon="6.41143">
        <ele>405.33</ele>
        <time>2012-04-02T12:03:46Z</time>
      </trkpt>
      <trkpt lat="48.16992" lon="6.41099">
        <ele>402.93</ele>
        <time>2012-04-02T12:03:57Z</time>
      </trkpt>
      <trkpt lat="48.16981" lon="6.41052">
        <ele>405.81</ele>
        <time>2012-04-02T12:04:09Z</time>
      </trkpt>
      <trkpt lat="48.16973" lon="6.41032">
        <ele>408.22</ele>
        <time>2012-04-02T12:04:15Z</time>
      </trkpt>
      <trkpt lat="48.16968" lon="6.41008">
        <ele>410.62</ele>
        <time>2012-04-02T12:04:23Z</time>
      </trkpt>
      <trkpt lat="48.16965" lon="6.40994">
        <ele>412.06</ele>
        <time>2012-04-02T12:04:27Z</time>
      </trkpt>
      <trkpt lat="48.16954" lon="6.40943">
        <ele>416.87</ele>
        <time>2012-04-02T12:04:40Z</time>
      </trkpt>
      <trkpt lat="48.16951" lon="6.40902">
        <ele>420.23</ele>
        <time>2012-04-02T12:04:50Z</time>
      </trkpt>
      <trkpt lat="48.16949" lon="6.40886">
        <ele>422.64</ele>
        <time>2012-04-02T12:04:55Z</time>
      </trkpt>
      <trkpt lat="48.16944" lon="6.40867">
        <ele>421.68</ele>
        <time>2012-04-02T12:05:04Z</time>
      </trkpt>
      <trkpt lat="48.16934" lon="6.40834">
        <ele>419.27</ele>
        <time>2012-04-02T12:05:17Z</time>
      </trkpt>
      <trkpt lat="48.16933" lon="6.40831">
        <ele>419.27</ele>
        <time>2012-04-02T12:05:18Z</time>
      </trkpt>
      <trkpt lat="48.16932" lon="6.4082">
        <ele>418.31</ele>
        <time>2012-04-02T12:05:23Z</time>
      </trkpt>
      <trkpt lat="48.1693" lon="6.40797">
        <ele>419.27</ele>
        <time>2012-04-02T12:05:33Z</time>
      </trkpt>
      <trkpt lat="48.16929" lon="6.40789">
        <ele>419.75</ele>
        <time>2012-04-02T12:05:36Z</time>
      </trkpt>
      <trkpt lat="48.16922" lon="6.40773">
        <ele>421.68</ele>
        <time>2012-04-02T12:05:43Z</time>
      </trkpt>
      <trkpt lat="48.16921" lon="6.40767">
        <ele>422.16</ele>
        <time>2012-04-02T12:05:45Z</time>
      </trkpt>
      <trkpt lat="48.16915" lon="6.40736">
        <ele>427.92</ele>
        <time>2012-04-02T12:05:56Z</time>
      </trkpt>
      <trkpt lat="48.16907" lon="6.40695">
        <ele>433.21</ele>
        <time>2012-04-02T12:06:07Z</time>
      </trkpt>
      <trkpt lat="48.16894" lon="6.40631">
        <ele>437.54</ele>
        <time>2012-04-02T12:06:18Z</time>
      </trkpt>
      <trkpt lat="48.16883" lon="6.40579">
        <ele>436.58</ele>
        <time>2012-04-02T12:06:25Z</time>
      </trkpt>
      <trkpt lat="48.16881" lon="6.40561">
        <ele>437.06</ele>
        <time>2012-04-02T12:06:32Z</time>
      </trkpt>
      <trkpt lat="48.16871" lon="6.40534">
        <ele>435.13</ele>
        <time>2012-04-02T12:06:44Z</time>
      </trkpt>
      <trkpt lat="48.16859" lon="6.40476">
        <ele>431.29</ele>
        <time>2012-04-02T12:06:57Z</time>
      </trkpt>
      <trkpt lat="48.16847" lon="6.40415">
        <ele>430.33</ele>
        <time>2012-04-02T12:07:08Z</time>
      </trkpt>
      <trkpt lat="48.16844" lon="6.40399">
        <ele>429.85</ele>
        <time>2012-04-02T12:07:10Z</time>
      </trkpt>
      <trkpt lat="48.1683" lon="6.40333">
        <ele>426.48</ele>
        <time>2012-04-02T12:07:17Z</time>
      </trkpt>
      <trkpt lat="48.1681" lon="6.40242">
        <ele>422.16</ele>
        <time>2012-04-02T12:07:26Z</time>
      </trkpt>
      <trkpt lat="48.16808" lon="6.40235">
        <ele>421.68</ele>
        <time>2012-04-02T12:07:28Z</time>
      </trkpt>
      <trkpt lat="48.16792" lon="6.40234">
        <ele>425.52</ele>
        <time>2012-04-02T12:07:39Z</time>
      </trkpt>
      <trkpt lat="48.16776" lon="6.40235">
        <ele>430.81</ele>
        <time>2012-04-02T12:07:48Z</time>
      </trkpt>
      <trkpt lat="48.1675" lon="6.4024">
        <ele>433.69</ele>
        <time>2012-04-02T12:07:57Z</time>
      </trkpt>
      <trkpt lat="48.16747" lon="6.40241">
        <ele>433.69</ele>
        <time>2012-04-02T12:07:58Z</time>
      </trkpt>
      <trkpt lat="48.16737" lon="6.40244">
        <ele>433.21</ele>
        <time>2012-04-02T12:08:02Z</time>
      </trkpt>
      <trkpt lat="48.1671" lon="6.4026">
        <ele>438.5</ele>
        <time>2012-04-02T12:08:13Z</time>
      </trkpt>
      <trkpt lat="48.16686" lon="6.40267">
        <ele>443.31</ele>
        <time>2012-04-02T12:08:23Z</time>
      </trkpt>
      <trkpt lat="48.16662" lon="6.40278">
        <ele>446.19</ele>
        <time>2012-04-02T12:08:34Z</time>
      </trkpt>
      <trkpt lat="48.16643" lon="6.40285">
        <ele>448.59</ele>
        <time>2012-04-02T12:08:44Z</time>
      </trkpt>
      <trkpt lat="48.1663" lon="6.40291">
        <ele>450.03</ele>
        <time>2012-04-02T12:08:48Z</time>
      </trkpt>
      <trkpt lat="48.1662" lon="6.40291">
        <ele>449.55</ele>
        <time>2012-04-02T12:08:52Z</time>
      </trkpt>
      <trkpt lat="48.16609" lon="6.40289">
        <ele>449.55</ele>
        <time>2012-04-02T12:08:56Z</time>
      </trkpt>
      <trkpt lat="48.16574" lon="6.4029">
        <ele>451.96</ele>
        <time>2012-04-02T12:09:07Z</time>
      </trkpt>
      <trkpt lat="48.16553" lon="6.40297">
        <ele>452.92</ele>
        <time>2012-04-02T12:09:17Z</time>
      </trkpt>
      <trkpt lat="48.16533" lon="6.40326">
        <ele>453.4</ele>
        <time>2012-04-02T12:09:27Z</time>
      </trkpt>
      <trkpt lat="48.16517" lon="6.40351">
        <ele>453.4</ele>
        <time>2012-04-02T12:09:35Z</time>
      </trkpt>
      <trkpt lat="48.16514" lon="6.40364">
        <ele>452.44</ele>
        <time>2012-04-02T12:09:39Z</time>
      </trkpt>
      <trkpt lat="48.16503" lon="6.4039">
        <ele>448.11</ele>
        <time>2012-04-02T12:09:47Z</time>
      </trkpt>
      <trkpt lat="48.16499" lon="6.40417">
        <ele>448.11</ele>
        <time>2012-04-02T12:09:58Z</time>
      </trkpt>
      <trkpt lat="48.16488" lon="6.40436">
        <ele>454.36</ele>
        <time>2012-04-02T12:10:22Z</time>
      </trkpt>
      <trkpt lat="48.16474" lon="6.40462">
        <ele>454.84</ele>
        <time>2012-04-02T12:10:44Z</time>
      </trkpt>
      <trkpt lat="48.16473" lon="6.40467">
        <ele>454.36</ele>
        <time>2012-04-02T12:11:09Z</time>
      </trkpt>
      <trkpt lat="48.16467" lon="6.40479">
        <ele>458.21</ele>
        <time>2012-04-02T12:11:30Z</time>
      </trkpt>
      <trkpt lat="48.16463" lon="6.40484">
        <ele>459.17</ele>
        <time>2012-04-02T12:11:47Z</time>
      </trkpt>
      <trkpt lat="48.16457" lon="6.4049">
        <ele>459.17</ele>
        <time>2012-04-02T12:12:10Z</time>
      </trkpt>
      <trkpt lat="48.16446" lon="6.40489">
        <ele>458.69</ele>
        <time>2012-04-02T12:12:14Z</time>
      </trkpt>
      <trkpt lat="48.16435" lon="6.40451">
        <ele>454.84</ele>
        <time>2012-04-02T12:12:21Z</time>
      </trkpt>
      <trkpt lat="48.16434" lon="6.40444">
        <ele>454.84</ele>
        <time>2012-04-02T12:12:22Z</time>
      </trkpt>
      <trkpt lat="48.16432" lon="6.40438">
        <ele>454.36</ele>
        <time>2012-04-02T12:12:23Z</time>
      </trkpt>
      <trkpt lat="48.16423" lon="6.4037">
        <ele>448.59</ele>
        <time>2012-04-02T12:12:32Z</time>
      </trkpt>
      <trkpt lat="48.16421" lon="6.40344">
        <ele>447.63</ele>
        <time>2012-04-02T12:12:35Z</time>
      </trkpt>
      <trkpt lat="48.16419" lon="6.40326">
        <ele>447.15</ele>
        <time>2012-04-02T12:12:37Z</time>
      </trkpt>
      <trkpt lat="48.16416" lon="6.40289">
        <ele>445.71</ele>
        <time>2012-04-02T12:12:41Z</time>
      </trkpt>
      <trkpt lat="48.16391" lon="6.40168">
        <ele>443.79</ele>
        <time>2012-04-02T12:12:54Z</time>
      </trkpt>
      <trkpt lat="48.16388" lon="6.40142">
        <ele>443.31</ele>
        <time>2012-04-02T12:12:57Z</time>
      </trkpt>
      <trkpt lat="48.16387" lon="6.40099">
        <ele>441.86</ele>
        <time>2012-04-02T12:13:02Z</time>
      </trkpt>
      <trkpt lat="48.16387" lon="6.40083">
        <ele>441.86</ele>
        <time>2012-04-02T12:13:04Z</time>
      </trkpt>
      <trkpt lat="48.16387" lon="6.40076">
        <ele>441.86</ele>
        <time>2012-04-02T12:13:05Z</time>
      </trkpt>
      <trkpt lat="48.16387" lon="6.40036">
        <ele>442.34</ele>
        <time>2012-04-02T12:13:10Z</time>
      </trkpt>
      <trkpt lat="48.16387" lon="6.40029">
        <ele>442.34</ele>
        <time>2012-04-02T12:13:11Z</time>
      </trkpt>
      <trkpt lat="48.16386" lon="6.40007">
        <ele>442.82</ele>
        <time>2012-04-02T12:13:14Z</time>
      </trkpt>
      <trkpt lat="48.16387" lon="6.40001">
        <ele>443.31</ele>
        <time>2012-04-02T12:13:15Z</time>
      </trkpt>
      <trkpt lat="48.1639" lon="6.39983">
        <ele>443.31</ele>
        <time>2012-04-02T12:13:18Z</time>
      </trkpt>
      <trkpt lat="48.16391" lon="6.39968">
        <ele>443.79</ele>
        <time>2012-04-02T12:13:20Z</time>
      </trkpt>
      <trkpt lat="48.16391" lon="6.39961">
        <ele>443.79</ele>
        <time>2012-04-02T12:13:21Z</time>
      </trkpt>
      <trkpt lat="48.1639" lon="6.39954">
        <ele>444.27</ele>
        <time>2012-04-02T12:13:22Z</time>
      </trkpt>
      <trkpt lat="48.16365" lon="6.3994">
        <ele>445.71</ele>
        <time>2012-04-02T12:13:28Z</time>
      </trkpt>
      <trkpt lat="48.16354" lon="6.39935">
        <ele>446.19</ele>
        <time>2012-04-02T12:13:30Z</time>
      </trkpt>
      <trkpt lat="48.16332" lon="6.3993">
        <ele>448.11</ele>
        <time>2012-04-02T12:13:36Z</time>
      </trkpt>
      <trkpt lat="48.16318" lon="6.39927">
        <ele>452.44</ele>
        <time>2012-04-02T12:13:41Z</time>
      </trkpt>
      <trkpt lat="48.16292" lon="6.39916">
        <ele>458.69</ele>
        <time>2012-04-02T12:13:51Z</time>
      </trkpt>
      <trkpt lat="48.16281" lon="6.39918">
        <ele>461.09</ele>
        <time>2012-04-02T12:13:55Z</time>
      </trkpt>
      <trkpt lat="48.16273" lon="6.39918">
        <ele>463.01</ele>
        <time>2012-04-02T12:13:58Z</time>
      </trkpt>
      <trkpt lat="48.1626" lon="6.39935">
        <ele>465.9</ele>
        <time>2012-04-02T12:14:07Z</time>
      </trkpt>
      <trkpt lat="48.16229" lon="6.39964">
        <ele>463.97</ele>
        <time>2012-04-02T12:14:16Z</time>
      </trkpt>
      <trkpt lat="48.16221" lon="6.3997">
        <ele>463.49</ele>
        <time>2012-04-02T12:14:18Z</time>
      </trkpt>
      <trkpt lat="48.16179" lon="6.39978">
        <ele>460.61</ele>
        <time>2012-04-02T12:14:25Z</time>
      </trkpt>
      <trkpt lat="48.1616" lon="6.39984">
        <ele>459.17</ele>
        <time>2012-04-02T12:14:29Z</time>
      </trkpt>
      <trkpt lat="48.16158" lon="6.39964">
        <ele>453.4</ele>
        <time>2012-04-02T12:14:36Z</time>
      </trkpt>
      <trkpt lat="48.16159" lon="6.39945">
        <ele>450.03</ele>
        <time>2012-04-02T12:14:40Z</time>
      </trkpt>
      <trkpt lat="48.16165" lon="6.39898">
        <ele>443.31</ele>
        <time>2012-04-02T12:14:50Z</time>
      </trkpt>
      <trkpt lat="48.16177" lon="6.39834">
        <ele>438.02</ele>
        <time>2012-04-02T12:15:01Z</time>
      </trkpt>
      <trkpt lat="48.16177" lon="6.39828">
        <ele>437.54</ele>
        <time>2012-04-02T12:15:02Z</time>
      </trkpt>
      <trkpt lat="48.16178" lon="6.39804">
        <ele>435.13</ele>
        <time>2012-04-02T12:15:06Z</time>
      </trkpt>
      <trkpt lat="48.16188" lon="6.39758">
        <ele>431.29</ele>
        <time>2012-04-02T12:15:13Z</time>
      </trkpt>
      <trkpt lat="48.16197" lon="6.39704">
        <ele>429.37</ele>
        <time>2012-04-02T12:15:22Z</time>
      </trkpt>
      <trkpt lat="48.16204" lon="6.39662">
        <ele>426.48</ele>
        <time>2012-04-02T12:15:29Z</time>
      </trkpt>
      <trkpt lat="48.16213" lon="6.39631">
        <ele>422.64</ele>
        <time>2012-04-02T12:15:35Z</time>
      </trkpt>
      <trkpt lat="48.16226" lon="6.39587">
        <ele>418.79</ele>
        <time>2012-04-02T12:15:41Z</time>
      </trkpt>
      <trkpt lat="48.16239" lon="6.39495">
        <ele>416.87</ele>
        <time>2012-04-02T12:15:51Z</time>
      </trkpt>
      <trkpt lat="48.16252" lon="6.3943">
        <ele>413.98</ele>
        <time>2012-04-02T12:15:58Z</time>
      </trkpt>
      <trkpt lat="48.16256" lon="6.39398">
        <ele>412.54</ele>
        <time>2012-04-02T12:16:01Z</time>
      </trkpt>
      <trkpt lat="48.16255" lon="6.39385">
        <ele>412.54</ele>
        <time>2012-04-02T12:16:02Z</time>
      </trkpt>
      <trkpt lat="48.16253" lon="6.39375">
        <ele>413.02</ele>
        <time>2012-04-02T12:16:03Z</time>
      </trkpt>
      <trkpt lat="48.16248" lon="6.39365">
        <ele>413.5</ele>
        <time>2012-04-02T12:16:04Z</time>
      </trkpt>
      <trkpt lat="48.16244" lon="6.39356">
        <ele>413.98</ele>
        <time>2012-04-02T12:16:05Z</time>
      </trkpt>
      <trkpt lat="48.16239" lon="6.39345">
        <ele>415.43</ele>
        <time>2012-04-02T12:16:06Z</time>
      </trkpt>
      <trkpt lat="48.16231" lon="6.39329">
        <ele>417.35</ele>
        <time>2012-04-02T12:16:08Z</time>
      </trkpt>
      <trkpt lat="48.16227" lon="6.39321">
        <ele>417.83</ele>
        <time>2012-04-02T12:16:09Z</time>
      </trkpt>
      <trkpt lat="48.16219" lon="6.39306">
        <ele>418.79</ele>
        <time>2012-04-02T12:16:11Z</time>
      </trkpt>
      <trkpt lat="48.16216" lon="6.39299">
        <ele>418.79</ele>
        <time>2012-04-02T12:16:12Z</time>
      </trkpt>
      <trkpt lat="48.16213" lon="6.39291">
        <ele>418.79</ele>
        <time>2012-04-02T12:16:13Z</time>
      </trkpt>
      <trkpt lat="48.16209" lon="6.39283">
        <ele>419.27</ele>
        <time>2012-04-02T12:16:14Z</time>
      </trkpt>
      <trkpt lat="48.16205" lon="6.39275">
        <ele>419.75</ele>
        <time>2012-04-02T12:16:15Z</time>
      </trkpt>
      <trkpt lat="48.162" lon="6.39268">
        <ele>420.23</ele>
        <time>2012-04-02T12:16:16Z</time>
      </trkpt>
      <trkpt lat="48.16122" lon="6.39166">
        <ele>425.04</ele>
        <time>2012-04-02T12:16:31Z</time>
      </trkpt>
      <trkpt lat="48.16071" lon="6.39105">
        <ele>425.52</ele>
        <time>2012-04-02T12:16:40Z</time>
      </trkpt>
      <trkpt lat="48.16066" lon="6.39101">
        <ele>425.52</ele>
        <time>2012-04-02T12:16:41Z</time>
      </trkpt>
      <trkpt lat="48.16061" lon="6.39099">
        <ele>426</ele>
        <time>2012-04-02T12:16:42Z</time>
      </trkpt>
      <trkpt lat="48.16057" lon="6.39099">
        <ele>426</ele>
        <time>2012-04-02T12:16:43Z</time>
      </trkpt>
      <trkpt lat="48.16055" lon="6.39099">
        <ele>426.48</ele>
        <time>2012-04-02T12:16:44Z</time>
      </trkpt>
      <trkpt lat="48.16054" lon="6.391">
        <ele>426.48</ele>
        <time>2012-04-02T12:16:45Z</time>
      </trkpt>
      <trkpt lat="48.16054" lon="6.39103">
        <ele>426</ele>
        <time>2012-04-02T12:16:46Z</time>
      </trkpt>
      <trkpt lat="48.16052" lon="6.39118">
        <ele>425.52</ele>
        <time>2012-04-02T12:16:50Z</time>
      </trkpt>
      <trkpt lat="48.1605" lon="6.39124">
        <ele>425.52</ele>
        <time>2012-04-02T12:16:51Z</time>
      </trkpt>
      <trkpt lat="48.16042" lon="6.39143">
        <ele>424.56</ele>
        <time>2012-04-02T12:16:54Z</time>
      </trkpt>
      <trkpt lat="48.16036" lon="6.39161">
        <ele>424.08</ele>
        <time>2012-04-02T12:16:56Z</time>
      </trkpt>
      <trkpt lat="48.1603" lon="6.3917">
        <ele>423.6</ele>
        <time>2012-04-02T12:16:57Z</time>
      </trkpt>
      <trkpt lat="48.16018" lon="6.39186">
        <ele>423.12</ele>
        <time>2012-04-02T12:16:59Z</time>
      </trkpt>
      <trkpt lat="48.16012" lon="6.39193">
        <ele>422.64</ele>
        <time>2012-04-02T12:17:00Z</time>
      </trkpt>
      <trkpt lat="48.16002" lon="6.39208">
        <ele>421.68</ele>
        <time>2012-04-02T12:17:02Z</time>
      </trkpt>
      <trkpt lat="48.15996" lon="6.39214">
        <ele>421.19</ele>
        <time>2012-04-02T12:17:03Z</time>
      </trkpt>
      <trkpt lat="48.15991" lon="6.39223">
        <ele>420.71</ele>
        <time>2012-04-02T12:17:04Z</time>
      </trkpt>
      <trkpt lat="48.15986" lon="6.39233">
        <ele>419.75</ele>
        <time>2012-04-02T12:17:05Z</time>
      </trkpt>
      <trkpt lat="48.15982" lon="6.39245">
        <ele>419.27</ele>
        <time>2012-04-02T12:17:06Z</time>
      </trkpt>
      <trkpt lat="48.15979" lon="6.39256">
        <ele>418.31</ele>
        <time>2012-04-02T12:17:07Z</time>
      </trkpt>
      <trkpt lat="48.15973" lon="6.39278">
        <ele>417.35</ele>
        <time>2012-04-02T12:17:09Z</time>
      </trkpt>
      <trkpt lat="48.15971" lon="6.39289">
        <ele>416.87</ele>
        <time>2012-04-02T12:17:10Z</time>
      </trkpt>
      <trkpt lat="48.15967" lon="6.393">
        <ele>415.91</ele>
        <time>2012-04-02T12:17:11Z</time>
      </trkpt>
      <trkpt lat="48.15964" lon="6.39309">
        <ele>415.43</ele>
        <time>2012-04-02T12:17:12Z</time>
      </trkpt>
      <trkpt lat="48.15961" lon="6.39318">
        <ele>414.95</ele>
        <time>2012-04-02T12:17:13Z</time>
      </trkpt>
      <trkpt lat="48.15958" lon="6.39326">
        <ele>414.47</ele>
        <time>2012-04-02T12:17:14Z</time>
      </trkpt>
      <trkpt lat="48.15932" lon="6.39386">
        <ele>412.06</ele>
        <time>2012-04-02T12:17:20Z</time>
      </trkpt>
      <trkpt lat="48.15928" lon="6.39395">
        <ele>412.06</ele>
        <time>2012-04-02T12:17:21Z</time>
      </trkpt>
      <trkpt lat="48.1592" lon="6.39424">
        <ele>411.1</ele>
        <time>2012-04-02T12:17:24Z</time>
      </trkpt>
      <trkpt lat="48.15918" lon="6.39435">
        <ele>410.62</ele>
        <time>2012-04-02T12:17:25Z</time>
      </trkpt>
      <trkpt lat="48.15905" lon="6.39497">
        <ele>408.7</ele>
        <time>2012-04-02T12:17:31Z</time>
      </trkpt>
      <trkpt lat="48.15901" lon="6.39508">
        <ele>408.22</ele>
        <time>2012-04-02T12:17:32Z</time>
      </trkpt>
      <trkpt lat="48.15896" lon="6.39518">
        <ele>407.74</ele>
        <time>2012-04-02T12:17:33Z</time>
      </trkpt>
      <trkpt lat="48.15891" lon="6.39529">
        <ele>407.74</ele>
        <time>2012-04-02T12:17:34Z</time>
      </trkpt>
      <trkpt lat="48.15886" lon="6.39539">
        <ele>407.74</ele>
        <time>2012-04-02T12:17:35Z</time>
      </trkpt>
      <trkpt lat="48.15861" lon="6.39587">
        <ele>406.77</ele>
        <time>2012-04-02T12:17:40Z</time>
      </trkpt>
      <trkpt lat="48.1585" lon="6.39605">
        <ele>406.77</ele>
        <time>2012-04-02T12:17:42Z</time>
      </trkpt>
      <trkpt lat="48.15834" lon="6.39642">
        <ele>406.77</ele>
        <time>2012-04-02T12:17:46Z</time>
      </trkpt>
      <trkpt lat="48.15832" lon="6.39653">
        <ele>406.29</ele>
        <time>2012-04-02T12:17:47Z</time>
      </trkpt>
      <trkpt lat="48.15826" lon="6.39694">
        <ele>407.26</ele>
        <time>2012-04-02T12:17:52Z</time>
      </trkpt>
      <trkpt lat="48.15826" lon="6.39703">
        <ele>407.26</ele>
        <time>2012-04-02T12:17:53Z</time>
      </trkpt>
      <trkpt lat="48.15828" lon="6.39723">
        <ele>407.26</ele>
        <time>2012-04-02T12:17:55Z</time>
      </trkpt>
      <trkpt lat="48.15828" lon="6.39733">
        <ele>407.74</ele>
        <time>2012-04-02T12:17:56Z</time>
      </trkpt>
      <trkpt lat="48.15829" lon="6.39744">
        <ele>407.74</ele>
        <time>2012-04-02T12:17:57Z</time>
      </trkpt>
      <trkpt lat="48.15834" lon="6.39784">
        <ele>408.22</ele>
        <time>2012-04-02T12:18:01Z</time>
      </trkpt>
      <trkpt lat="48.15835" lon="6.39793">
        <ele>407.74</ele>
        <time>2012-04-02T12:18:02Z</time>
      </trkpt>
      <trkpt lat="48.15846" lon="6.39855">
        <ele>405.81</ele>
        <time>2012-04-02T12:18:08Z</time>
      </trkpt>
      <trkpt lat="48.15848" lon="6.39864">
        <ele>405.33</ele>
        <time>2012-04-02T12:18:09Z</time>
      </trkpt>
      <trkpt lat="48.1586" lon="6.39979">
        <ele>400.53</ele>
        <time>2012-04-02T12:18:20Z</time>
      </trkpt>
      <trkpt lat="48.15862" lon="6.39989">
        <ele>400.05</ele>
        <time>2012-04-02T12:18:21Z</time>
      </trkpt>
      <trkpt lat="48.15867" lon="6.40011">
        <ele>399.08</ele>
        <time>2012-04-02T12:18:23Z</time>
      </trkpt>
      <trkpt lat="48.15872" lon="6.40032">
        <ele>398.6</ele>
        <time>2012-04-02T12:18:25Z</time>
      </trkpt>
      <trkpt lat="48.15877" lon="6.40053">
        <ele>397.64</ele>
        <time>2012-04-02T12:18:27Z</time>
      </trkpt>
      <trkpt lat="48.1588" lon="6.40064">
        <ele>398.12</ele>
        <time>2012-04-02T12:18:28Z</time>
      </trkpt>
      <trkpt lat="48.15894" lon="6.40092">
        <ele>398.12</ele>
        <time>2012-04-02T12:18:31Z</time>
      </trkpt>
      <trkpt lat="48.15928" lon="6.40149">
        <ele>396.68</ele>
        <time>2012-04-02T12:18:38Z</time>
      </trkpt>
      <trkpt lat="48.15932" lon="6.40157">
        <ele>396.68</ele>
        <time>2012-04-02T12:18:39Z</time>
      </trkpt>
      <trkpt lat="48.15937" lon="6.40165">
        <ele>396.2</ele>
        <time>2012-04-02T12:18:40Z</time>
      </trkpt>
      <trkpt lat="48.15946" lon="6.40177">
        <ele>396.2</ele>
        <time>2012-04-02T12:18:42Z</time>
      </trkpt>
      <trkpt lat="48.1595" lon="6.40183">
        <ele>396.2</ele>
        <time>2012-04-02T12:18:43Z</time>
      </trkpt>
      <trkpt lat="48.15954" lon="6.40189">
        <ele>396.2</ele>
        <time>2012-04-02T12:18:44Z</time>
      </trkpt>
      <trkpt lat="48.15973" lon="6.40215">
        <ele>396.68</ele>
        <time>2012-04-02T12:18:48Z</time>
      </trkpt>
      <trkpt lat="48.15978" lon="6.40222">
        <ele>396.68</ele>
        <time>2012-04-02T12:18:49Z</time>
      </trkpt>
      <trkpt lat="48.15987" lon="6.40234">
        <ele>396.68</ele>
        <time>2012-04-02T12:18:51Z</time>
      </trkpt>
      <trkpt lat="48.15996" lon="6.40247">
        <ele>396.68</ele>
        <time>2012-04-02T12:18:53Z</time>
      </trkpt>
      <trkpt lat="48.16005" lon="6.40255">
        <ele>396.2</ele>
        <time>2012-04-02T12:18:55Z</time>
      </trkpt>
      <trkpt lat="48.16009" lon="6.4026">
        <ele>395.72</ele>
        <time>2012-04-02T12:18:56Z</time>
      </trkpt>
      <trkpt lat="48.16011" lon="6.40263">
        <ele>395.24</ele>
        <time>2012-04-02T12:18:57Z</time>
      </trkpt>
      <trkpt lat="48.16006" lon="6.40268">
        <ele>394.28</ele>
        <time>2012-04-02T12:19:00Z</time>
      </trkpt>
      <trkpt lat="48.16001" lon="6.40268">
        <ele>394.28</ele>
        <time>2012-04-02T12:19:01Z</time>
      </trkpt>
      <trkpt lat="48.15996" lon="6.40267">
        <ele>393.8</ele>
        <time>2012-04-02T12:19:02Z</time>
      </trkpt>
      <trkpt lat="48.15991" lon="6.40264">
        <ele>393.8</ele>
        <time>2012-04-02T12:19:03Z</time>
      </trkpt>
      <trkpt lat="48.15986" lon="6.4026">
        <ele>393.32</ele>
        <time>2012-04-02T12:19:04Z</time>
      </trkpt>
      <trkpt lat="48.15981" lon="6.40255">
        <ele>392.84</ele>
        <time>2012-04-02T12:19:05Z</time>
      </trkpt>
      <trkpt lat="48.15975" lon="6.4025">
        <ele>392.36</ele>
        <time>2012-04-02T12:19:06Z</time>
      </trkpt>
      <trkpt lat="48.1597" lon="6.40245">
        <ele>391.87</ele>
        <time>2012-04-02T12:19:07Z</time>
      </trkpt>
      <trkpt lat="48.15964" lon="6.40239">
        <ele>391.39</ele>
        <time>2012-04-02T12:19:08Z</time>
      </trkpt>
      <trkpt lat="48.15907" lon="6.40177">
        <ele>388.03</ele>
        <time>2012-04-02T12:19:17Z</time>
      </trkpt>
      <trkpt lat="48.15846" lon="6.40113">
        <ele>384.66</ele>
        <time>2012-04-02T12:19:27Z</time>
      </trkpt>
      <trkpt lat="48.15843" lon="6.40112">
        <ele>383.7</ele>
        <time>2012-04-02T12:19:31Z</time>
      </trkpt>
      <trkpt lat="48.15846" lon="6.40115">
        <ele>387.07</ele>
        <time>2012-04-02T12:19:40Z</time>
      </trkpt>
      <trkpt lat="48.15849" lon="6.40117">
        <ele>387.07</ele>
        <time>2012-04-02T12:19:58Z</time>
      </trkpt>
      <trkpt lat="48.15851" lon="6.40121">
        <ele>387.07</ele>
        <time>2012-04-02T12:20:01Z</time>
      </trkpt>
      <trkpt lat="48.15853" lon="6.40123">
        <ele>386.59</ele>
        <time>2012-04-02T12:20:02Z</time>
      </trkpt>
      <trkpt lat="48.15882" lon="6.40162">
        <ele>381.78</ele>
        <time>2012-04-02T12:20:11Z</time>
      </trkpt>
      <trkpt lat="48.15896" lon="6.40184">
        <ele>380.34</ele>
        <time>2012-04-02T12:20:15Z</time>
      </trkpt>
      <trkpt lat="48.159" lon="6.4019">
        <ele>379.86</ele>
        <time>2012-04-02T12:20:16Z</time>
      </trkpt>
      <trkpt lat="48.15905" lon="6.40195">
        <ele>379.86</ele>
        <time>2012-04-02T12:20:17Z</time>
      </trkpt>
      <trkpt lat="48.15909" lon="6.402">
        <ele>379.86</ele>
        <time>2012-04-02T12:20:18Z</time>
      </trkpt>
      <trkpt lat="48.15913" lon="6.40205">
        <ele>379.86</ele>
        <time>2012-04-02T12:20:19Z</time>
      </trkpt>
      <trkpt lat="48.15917" lon="6.4021">
        <ele>379.86</ele>
        <time>2012-04-02T12:20:20Z</time>
      </trkpt>
      <trkpt lat="48.15921" lon="6.40215">
        <ele>379.86</ele>
        <time>2012-04-02T12:20:21Z</time>
      </trkpt>
      <trkpt lat="48.15942" lon="6.40241">
        <ele>379.38</ele>
        <time>2012-04-02T12:20:26Z</time>
      </trkpt>
      <trkpt lat="48.15965" lon="6.40272">
        <ele>380.34</ele>
        <time>2012-04-02T12:20:32Z</time>
      </trkpt>
      <trkpt lat="48.15968" lon="6.4028">
        <ele>379.86</ele>
        <time>2012-04-02T12:20:33Z</time>
      </trkpt>
      <trkpt lat="48.15969" lon="6.40288">
        <ele>379.86</ele>
        <time>2012-04-02T12:20:34Z</time>
      </trkpt>
      <trkpt lat="48.15969" lon="6.40296">
        <ele>379.86</ele>
        <time>2012-04-02T12:20:35Z</time>
      </trkpt>
      <trkpt lat="48.15969" lon="6.40304">
        <ele>380.34</ele>
        <time>2012-04-02T12:20:36Z</time>
      </trkpt>
      <trkpt lat="48.15969" lon="6.40312">
        <ele>379.86</ele>
        <time>2012-04-02T12:20:37Z</time>
      </trkpt>
      <trkpt lat="48.15971" lon="6.4032">
        <ele>379.86</ele>
        <time>2012-04-02T12:20:38Z</time>
      </trkpt>
      <trkpt lat="48.15973" lon="6.40327">
        <ele>379.86</ele>
        <time>2012-04-02T12:20:39Z</time>
      </trkpt>
      <trkpt lat="48.15975" lon="6.40333">
        <ele>380.34</ele>
        <time>2012-04-02T12:20:40Z</time>
      </trkpt>
      <trkpt lat="48.15983" lon="6.40352">
        <ele>380.34</ele>
        <time>2012-04-02T12:20:43Z</time>
      </trkpt>
      <trkpt lat="48.15985" lon="6.40357">
        <ele>379.86</ele>
        <time>2012-04-02T12:20:44Z</time>
      </trkpt>
      <trkpt lat="48.16006" lon="6.40399">
        <ele>379.38</ele>
        <time>2012-04-02T12:20:53Z</time>
      </trkpt>
      <trkpt lat="48.16016" lon="6.40437">
        <ele>380.82</ele>
        <time>2012-04-02T12:21:00Z</time>
      </trkpt>
      <trkpt lat="48.16018" lon="6.40441">
        <ele>381.3</ele>
        <time>2012-04-02T12:21:01Z</time>
      </trkpt>
      <trkpt lat="48.16022" lon="6.40457">
        <ele>382.26</ele>
        <time>2012-04-02T12:21:04Z</time>
      </trkpt>
      <trkpt lat="48.16022" lon="6.40462">
        <ele>382.26</ele>
        <time>2012-04-02T12:21:05Z</time>
      </trkpt>
      <trkpt lat="48.16023" lon="6.40467">
        <ele>382.26</ele>
        <time>2012-04-02T12:21:06Z</time>
      </trkpt>
      <trkpt lat="48.16023" lon="6.40473">
        <ele>382.74</ele>
        <time>2012-04-02T12:21:07Z</time>
      </trkpt>
      <trkpt lat="48.16022" lon="6.40478">
        <ele>382.74</ele>
        <time>2012-04-02T12:21:08Z</time>
      </trkpt>
      <trkpt lat="48.16023" lon="6.40483">
        <ele>383.22</ele>
        <time>2012-04-02T12:21:09Z</time>
      </trkpt>
      <trkpt lat="48.16024" lon="6.40489">
        <ele>383.22</ele>
        <time>2012-04-02T12:21:10Z</time>
      </trkpt>
      <trkpt lat="48.16025" lon="6.40494">
        <ele>383.7</ele>
        <time>2012-04-02T12:21:11Z</time>
      </trkpt>
      <trkpt lat="48.16027" lon="6.40499">
        <ele>384.66</ele>
        <time>2012-04-02T12:21:12Z</time>
      </trkpt>
      <trkpt lat="48.16029" lon="6.40502">
        <ele>385.63</ele>
        <time>2012-04-02T12:21:13Z</time>
      </trkpt>
      <trkpt lat="48.1604" lon="6.40522">
        <ele>388.99</ele>
        <time>2012-04-02T12:21:19Z</time>
      </trkpt>
      <trkpt lat="48.1604" lon="6.40533">
        <ele>388.99</ele>
        <time>2012-04-02T12:21:21Z</time>
      </trkpt>
      <trkpt lat="48.16041" lon="6.40541">
        <ele>388.99</ele>
        <time>2012-04-02T12:21:22Z</time>
      </trkpt>
      <trkpt lat="48.16043" lon="6.40551">
        <ele>389.47</ele>
        <time>2012-04-02T12:21:23Z</time>
      </trkpt>
      <trkpt lat="48.16046" lon="6.4057">
        <ele>389.47</ele>
        <time>2012-04-02T12:21:25Z</time>
      </trkpt>
      <trkpt lat="48.16048" lon="6.40578">
        <ele>389.95</ele>
        <time>2012-04-02T12:21:26Z</time>
      </trkpt>
      <trkpt lat="48.1605" lon="6.40587">
        <ele>389.95</ele>
        <time>2012-04-02T12:21:27Z</time>
      </trkpt>
      <trkpt lat="48.16051" lon="6.40595">
        <ele>390.43</ele>
        <time>2012-04-02T12:21:28Z</time>
      </trkpt>
      <trkpt lat="48.16053" lon="6.40601">
        <ele>390.43</ele>
        <time>2012-04-02T12:21:29Z</time>
      </trkpt>
      <trkpt lat="48.16058" lon="6.40615">
        <ele>390.43</ele>
        <time>2012-04-02T12:21:31Z</time>
      </trkpt>
      <trkpt lat="48.1606" lon="6.40624">
        <ele>389.95</ele>
        <time>2012-04-02T12:21:32Z</time>
      </trkpt>
      <trkpt lat="48.16064" lon="6.40648">
        <ele>388.99</ele>
        <time>2012-04-02T12:21:34Z</time>
      </trkpt>
      <trkpt lat="48.16065" lon="6.40659">
        <ele>388.03</ele>
        <time>2012-04-02T12:21:35Z</time>
      </trkpt>
      <trkpt lat="48.16071" lon="6.40691">
        <ele>385.63</ele>
        <time>2012-04-02T12:21:38Z</time>
      </trkpt>
      <trkpt lat="48.16072" lon="6.40702">
        <ele>384.66</ele>
        <time>2012-04-02T12:21:39Z</time>
      </trkpt>
      <trkpt lat="48.16082" lon="6.4075">
        <ele>379.86</ele>
        <time>2012-04-02T12:21:44Z</time>
      </trkpt>
      <trkpt lat="48.16088" lon="6.40801">
        <ele>378.42</ele>
        <time>2012-04-02T12:21:50Z</time>
      </trkpt>
      <trkpt lat="48.16089" lon="6.40832">
        <ele>378.42</ele>
        <time>2012-04-02T12:21:54Z</time>
      </trkpt>
      <trkpt lat="48.16099" lon="6.40872">
        <ele>377.45</ele>
        <time>2012-04-02T12:21:59Z</time>
      </trkpt>
      <trkpt lat="48.16108" lon="6.40894">
        <ele>376.49</ele>
        <time>2012-04-02T12:22:02Z</time>
      </trkpt>
      <trkpt lat="48.1611" lon="6.409">
        <ele>376.49</ele>
        <time>2012-04-02T12:22:03Z</time>
      </trkpt>
      <trkpt lat="48.16114" lon="6.40906">
        <ele>376.97</ele>
        <time>2012-04-02T12:22:04Z</time>
      </trkpt>
      <trkpt lat="48.16117" lon="6.40911">
        <ele>376.97</ele>
        <time>2012-04-02T12:22:05Z</time>
      </trkpt>
      <trkpt lat="48.16121" lon="6.40918">
        <ele>376.97</ele>
        <time>2012-04-02T12:22:06Z</time>
      </trkpt>
      <trkpt lat="48.16124" lon="6.40924">
        <ele>376.97</ele>
        <time>2012-04-02T12:22:07Z</time>
      </trkpt>
      <trkpt lat="48.16142" lon="6.4096">
        <ele>376.97</ele>
        <time>2012-04-02T12:22:14Z</time>
      </trkpt>
      <trkpt lat="48.16155" lon="6.40997">
        <ele>375.05</ele>
        <time>2012-04-02T12:22:20Z</time>
      </trkpt>
      <trkpt lat="48.16159" lon="6.41011">
        <ele>374.09</ele>
        <time>2012-04-02T12:22:22Z</time>
      </trkpt>
      <trkpt lat="48.16161" lon="6.41018">
        <ele>373.61</ele>
        <time>2012-04-02T12:22:23Z</time>
      </trkpt>
      <trkpt lat="48.16164" lon="6.41025">
        <ele>373.13</ele>
        <time>2012-04-02T12:22:24Z</time>
      </trkpt>
      <trkpt lat="48.16167" lon="6.41032">
        <ele>372.65</ele>
        <time>2012-04-02T12:22:25Z</time>
      </trkpt>
      <trkpt lat="48.16169" lon="6.41039">
        <ele>372.17</ele>
        <time>2012-04-02T12:22:26Z</time>
      </trkpt>
      <trkpt lat="48.16171" lon="6.41046">
        <ele>371.69</ele>
        <time>2012-04-02T12:22:27Z</time>
      </trkpt>
      <trkpt lat="48.16174" lon="6.41054">
        <ele>371.21</ele>
        <time>2012-04-02T12:22:28Z</time>
      </trkpt>
      <trkpt lat="48.1618" lon="6.41071">
        <ele>371.21</ele>
        <time>2012-04-02T12:22:30Z</time>
      </trkpt>
      <trkpt lat="48.16181" lon="6.4108">
        <ele>370.73</ele>
        <time>2012-04-02T12:22:31Z</time>
      </trkpt>
      <trkpt lat="48.16181" lon="6.41088">
        <ele>370.73</ele>
        <time>2012-04-02T12:22:32Z</time>
      </trkpt>
      <trkpt lat="48.1618" lon="6.41094">
        <ele>371.21</ele>
        <time>2012-04-02T12:22:33Z</time>
      </trkpt>
      <trkpt lat="48.16179" lon="6.411">
        <ele>371.21</ele>
        <time>2012-04-02T12:22:34Z</time>
      </trkpt>
      <trkpt lat="48.16177" lon="6.41104">
        <ele>370.73</ele>
        <time>2012-04-02T12:22:35Z</time>
      </trkpt>
      <trkpt lat="48.1617" lon="6.41124">
        <ele>368.32</ele>
        <time>2012-04-02T12:22:39Z</time>
      </trkpt>
      <trkpt lat="48.16168" lon="6.41136">
        <ele>367.36</ele>
        <time>2012-04-02T12:22:41Z</time>
      </trkpt>
      <trkpt lat="48.16169" lon="6.41143">
        <ele>366.88</ele>
        <time>2012-04-02T12:22:42Z</time>
      </trkpt>
      <trkpt lat="48.16172" lon="6.41157">
        <ele>365.92</ele>
        <time>2012-04-02T12:22:44Z</time>
      </trkpt>
      <trkpt lat="48.1618" lon="6.41173">
        <ele>365.92</ele>
        <time>2012-04-02T12:22:47Z</time>
      </trkpt>
      <trkpt lat="48.16184" lon="6.41177">
        <ele>365.92</ele>
        <time>2012-04-02T12:22:48Z</time>
      </trkpt>
      <trkpt lat="48.16189" lon="6.4118">
        <ele>366.4</ele>
        <time>2012-04-02T12:22:49Z</time>
      </trkpt>
      <trkpt lat="48.16194" lon="6.41182">
        <ele>366.4</ele>
        <time>2012-04-02T12:22:50Z</time>
      </trkpt>
      <trkpt lat="48.16199" lon="6.41182">
        <ele>366.88</ele>
        <time>2012-04-02T12:22:51Z</time>
      </trkpt>
      <trkpt lat="48.16204" lon="6.41182">
        <ele>366.88</ele>
        <time>2012-04-02T12:22:52Z</time>
      </trkpt>
      <trkpt lat="48.1624" lon="6.41184">
        <ele>365.92</ele>
        <time>2012-04-02T12:23:00Z</time>
      </trkpt>
      <trkpt lat="48.16243" lon="6.41187">
        <ele>366.4</ele>
        <time>2012-04-02T12:23:01Z</time>
      </trkpt>
      <trkpt lat="48.16245" lon="6.41189">
        <ele>366.88</ele>
        <time>2012-04-02T12:23:02Z</time>
      </trkpt>
      <trkpt lat="48.16246" lon="6.4119">
        <ele>367.36</ele>
        <time>2012-04-02T12:23:03Z</time>
      </trkpt>
      <trkpt lat="48.16249" lon="6.4119">
        <ele>367.84</ele>
        <time>2012-04-02T12:23:04Z</time>
      </trkpt>
      <trkpt lat="48.16251" lon="6.41191">
        <ele>368.32</ele>
        <time>2012-04-02T12:23:05Z</time>
      </trkpt>
      <trkpt lat="48.16254" lon="6.41192">
        <ele>368.8</ele>
        <time>2012-04-02T12:23:06Z</time>
      </trkpt>
      <trkpt lat="48.16256" lon="6.41193">
        <ele>369.28</ele>
        <time>2012-04-02T12:23:07Z</time>
      </trkpt>
      <trkpt lat="48.16259" lon="6.41194">
        <ele>369.76</ele>
        <time>2012-04-02T12:23:08Z</time>
      </trkpt>
      <trkpt lat="48.1626" lon="6.41196">
        <ele>370.24</ele>
        <time>2012-04-02T12:23:09Z</time>
      </trkpt>
      <trkpt lat="48.16262" lon="6.41205">
        <ele>372.65</ele>
        <time>2012-04-02T12:23:18Z</time>
      </trkpt>
      <trkpt lat="48.16263" lon="6.41214">
        <ele>374.57</ele>
        <time>2012-04-02T12:23:27Z</time>
      </trkpt>
      <trkpt lat="48.16267" lon="6.41227">
        <ele>377.94</ele>
        <time>2012-04-02T12:23:38Z</time>
      </trkpt>
      <trkpt lat="48.16269" lon="6.41229">
        <ele>378.42</ele>
        <time>2012-04-02T12:23:39Z</time>
      </trkpt>
      <trkpt lat="48.16283" lon="6.41246">
        <ele>376.49</ele>
        <time>2012-04-02T12:23:48Z</time>
      </trkpt>
      <trkpt lat="48.16283" lon="6.41247">
        <ele>376.01</ele>
        <time>2012-04-02T12:23:49Z</time>
      </trkpt>
      <trkpt lat="48.16284" lon="6.41249">
        <ele>376.01</ele>
        <time>2012-04-02T12:23:50Z</time>
      </trkpt>
      <trkpt lat="48.16302" lon="6.41281">
        <ele>374.09</ele>
        <time>2012-04-02T12:24:01Z</time>
      </trkpt>
      <trkpt lat="48.16303" lon="6.41284">
        <ele>374.09</ele>
        <time>2012-04-02T12:24:03Z</time>
      </trkpt>
      <trkpt lat="48.16304" lon="6.41286">
        <ele>374.09</ele>
        <time>2012-04-02T12:24:04Z</time>
      </trkpt>
      <trkpt lat="48.16303" lon="6.41292">
        <ele>375.05</ele>
        <time>2012-04-02T12:24:08Z</time>
      </trkpt>
      <trkpt lat="48.16301" lon="6.41293">
        <ele>375.53</ele>
        <time>2012-04-02T12:24:09Z</time>
      </trkpt>
      <trkpt lat="48.163" lon="6.41294">
        <ele>376.01</ele>
        <time>2012-04-02T12:24:10Z</time>
      </trkpt>
      <trkpt lat="48.16298" lon="6.41299">
        <ele>381.78</ele>
        <time>2012-04-02T12:24:24Z</time>
      </trkpt>
      <trkpt lat="48.16295" lon="6.41298">
        <ele>385.63</ele>
        <time>2012-04-02T12:24:45Z</time>
      </trkpt>
      <trkpt lat="48.16294" lon="6.413">
        <ele>388.99</ele>
        <time>2012-04-02T12:25:05Z</time>
      </trkpt>
      <trkpt lat="48.16295" lon="6.413">
        <ele>389.95</ele>
        <time>2012-04-02T12:25:17Z</time>
      </trkpt>
      <trkpt lat="48.16295" lon="6.413">
        <ele>389.95</ele>
        <time>2012-04-02T12:25:19Z</time>
      </trkpt>
      <trkpt lat="48.16298" lon="6.41299">
        <ele>389.95</ele>
        <time>2012-04-02T12:25:20Z</time>
      </trkpt>
      <trkpt lat="48.16301" lon="6.41299">
        <ele>389.95</ele>
        <time>2012-04-02T12:25:21Z</time>
      </trkpt>
      <trkpt lat="48.16304" lon="6.41301">
        <ele>389.95</ele>
        <time>2012-04-02T12:25:22Z</time>
      </trkpt>
      <trkpt lat="48.16307" lon="6.41305">
        <ele>389.47</ele>
        <time>2012-04-02T12:25:23Z</time>
      </trkpt>
      <trkpt lat="48.16309" lon="6.41311">
        <ele>388.99</ele>
        <time>2012-04-02T12:25:24Z</time>
      </trkpt>
      <trkpt lat="48.1631" lon="6.41316">
        <ele>388.51</ele>
        <time>2012-04-02T12:25:25Z</time>
      </trkpt>
      <trkpt lat="48.16309" lon="6.41321">
        <ele>388.51</ele>
        <time>2012-04-02T12:25:26Z</time>
      </trkpt>
      <trkpt lat="48.16307" lon="6.41325">
        <ele>388.03</ele>
        <time>2012-04-02T12:25:27Z</time>
      </trkpt>
      <trkpt lat="48.16305" lon="6.41327">
        <ele>388.03</ele>
        <time>2012-04-02T12:25:28Z</time>
      </trkpt>
      <trkpt lat="48.16302" lon="6.41328">
        <ele>387.55</ele>
        <time>2012-04-02T12:25:29Z</time>
      </trkpt>
      <trkpt lat="48.16299" lon="6.41329">
        <ele>387.07</ele>
        <time>2012-04-02T12:25:30Z</time>
      </trkpt>
      <trkpt lat="48.16296" lon="6.41331">
        <ele>386.59</ele>
        <time>2012-04-02T12:25:31Z</time>
      </trkpt>
      <trkpt lat="48.16292" lon="6.41333">
        <ele>386.11</ele>
        <time>2012-04-02T12:25:32Z</time>
      </trkpt>
      <trkpt lat="48.16288" lon="6.41336">
        <ele>385.63</ele>
        <time>2012-04-02T12:25:33Z</time>
      </trkpt>
      <trkpt lat="48.1627" lon="6.4135">
        <ele>384.66</ele>
        <time>2012-04-02T12:25:37Z</time>
      </trkpt>
      <trkpt lat="48.16258" lon="6.41358">
        <ele>383.22</ele>
        <time>2012-04-02T12:25:40Z</time>
      </trkpt>
      <trkpt lat="48.1623" lon="6.41394">
        <ele>377.45</ele>
        <time>2012-04-02T12:25:47Z</time>
      </trkpt>
      <trkpt lat="48.16208" lon="6.41442">
        <ele>371.21</ele>
        <time>2012-04-02T12:25:54Z</time>
      </trkpt>
      <trkpt lat="48.162" lon="6.41469">
        <ele>368.8</ele>
        <time>2012-04-02T12:25:58Z</time>
      </trkpt>
      <trkpt lat="48.16198" lon="6.41476">
        <ele>368.32</ele>
        <time>2012-04-02T12:25:59Z</time>
      </trkpt>
      <trkpt lat="48.16196" lon="6.41484">
        <ele>367.84</ele>
        <time>2012-04-02T12:26:00Z</time>
      </trkpt>
      <trkpt lat="48.16194" lon="6.41491">
        <ele>367.36</ele>
        <time>2012-04-02T12:26:01Z</time>
      </trkpt>
      <trkpt lat="48.16192" lon="6.41497">
        <ele>366.88</ele>
        <time>2012-04-02T12:26:02Z</time>
      </trkpt>
      <trkpt lat="48.1619" lon="6.41504">
        <ele>366.4</ele>
        <time>2012-04-02T12:26:03Z</time>
      </trkpt>
      <trkpt lat="48.16188" lon="6.4151">
        <ele>365.92</ele>
        <time>2012-04-02T12:26:04Z</time>
      </trkpt>
      <trkpt lat="48.16185" lon="6.41516">
        <ele>365.44</ele>
        <time>2012-04-02T12:26:05Z</time>
      </trkpt>
      <trkpt lat="48.16182" lon="6.41521">
        <ele>364.96</ele>
        <time>2012-04-02T12:26:06Z</time>
      </trkpt>
      <trkpt lat="48.16166" lon="6.41544">
        <ele>364</ele>
        <time>2012-04-02T12:26:11Z</time>
      </trkpt>
      <trkpt lat="48.16163" lon="6.41547">
        <ele>363.52</ele>
        <time>2012-04-02T12:26:12Z</time>
      </trkpt>
      <trkpt lat="48.16159" lon="6.41552">
        <ele>363.04</ele>
        <time>2012-04-02T12:26:13Z</time>
      </trkpt>
      <trkpt lat="48.16156" lon="6.41555">
        <ele>363.04</ele>
        <time>2012-04-02T12:26:14Z</time>
      </trkpt>
      <trkpt lat="48.16153" lon="6.41556">
        <ele>362.55</ele>
        <time>2012-04-02T12:26:15Z</time>
      </trkpt>
      <trkpt lat="48.16149" lon="6.41559">
        <ele>362.55</ele>
        <time>2012-04-02T12:26:16Z</time>
      </trkpt>
      <trkpt lat="48.16146" lon="6.41562">
        <ele>363.04</ele>
        <time>2012-04-02T12:26:17Z</time>
      </trkpt>
      <trkpt lat="48.16144" lon="6.41565">
        <ele>363.04</ele>
        <time>2012-04-02T12:26:18Z</time>
      </trkpt>
      <trkpt lat="48.16138" lon="6.41591">
        <ele>364.96</ele>
        <time>2012-04-02T12:26:26Z</time>
      </trkpt>
      <trkpt lat="48.16137" lon="6.41595">
        <ele>365.44</ele>
        <time>2012-04-02T12:26:27Z</time>
      </trkpt>
      <trkpt lat="48.16136" lon="6.416">
        <ele>365.44</ele>
        <time>2012-04-02T12:26:28Z</time>
      </trkpt>
      <trkpt lat="48.16135" lon="6.41605">
        <ele>365.44</ele>
        <time>2012-04-02T12:26:29Z</time>
      </trkpt>
      <trkpt lat="48.16133" lon="6.4161">
        <ele>365.44</ele>
        <time>2012-04-02T12:26:30Z</time>
      </trkpt>
      <trkpt lat="48.16131" lon="6.41615">
        <ele>365.92</ele>
        <time>2012-04-02T12:26:31Z</time>
      </trkpt>
      <trkpt lat="48.16128" lon="6.4162">
        <ele>365.92</ele>
        <time>2012-04-02T12:26:32Z</time>
      </trkpt>
      <trkpt lat="48.16126" lon="6.41626">
        <ele>366.4</ele>
        <time>2012-04-02T12:26:33Z</time>
      </trkpt>
      <trkpt lat="48.16109" lon="6.41654">
        <ele>367.36</ele>
        <time>2012-04-02T12:26:40Z</time>
      </trkpt>
      <trkpt lat="48.16107" lon="6.41658">
        <ele>367.36</ele>
        <time>2012-04-02T12:26:41Z</time>
      </trkpt>
      <trkpt lat="48.16104" lon="6.41662">
        <ele>366.88</ele>
        <time>2012-04-02T12:26:42Z</time>
      </trkpt>
      <trkpt lat="48.16084" lon="6.41703">
        <ele>366.88</ele>
        <time>2012-04-02T12:26:50Z</time>
      </trkpt>
      <trkpt lat="48.16083" lon="6.41708">
        <ele>366.88</ele>
        <time>2012-04-02T12:26:51Z</time>
      </trkpt>
      <trkpt lat="48.16081" lon="6.41713">
        <ele>366.88</ele>
        <time>2012-04-02T12:26:52Z</time>
      </trkpt>
      <trkpt lat="48.1608" lon="6.41718">
        <ele>366.88</ele>
        <time>2012-04-02T12:26:53Z</time>
      </trkpt>
      <trkpt lat="48.16079" lon="6.41721">
        <ele>367.84</ele>
        <time>2012-04-02T12:26:54Z</time>
      </trkpt>
      <trkpt lat="48.16078" lon="6.41726">
        <ele>367.84</ele>
        <time>2012-04-02T12:26:55Z</time>
      </trkpt>
      <trkpt lat="48.16076" lon="6.41731">
        <ele>368.32</ele>
        <time>2012-04-02T12:26:56Z</time>
      </trkpt>
      <trkpt lat="48.16075" lon="6.41735">
        <ele>368.32</ele>
        <time>2012-04-02T12:26:57Z</time>
      </trkpt>
      <trkpt lat="48.16053" lon="6.41778">
        <ele>372.17</ele>
        <time>2012-04-02T12:27:07Z</time>
      </trkpt>
      <trkpt lat="48.16047" lon="6.41787">
        <ele>374.57</ele>
        <time>2012-04-02T12:27:11Z</time>
      </trkpt>
      <trkpt lat="48.16044" lon="6.41789">
        <ele>375.05</ele>
        <time>2012-04-02T12:27:13Z</time>
      </trkpt>
      <trkpt lat="48.16043" lon="6.41789">
        <ele>376.01</ele>
        <time>2012-04-02T12:27:14Z</time>
      </trkpt>
      <trkpt lat="48.16042" lon="6.41791">
        <ele>376.01</ele>
        <time>2012-04-02T12:27:15Z</time>
      </trkpt>
      <trkpt lat="48.16041" lon="6.41794">
        <ele>376.01</ele>
        <time>2012-04-02T12:27:16Z</time>
      </trkpt>
      <trkpt lat="48.1604" lon="6.41796">
        <ele>376.01</ele>
        <time>2012-04-02T12:27:17Z</time>
      </trkpt>
      <trkpt lat="48.16039" lon="6.41799">
        <ele>376.49</ele>
        <time>2012-04-02T12:27:18Z</time>
      </trkpt>
      <trkpt lat="48.16037" lon="6.41802">
        <ele>376.97</ele>
        <time>2012-04-02T12:27:19Z</time>
      </trkpt>
      <trkpt lat="48.16032" lon="6.4181">
        <ele>376.97</ele>
        <time>2012-04-02T12:27:20Z</time>
      </trkpt>
      <trkpt lat="48.16029" lon="6.41814">
        <ele>377.45</ele>
        <time>2012-04-02T12:27:21Z</time>
      </trkpt>
      <trkpt lat="48.16027" lon="6.41817">
        <ele>377.94</ele>
        <time>2012-04-02T12:27:22Z</time>
      </trkpt>
      <trkpt lat="48.16025" lon="6.4182">
        <ele>378.42</ele>
        <time>2012-04-02T12:27:23Z</time>
      </trkpt>
      <trkpt lat="48.16008" lon="6.41855">
        <ele>380.82</ele>
        <time>2012-04-02T12:27:31Z</time>
      </trkpt>
      <trkpt lat="48.15997" lon="6.41897">
        <ele>383.7</ele>
        <time>2012-04-02T12:27:42Z</time>
      </trkpt>
      <trkpt lat="48.15996" lon="6.41912">
        <ele>386.11</ele>
        <time>2012-04-02T12:27:46Z</time>
      </trkpt>
      <trkpt lat="48.15996" lon="6.41915">
        <ele>387.07</ele>
        <time>2012-04-02T12:27:47Z</time>
      </trkpt>
      <trkpt lat="48.15995" lon="6.41919">
        <ele>387.55</ele>
        <time>2012-04-02T12:27:48Z</time>
      </trkpt>
      <trkpt lat="48.15994" lon="6.41926">
        <ele>388.99</ele>
        <time>2012-04-02T12:27:50Z</time>
      </trkpt>
      <trkpt lat="48.15993" lon="6.4194">
        <ele>392.84</ele>
        <time>2012-04-02T12:27:54Z</time>
      </trkpt>
      <trkpt lat="48.15993" lon="6.41943">
        <ele>393.32</ele>
        <time>2012-04-02T12:27:55Z</time>
      </trkpt>
      <trkpt lat="48.15993" lon="6.41947">
        <ele>392.84</ele>
        <time>2012-04-02T12:27:56Z</time>
      </trkpt>
      <trkpt lat="48.15993" lon="6.41951">
        <ele>393.32</ele>
        <time>2012-04-02T12:27:57Z</time>
      </trkpt>
      <trkpt lat="48.15993" lon="6.41955">
        <ele>393.32</ele>
        <time>2012-04-02T12:27:58Z</time>
      </trkpt>
      <trkpt lat="48.15993" lon="6.41957">
        <ele>393.32</ele>
        <time>2012-04-02T12:27:59Z</time>
      </trkpt>
      <trkpt lat="48.15993" lon="6.41959">
        <ele>393.32</ele>
        <time>2012-04-02T12:28:00Z</time>
      </trkpt>
      <trkpt lat="48.15991" lon="6.41962">
        <ele>393.32</ele>
        <time>2012-04-02T12:28:01Z</time>
      </trkpt>
      <trkpt lat="48.1599" lon="6.41965">
        <ele>393.32</ele>
        <time>2012-04-02T12:28:02Z</time>
      </trkpt>
      <trkpt lat="48.15989" lon="6.41969">
        <ele>393.32</ele>
        <time>2012-04-02T12:28:03Z</time>
      </trkpt>
      <trkpt lat="48.15989" lon="6.41971">
        <ele>393.8</ele>
        <time>2012-04-02T12:28:04Z</time>
      </trkpt>
      <trkpt lat="48.15982" lon="6.42001">
        <ele>394.76</ele>
        <time>2012-04-02T12:28:16Z</time>
      </trkpt>
      <trkpt lat="48.15982" lon="6.42003">
        <ele>394.76</ele>
        <time>2012-04-02T12:28:17Z</time>
      </trkpt>
      <trkpt lat="48.1598" lon="6.42013">
        <ele>394.76</ele>
        <time>2012-04-02T12:28:22Z</time>
      </trkpt>
      <trkpt lat="48.1598" lon="6.42017">
        <ele>395.24</ele>
        <time>2012-04-02T12:28:23Z</time>
      </trkpt>
      <trkpt lat="48.15979" lon="6.42022">
        <ele>395.72</ele>
        <time>2012-04-02T12:28:24Z</time>
      </trkpt>
      <trkpt lat="48.15978" lon="6.42028">
        <ele>396.2</ele>
        <time>2012-04-02T12:28:25Z</time>
      </trkpt>
      <trkpt lat="48.15977" lon="6.42032">
        <ele>396.2</ele>
        <time>2012-04-02T12:28:26Z</time>
      </trkpt>
      <trkpt lat="48.15975" lon="6.42035">
        <ele>396.68</ele>
        <time>2012-04-02T12:28:27Z</time>
      </trkpt>
      <trkpt lat="48.15974" lon="6.42038">
        <ele>397.16</ele>
        <time>2012-04-02T12:28:28Z</time>
      </trkpt>
      <trkpt lat="48.15972" lon="6.42042">
        <ele>397.16</ele>
        <time>2012-04-02T12:28:29Z</time>
      </trkpt>
      <trkpt lat="48.15971" lon="6.42044">
        <ele>397.64</ele>
        <time>2012-04-02T12:28:30Z</time>
      </trkpt>
      <trkpt lat="48.15969" lon="6.42051">
        <ele>398.6</ele>
        <time>2012-04-02T12:28:34Z</time>
      </trkpt>
      <trkpt lat="48.15968" lon="6.42054">
        <ele>398.6</ele>
        <time>2012-04-02T12:28:35Z</time>
      </trkpt>
      <trkpt lat="48.15967" lon="6.42057">
        <ele>399.08</ele>
        <time>2012-04-02T12:28:36Z</time>
      </trkpt>
      <trkpt lat="48.15966" lon="6.4206">
        <ele>399.08</ele>
        <time>2012-04-02T12:28:37Z</time>
      </trkpt>
      <trkpt lat="48.15964" lon="6.42063">
        <ele>399.57</ele>
        <time>2012-04-02T12:28:38Z</time>
      </trkpt>
      <trkpt lat="48.15963" lon="6.42066">
        <ele>399.57</ele>
        <time>2012-04-02T12:28:39Z</time>
      </trkpt>
      <trkpt lat="48.1596" lon="6.42076">
        <ele>399.57</ele>
        <time>2012-04-02T12:28:43Z</time>
      </trkpt>
      <trkpt lat="48.15959" lon="6.42078">
        <ele>400.05</ele>
        <time>2012-04-02T12:28:44Z</time>
      </trkpt>
      <trkpt lat="48.15957" lon="6.42083">
        <ele>400.53</ele>
        <time>2012-04-02T12:28:46Z</time>
      </trkpt>
      <trkpt lat="48.15957" lon="6.42086">
        <ele>400.53</ele>
        <time>2012-04-02T12:28:47Z</time>
      </trkpt>
      <trkpt lat="48.15957" lon="6.42089">
        <ele>400.53</ele>
        <time>2012-04-02T12:28:48Z</time>
      </trkpt>
      <trkpt lat="48.15957" lon="6.42093">
        <ele>400.53</ele>
        <time>2012-04-02T12:28:49Z</time>
      </trkpt>
      <trkpt lat="48.15956" lon="6.42095">
        <ele>401.01</ele>
        <time>2012-04-02T12:28:50Z</time>
      </trkpt>
      <trkpt lat="48.15955" lon="6.42098">
        <ele>401.49</ele>
        <time>2012-04-02T12:28:51Z</time>
      </trkpt>
      <trkpt lat="48.15954" lon="6.421">
        <ele>401.97</ele>
        <time>2012-04-02T12:28:52Z</time>
      </trkpt>
      <trkpt lat="48.15952" lon="6.42103">
        <ele>402.45</ele>
        <time>2012-04-02T12:28:53Z</time>
      </trkpt>
      <trkpt lat="48.1595" lon="6.42105">
        <ele>402.93</ele>
        <time>2012-04-02T12:28:54Z</time>
      </trkpt>
      <trkpt lat="48.15949" lon="6.42108">
        <ele>402.93</ele>
        <time>2012-04-02T12:28:55Z</time>
      </trkpt>
      <trkpt lat="48.15948" lon="6.4211">
        <ele>403.41</ele>
        <time>2012-04-02T12:28:56Z</time>
      </trkpt>
      <trkpt lat="48.15947" lon="6.42114">
        <ele>404.37</ele>
        <time>2012-04-02T12:28:57Z</time>
      </trkpt>
      <trkpt lat="48.15941" lon="6.4213">
        <ele>405.81</ele>
        <time>2012-04-02T12:29:02Z</time>
      </trkpt>
      <trkpt lat="48.15939" lon="6.42131">
        <ele>406.77</ele>
        <time>2012-04-02T12:29:03Z</time>
      </trkpt>
      <trkpt lat="48.15938" lon="6.42132">
        <ele>407.26</ele>
        <time>2012-04-02T12:29:04Z</time>
      </trkpt>
      <trkpt lat="48.15936" lon="6.42134">
        <ele>409.18</ele>
        <time>2012-04-02T12:29:06Z</time>
      </trkpt>
      <trkpt lat="48.15935" lon="6.42136">
        <ele>409.66</ele>
        <time>2012-04-02T12:29:07Z</time>
      </trkpt>
      <trkpt lat="48.15933" lon="6.42138">
        <ele>410.62</ele>
        <time>2012-04-02T12:29:08Z</time>
      </trkpt>
      <trkpt lat="48.15932" lon="6.4214">
        <ele>411.1</ele>
        <time>2012-04-02T12:29:09Z</time>
      </trkpt>
      <trkpt lat="48.15931" lon="6.42142">
        <ele>411.58</ele>
        <time>2012-04-02T12:29:10Z</time>
      </trkpt>
      <trkpt lat="48.15931" lon="6.42144">
        <ele>412.06</ele>
        <time>2012-04-02T12:29:11Z</time>
      </trkpt>
      <trkpt lat="48.1593" lon="6.42146">
        <ele>412.54</ele>
        <time>2012-04-02T12:29:12Z</time>
      </trkpt>
      <trkpt lat="48.15929" lon="6.42149">
        <ele>413.5</ele>
        <time>2012-04-02T12:29:13Z</time>
      </trkpt>
      <trkpt lat="48.15927" lon="6.42153">
        <ele>413.98</ele>
        <time>2012-04-02T12:29:14Z</time>
      </trkpt>
      <trkpt lat="48.15925" lon="6.4216">
        <ele>414.95</ele>
        <time>2012-04-02T12:29:16Z</time>
      </trkpt>
      <trkpt lat="48.15922" lon="6.42166">
        <ele>417.35</ele>
        <time>2012-04-02T12:29:18Z</time>
      </trkpt>
      <trkpt lat="48.15921" lon="6.42168">
        <ele>417.83</ele>
        <time>2012-04-02T12:29:19Z</time>
      </trkpt>
      <trkpt lat="48.1592" lon="6.42175">
        <ele>418.31</ele>
        <time>2012-04-02T12:29:22Z</time>
      </trkpt>
      <trkpt lat="48.15919" lon="6.42178">
        <ele>418.31</ele>
        <time>2012-04-02T12:29:23Z</time>
      </trkpt>
      <trkpt lat="48.15919" lon="6.42181">
        <ele>418.79</ele>
        <time>2012-04-02T12:29:24Z</time>
      </trkpt>
      <trkpt lat="48.15919" lon="6.42185">
        <ele>419.27</ele>
        <time>2012-04-02T12:29:25Z</time>
      </trkpt>
      <trkpt lat="48.15919" lon="6.42188">
        <ele>419.75</ele>
        <time>2012-04-02T12:29:26Z</time>
      </trkpt>
      <trkpt lat="48.15916" lon="6.4221">
        <ele>420.23</ele>
        <time>2012-04-02T12:29:34Z</time>
      </trkpt>
      <trkpt lat="48.15916" lon="6.42213">
        <ele>420.23</ele>
        <time>2012-04-02T12:29:35Z</time>
      </trkpt>
      <trkpt lat="48.15917" lon="6.42219">
        <ele>421.19</ele>
        <time>2012-04-02T12:29:37Z</time>
      </trkpt>
      <trkpt lat="48.15917" lon="6.42223">
        <ele>421.68</ele>
        <time>2012-04-02T12:29:38Z</time>
      </trkpt>
      <trkpt lat="48.15915" lon="6.42253">
        <ele>425.04</ele>
        <time>2012-04-02T12:29:48Z</time>
      </trkpt>
      <trkpt lat="48.15912" lon="6.42269">
        <ele>428.89</ele>
        <time>2012-04-02T12:29:53Z</time>
      </trkpt>
      <trkpt lat="48.15911" lon="6.42273">
        <ele>429.85</ele>
        <time>2012-04-02T12:29:55Z</time>
      </trkpt>
      <trkpt lat="48.15911" lon="6.42275">
        <ele>429.85</ele>
        <time>2012-04-02T12:29:56Z</time>
      </trkpt>
      <trkpt lat="48.15911" lon="6.42277">
        <ele>430.33</ele>
        <time>2012-04-02T12:29:57Z</time>
      </trkpt>
      <trkpt lat="48.15911" lon="6.4228">
        <ele>430.33</ele>
        <time>2012-04-02T12:29:58Z</time>
      </trkpt>
      <trkpt lat="48.15911" lon="6.42282">
        <ele>430.81</ele>
        <time>2012-04-02T12:29:59Z</time>
      </trkpt>
      <trkpt lat="48.1591" lon="6.42284">
        <ele>430.81</ele>
        <time>2012-04-02T12:30:00Z</time>
      </trkpt>
      <trkpt lat="48.1591" lon="6.42289">
        <ele>430.81</ele>
        <time>2012-04-02T12:30:02Z</time>
      </trkpt>
      <trkpt lat="48.1591" lon="6.42318">
        <ele>433.21</ele>
        <time>2012-04-02T12:30:13Z</time>
      </trkpt>
      <trkpt lat="48.1591" lon="6.42321">
        <ele>433.69</ele>
        <time>2012-04-02T12:30:14Z</time>
      </trkpt>
      <trkpt lat="48.1591" lon="6.42323">
        <ele>434.17</ele>
        <time>2012-04-02T12:30:15Z</time>
      </trkpt>
      <trkpt lat="48.1591" lon="6.42326">
        <ele>434.17</ele>
        <time>2012-04-02T12:30:16Z</time>
      </trkpt>
      <trkpt lat="48.15908" lon="6.42341">
        <ele>438.98</ele>
        <time>2012-04-02T12:30:23Z</time>
      </trkpt>
      <trkpt lat="48.15908" lon="6.42343">
        <ele>439.94</ele>
        <time>2012-04-02T12:30:24Z</time>
      </trkpt>
      <trkpt lat="48.15908" lon="6.42345">
        <ele>440.42</ele>
        <time>2012-04-02T12:30:25Z</time>
      </trkpt>
      <trkpt lat="48.15907" lon="6.42347">
        <ele>440.9</ele>
        <time>2012-04-02T12:30:26Z</time>
      </trkpt>
      <trkpt lat="48.15907" lon="6.42349">
        <ele>442.34</ele>
        <time>2012-04-02T12:30:27Z</time>
      </trkpt>
      <trkpt lat="48.15907" lon="6.42352">
        <ele>443.31</ele>
        <time>2012-04-02T12:30:28Z</time>
      </trkpt>
      <trkpt lat="48.15905" lon="6.42361">
        <ele>445.23</ele>
        <time>2012-04-02T12:30:31Z</time>
      </trkpt>
      <trkpt lat="48.15904" lon="6.42364">
        <ele>445.23</ele>
        <time>2012-04-02T12:30:32Z</time>
      </trkpt>
      <trkpt lat="48.15904" lon="6.42367">
        <ele>445.23</ele>
        <time>2012-04-02T12:30:33Z</time>
      </trkpt>
      <trkpt lat="48.15903" lon="6.4237">
        <ele>445.23</ele>
        <time>2012-04-02T12:30:34Z</time>
      </trkpt>
      <trkpt lat="48.15903" lon="6.42372">
        <ele>445.71</ele>
        <time>2012-04-02T12:30:35Z</time>
      </trkpt>
      <trkpt lat="48.15903" lon="6.42375">
        <ele>446.19</ele>
        <time>2012-04-02T12:30:36Z</time>
      </trkpt>
      <trkpt lat="48.15902" lon="6.42377">
        <ele>446.19</ele>
        <time>2012-04-02T12:30:37Z</time>
      </trkpt>
      <trkpt lat="48.15901" lon="6.42379">
        <ele>446.19</ele>
        <time>2012-04-02T12:30:38Z</time>
      </trkpt>
      <trkpt lat="48.15901" lon="6.42393">
        <ele>447.15</ele>
        <time>2012-04-02T12:30:45Z</time>
      </trkpt>
      <trkpt lat="48.15901" lon="6.42395">
        <ele>447.63</ele>
        <time>2012-04-02T12:30:46Z</time>
      </trkpt>
      <trkpt lat="48.15901" lon="6.42397">
        <ele>448.11</ele>
        <time>2012-04-02T12:30:47Z</time>
      </trkpt>
      <trkpt lat="48.15903" lon="6.4242">
        <ele>449.07</ele>
        <time>2012-04-02T12:30:57Z</time>
      </trkpt>
      <trkpt lat="48.15904" lon="6.4243">
        <ele>446.19</ele>
        <time>2012-04-02T12:31:01Z</time>
      </trkpt>
      <trkpt lat="48.15903" lon="6.42434">
        <ele>445.23</ele>
        <time>2012-04-02T12:31:02Z</time>
      </trkpt>
      <trkpt lat="48.15902" lon="6.42439">
        <ele>445.23</ele>
        <time>2012-04-02T12:31:03Z</time>
      </trkpt>
      <trkpt lat="48.15902" lon="6.42443">
        <ele>445.23</ele>
        <time>2012-04-02T12:31:04Z</time>
      </trkpt>
      <trkpt lat="48.15902" lon="6.42447">
        <ele>445.23</ele>
        <time>2012-04-02T12:31:05Z</time>
      </trkpt>
      <trkpt lat="48.15903" lon="6.42451">
        <ele>446.67</ele>
        <time>2012-04-02T12:31:07Z</time>
      </trkpt>
      <trkpt lat="48.15913" lon="6.42458">
        <ele>446.67</ele>
        <time>2012-04-02T12:31:14Z</time>
      </trkpt>
      <trkpt lat="48.15923" lon="6.42466">
        <ele>446.67</ele>
        <time>2012-04-02T12:31:21Z</time>
      </trkpt>
      <trkpt lat="48.15947" lon="6.42442">
        <ele>447.15</ele>
        <time>2012-04-02T12:31:35Z</time>
      </trkpt>
      <trkpt lat="48.15972" lon="6.42398">
        <ele>451.48</ele>
        <time>2012-04-02T12:31:46Z</time>
      </trkpt>
      <trkpt lat="48.15999" lon="6.42353">
        <ele>454.84</ele>
        <time>2012-04-02T12:31:59Z</time>
      </trkpt>
      <trkpt lat="48.16021" lon="6.42315">
        <ele>452.92</ele>
        <time>2012-04-02T12:32:11Z</time>
      </trkpt>
      <trkpt lat="48.16043" lon="6.42278">
        <ele>451</ele>
        <time>2012-04-02T12:32:22Z</time>
      </trkpt>
      <trkpt lat="48.16045" lon="6.42275">
        <ele>451</ele>
        <time>2012-04-02T12:32:23Z</time>
      </trkpt>
      <trkpt lat="48.16068" lon="6.42243">
        <ele>448.11</ele>
        <time>2012-04-02T12:32:34Z</time>
      </trkpt>
      <trkpt lat="48.1609" lon="6.42205">
        <ele>448.59</ele>
        <time>2012-04-02T12:32:45Z</time>
      </trkpt>
      <trkpt lat="48.16099" lon="6.42189">
        <ele>448.11</ele>
        <time>2012-04-02T12:32:49Z</time>
      </trkpt>
      <trkpt lat="48.16109" lon="6.42166">
        <ele>448.11</ele>
        <time>2012-04-02T12:32:53Z</time>
      </trkpt>
      <trkpt lat="48.16124" lon="6.42131">
        <ele>446.67</ele>
        <time>2012-04-02T12:32:58Z</time>
      </trkpt>
      <trkpt lat="48.16138" lon="6.42097">
        <ele>445.71</ele>
        <time>2012-04-02T12:33:03Z</time>
      </trkpt>
      <trkpt lat="48.16161" lon="6.42039">
        <ele>445.23</ele>
        <time>2012-04-02T12:33:14Z</time>
      </trkpt>
      <trkpt lat="48.16162" lon="6.42034">
        <ele>445.23</ele>
        <time>2012-04-02T12:33:15Z</time>
      </trkpt>
      <trkpt lat="48.1617" lon="6.42012">
        <ele>444.27</ele>
        <time>2012-04-02T12:33:19Z</time>
      </trkpt>
      <trkpt lat="48.16207" lon="6.41938">
        <ele>440.9</ele>
        <time>2012-04-02T12:33:34Z</time>
      </trkpt>
      <trkpt lat="48.16228" lon="6.4189">
        <ele>435.61</ele>
        <time>2012-04-02T12:33:43Z</time>
      </trkpt>
      <trkpt lat="48.16245" lon="6.41845">
        <ele>431.77</ele>
        <time>2012-04-02T12:33:51Z</time>
      </trkpt>
      <trkpt lat="48.16268" lon="6.41817">
        <ele>432.25</ele>
        <time>2012-04-02T12:33:59Z</time>
      </trkpt>
      <trkpt lat="48.16271" lon="6.41814">
        <ele>432.25</ele>
        <time>2012-04-02T12:34:00Z</time>
      </trkpt>
      <trkpt lat="48.16314" lon="6.41788">
        <ele>437.06</ele>
        <time>2012-04-02T12:34:11Z</time>
      </trkpt>
      <trkpt lat="48.16338" lon="6.41773">
        <ele>438.5</ele>
        <time>2012-04-02T12:34:17Z</time>
      </trkpt>
      <trkpt lat="48.16356" lon="6.41784">
        <ele>438.5</ele>
        <time>2012-04-02T12:34:24Z</time>
      </trkpt>
      <trkpt lat="48.16354" lon="6.41786">
        <ele>438.5</ele>
        <time>2012-04-02T12:34:25Z</time>
      </trkpt>
      <trkpt lat="48.16339" lon="6.41817">
        <ele>435.13</ele>
        <time>2012-04-02T12:34:33Z</time>
      </trkpt>
      <trkpt lat="48.16329" lon="6.41839">
        <ele>435.13</ele>
        <time>2012-04-02T12:34:38Z</time>
      </trkpt>
      <trkpt lat="48.16312" lon="6.41874">
        <ele>435.13</ele>
        <time>2012-04-02T12:34:45Z</time>
      </trkpt>
      <trkpt lat="48.16309" lon="6.41885">
        <ele>435.13</ele>
        <time>2012-04-02T12:34:47Z</time>
      </trkpt>
      <trkpt lat="48.16297" lon="6.41946">
        <ele>433.69</ele>
        <time>2012-04-02T12:34:55Z</time>
      </trkpt>
      <trkpt lat="48.16293" lon="6.41981">
        <ele>432.73</ele>
        <time>2012-04-02T12:35:00Z</time>
      </trkpt>
      <trkpt lat="48.16288" lon="6.42011">
        <ele>432.73</ele>
        <time>2012-04-02T12:35:04Z</time>
      </trkpt>
      <trkpt lat="48.16285" lon="6.42042">
        <ele>433.21</ele>
        <time>2012-04-02T12:35:08Z</time>
      </trkpt>
      <trkpt lat="48.16285" lon="6.42057">
        <ele>433.21</ele>
        <time>2012-04-02T12:35:10Z</time>
      </trkpt>
      <trkpt lat="48.16289" lon="6.42098">
        <ele>432.25</ele>
        <time>2012-04-02T12:35:15Z</time>
      </trkpt>
      <trkpt lat="48.16289" lon="6.4212">
        <ele>431.29</ele>
        <time>2012-04-02T12:35:18Z</time>
      </trkpt>
      <trkpt lat="48.16261" lon="6.42182">
        <ele>434.17</ele>
        <time>2012-04-02T12:35:27Z</time>
      </trkpt>
      <trkpt lat="48.16255" lon="6.42194">
        <ele>435.13</ele>
        <time>2012-04-02T12:35:29Z</time>
      </trkpt>
      <trkpt lat="48.16238" lon="6.42229">
        <ele>435.13</ele>
        <time>2012-04-02T12:35:34Z</time>
      </trkpt>
      <trkpt lat="48.16231" lon="6.42242">
        <ele>434.17</ele>
        <time>2012-04-02T12:35:36Z</time>
      </trkpt>
      <trkpt lat="48.16218" lon="6.42267">
        <ele>433.69</ele>
        <time>2012-04-02T12:35:40Z</time>
      </trkpt>
      <trkpt lat="48.16185" lon="6.4233">
        <ele>433.21</ele>
        <time>2012-04-02T12:35:49Z</time>
      </trkpt>
      <trkpt lat="48.16172" lon="6.42358">
        <ele>432.25</ele>
        <time>2012-04-02T12:35:53Z</time>
      </trkpt>
      <trkpt lat="48.16154" lon="6.42393">
        <ele>430.81</ele>
        <time>2012-04-02T12:35:58Z</time>
      </trkpt>
      <trkpt lat="48.16136" lon="6.42418">
        <ele>430.81</ele>
        <time>2012-04-02T12:36:02Z</time>
      </trkpt>
      <trkpt lat="48.16073" lon="6.42478">
        <ele>431.77</ele>
        <time>2012-04-02T12:36:14Z</time>
      </trkpt>
      <trkpt lat="48.16068" lon="6.42483">
        <ele>431.77</ele>
        <time>2012-04-02T12:36:15Z</time>
      </trkpt>
      <trkpt lat="48.16053" lon="6.42496">
        <ele>430.81</ele>
        <time>2012-04-02T12:36:18Z</time>
      </trkpt>
      <trkpt lat="48.16017" lon="6.42534">
        <ele>429.85</ele>
        <time>2012-04-02T12:36:25Z</time>
      </trkpt>
      <trkpt lat="48.15991" lon="6.42569">
        <ele>428.89</ele>
        <time>2012-04-02T12:36:31Z</time>
      </trkpt>
      <trkpt lat="48.15986" lon="6.42574">
        <ele>428.89</ele>
        <time>2012-04-02T12:36:32Z</time>
      </trkpt>
      <trkpt lat="48.15978" lon="6.42584">
        <ele>428.89</ele>
        <time>2012-04-02T12:36:34Z</time>
      </trkpt>
      <trkpt lat="48.15974" lon="6.4259">
        <ele>428.89</ele>
        <time>2012-04-02T12:36:35Z</time>
      </trkpt>
      <trkpt lat="48.15969" lon="6.42595">
        <ele>429.37</ele>
        <time>2012-04-02T12:36:36Z</time>
      </trkpt>
      <trkpt lat="48.15965" lon="6.42599">
        <ele>429.37</ele>
        <time>2012-04-02T12:36:37Z</time>
      </trkpt>
      <trkpt lat="48.1596" lon="6.42603">
        <ele>429.37</ele>
        <time>2012-04-02T12:36:38Z</time>
      </trkpt>
      <trkpt lat="48.15957" lon="6.42638">
        <ele>429.85</ele>
        <time>2012-04-02T12:36:45Z</time>
      </trkpt>
      <trkpt lat="48.15959" lon="6.42642">
        <ele>429.85</ele>
        <time>2012-04-02T12:36:46Z</time>
      </trkpt>
      <trkpt lat="48.15963" lon="6.42647">
        <ele>429.85</ele>
        <time>2012-04-02T12:36:47Z</time>
      </trkpt>
      <trkpt lat="48.15967" lon="6.42651">
        <ele>429.85</ele>
        <time>2012-04-02T12:36:48Z</time>
      </trkpt>
      <trkpt lat="48.1597" lon="6.42656">
        <ele>429.85</ele>
        <time>2012-04-02T12:36:49Z</time>
      </trkpt>
      <trkpt lat="48.1598" lon="6.42672">
        <ele>429.85</ele>
        <time>2012-04-02T12:36:52Z</time>
      </trkpt>
      <trkpt lat="48.15991" lon="6.42706">
        <ele>429.37</ele>
        <time>2012-04-02T12:36:57Z</time>
      </trkpt>
      <trkpt lat="48.15992" lon="6.42713">
        <ele>429.37</ele>
        <time>2012-04-02T12:36:58Z</time>
      </trkpt>
      <trkpt lat="48.15993" lon="6.4272">
        <ele>429.85</ele>
        <time>2012-04-02T12:36:59Z</time>
      </trkpt>
      <trkpt lat="48.15992" lon="6.42726">
        <ele>429.85</ele>
        <time>2012-04-02T12:37:00Z</time>
      </trkpt>
      <trkpt lat="48.15991" lon="6.42733">
        <ele>430.81</ele>
        <time>2012-04-02T12:37:01Z</time>
      </trkpt>
      <trkpt lat="48.15989" lon="6.42738">
        <ele>431.77</ele>
        <time>2012-04-02T12:37:02Z</time>
      </trkpt>
      <trkpt lat="48.15987" lon="6.42742">
        <ele>432.73</ele>
        <time>2012-04-02T12:37:03Z</time>
      </trkpt>
      <trkpt lat="48.15983" lon="6.42751">
        <ele>434.17</ele>
        <time>2012-04-02T12:37:05Z</time>
      </trkpt>
      <trkpt lat="48.1598" lon="6.42756">
        <ele>435.61</ele>
        <time>2012-04-02T12:37:06Z</time>
      </trkpt>
      <trkpt lat="48.15976" lon="6.4276">
        <ele>436.58</ele>
        <time>2012-04-02T12:37:07Z</time>
      </trkpt>
      <trkpt lat="48.15938" lon="6.42813">
        <ele>449.55</ele>
        <time>2012-04-02T12:37:20Z</time>
      </trkpt>
      <trkpt lat="48.15936" lon="6.42816">
        <ele>450.03</ele>
        <time>2012-04-02T12:37:21Z</time>
      </trkpt>
      <trkpt lat="48.15919" lon="6.4283">
        <ele>451</ele>
        <time>2012-04-02T12:37:25Z</time>
      </trkpt>
      <trkpt lat="48.15915" lon="6.42834">
        <ele>451</ele>
        <time>2012-04-02T12:37:26Z</time>
      </trkpt>
      <trkpt lat="48.15877" lon="6.42875">
        <ele>450.52</ele>
        <time>2012-04-02T12:37:34Z</time>
      </trkpt>
      <trkpt lat="48.15873" lon="6.42881">
        <ele>450.52</ele>
        <time>2012-04-02T12:37:35Z</time>
      </trkpt>
      <trkpt lat="48.15867" lon="6.42886">
        <ele>450.03</ele>
        <time>2012-04-02T12:37:36Z</time>
      </trkpt>
      <trkpt lat="48.15862" lon="6.42889">
        <ele>450.03</ele>
        <time>2012-04-02T12:37:37Z</time>
      </trkpt>
      <trkpt lat="48.15857" lon="6.42891">
        <ele>449.55</ele>
        <time>2012-04-02T12:37:38Z</time>
      </trkpt>
      <trkpt lat="48.1585" lon="6.4289">
        <ele>449.55</ele>
        <time>2012-04-02T12:37:39Z</time>
      </trkpt>
      <trkpt lat="48.15844" lon="6.42887">
        <ele>449.07</ele>
        <time>2012-04-02T12:37:40Z</time>
      </trkpt>
      <trkpt lat="48.1584" lon="6.4288">
        <ele>448.59</ele>
        <time>2012-04-02T12:37:41Z</time>
      </trkpt>
      <trkpt lat="48.15837" lon="6.42871">
        <ele>448.11</ele>
        <time>2012-04-02T12:37:42Z</time>
      </trkpt>
      <trkpt lat="48.15835" lon="6.42862">
        <ele>447.63</ele>
        <time>2012-04-02T12:37:43Z</time>
      </trkpt>
      <trkpt lat="48.15835" lon="6.42854">
        <ele>447.15</ele>
        <time>2012-04-02T12:37:44Z</time>
      </trkpt>
      <trkpt lat="48.15835" lon="6.42847">
        <ele>446.67</ele>
        <time>2012-04-02T12:37:45Z</time>
      </trkpt>
      <trkpt lat="48.15835" lon="6.42841">
        <ele>445.71</ele>
        <time>2012-04-02T12:37:46Z</time>
      </trkpt>
      <trkpt lat="48.15832" lon="6.42824">
        <ele>444.75</ele>
        <time>2012-04-02T12:37:48Z</time>
      </trkpt>
      <trkpt lat="48.15829" lon="6.42816">
        <ele>444.27</ele>
        <time>2012-04-02T12:37:49Z</time>
      </trkpt>
      <trkpt lat="48.15825" lon="6.4281">
        <ele>443.79</ele>
        <time>2012-04-02T12:37:50Z</time>
      </trkpt>
      <trkpt lat="48.15821" lon="6.42806">
        <ele>443.31</ele>
        <time>2012-04-02T12:37:51Z</time>
      </trkpt>
      <trkpt lat="48.15819" lon="6.42805">
        <ele>442.82</ele>
        <time>2012-04-02T12:37:52Z</time>
      </trkpt>
      <trkpt lat="48.15816" lon="6.42806">
        <ele>442.34</ele>
        <time>2012-04-02T12:37:53Z</time>
      </trkpt>
      <trkpt lat="48.15809" lon="6.42814">
        <ele>440.9</ele>
        <time>2012-04-02T12:37:55Z</time>
      </trkpt>
      <trkpt lat="48.15804" lon="6.42819">
        <ele>440.42</ele>
        <time>2012-04-02T12:37:56Z</time>
      </trkpt>
      <trkpt lat="48.15799" lon="6.42825">
        <ele>439.46</ele>
        <time>2012-04-02T12:37:57Z</time>
      </trkpt>
      <trkpt lat="48.15794" lon="6.42831">
        <ele>438.98</ele>
        <time>2012-04-02T12:37:58Z</time>
      </trkpt>
      <trkpt lat="48.15773" lon="6.42855">
        <ele>433.69</ele>
        <time>2012-04-02T12:38:04Z</time>
      </trkpt>
      <trkpt lat="48.15772" lon="6.42862">
        <ele>432.73</ele>
        <time>2012-04-02T12:38:05Z</time>
      </trkpt>
      <trkpt lat="48.15771" lon="6.42868">
        <ele>431.77</ele>
        <time>2012-04-02T12:38:06Z</time>
      </trkpt>
      <trkpt lat="48.15772" lon="6.42894">
        <ele>427.92</ele>
        <time>2012-04-02T12:38:10Z</time>
      </trkpt>
      <trkpt lat="48.1577" lon="6.42903">
        <ele>426.96</ele>
        <time>2012-04-02T12:38:11Z</time>
      </trkpt>
      <trkpt lat="48.15769" lon="6.42912">
        <ele>426</ele>
        <time>2012-04-02T12:38:12Z</time>
      </trkpt>
      <trkpt lat="48.15765" lon="6.42922">
        <ele>425.04</ele>
        <time>2012-04-02T12:38:13Z</time>
      </trkpt>
      <trkpt lat="48.15761" lon="6.42932">
        <ele>424.08</ele>
        <time>2012-04-02T12:38:14Z</time>
      </trkpt>
      <trkpt lat="48.15756" lon="6.42941">
        <ele>423.12</ele>
        <time>2012-04-02T12:38:15Z</time>
      </trkpt>
      <trkpt lat="48.1575" lon="6.4295">
        <ele>422.16</ele>
        <time>2012-04-02T12:38:16Z</time>
      </trkpt>
      <trkpt lat="48.15743" lon="6.42958">
        <ele>421.68</ele>
        <time>2012-04-02T12:38:17Z</time>
      </trkpt>
      <trkpt lat="48.15704" lon="6.4299">
        <ele>417.83</ele>
        <time>2012-04-02T12:38:22Z</time>
      </trkpt>
      <trkpt lat="48.15682" lon="6.43004">
        <ele>415.91</ele>
        <time>2012-04-02T12:38:25Z</time>
      </trkpt>
      <trkpt lat="48.15676" lon="6.43011">
        <ele>414.95</ele>
        <time>2012-04-02T12:38:26Z</time>
      </trkpt>
      <trkpt lat="48.15671" lon="6.4302">
        <ele>413.98</ele>
        <time>2012-04-02T12:38:27Z</time>
      </trkpt>
      <trkpt lat="48.15664" lon="6.43029">
        <ele>413.5</ele>
        <time>2012-04-02T12:38:28Z</time>
      </trkpt>
      <trkpt lat="48.15657" lon="6.43038">
        <ele>412.54</ele>
        <time>2012-04-02T12:38:29Z</time>
      </trkpt>
      <trkpt lat="48.15618" lon="6.43074">
        <ele>409.18</ele>
        <time>2012-04-02T12:38:34Z</time>
      </trkpt>
      <trkpt lat="48.15602" lon="6.4308">
        <ele>407.74</ele>
        <time>2012-04-02T12:38:36Z</time>
      </trkpt>
      <trkpt lat="48.15593" lon="6.43082">
        <ele>406.77</ele>
        <time>2012-04-02T12:38:37Z</time>
      </trkpt>
      <trkpt lat="48.15585" lon="6.43084">
        <ele>406.29</ele>
        <time>2012-04-02T12:38:38Z</time>
      </trkpt>
      <trkpt lat="48.155" lon="6.43092">
        <ele>395.72</ele>
        <time>2012-04-02T12:38:48Z</time>
      </trkpt>
      <trkpt lat="48.15494" lon="6.43096">
        <ele>394.76</ele>
        <time>2012-04-02T12:38:49Z</time>
      </trkpt>
      <trkpt lat="48.15481" lon="6.43104">
        <ele>392.36</ele>
        <time>2012-04-02T12:38:51Z</time>
      </trkpt>
      <trkpt lat="48.15475" lon="6.43108">
        <ele>391.39</ele>
        <time>2012-04-02T12:38:52Z</time>
      </trkpt>
      <trkpt lat="48.15455" lon="6.43116">
        <ele>388.03</ele>
        <time>2012-04-02T12:38:55Z</time>
      </trkpt>
      <trkpt lat="48.15449" lon="6.43119">
        <ele>387.07</ele>
        <time>2012-04-02T12:38:56Z</time>
      </trkpt>
      <trkpt lat="48.15435" lon="6.43124">
        <ele>384.18</ele>
        <time>2012-04-02T12:38:58Z</time>
      </trkpt>
      <trkpt lat="48.15427" lon="6.43128">
        <ele>382.74</ele>
        <time>2012-04-02T12:38:59Z</time>
      </trkpt>
      <trkpt lat="48.1542" lon="6.43132">
        <ele>381.78</ele>
        <time>2012-04-02T12:39:00Z</time>
      </trkpt>
      <trkpt lat="48.15413" lon="6.43136">
        <ele>380.34</ele>
        <time>2012-04-02T12:39:01Z</time>
      </trkpt>
      <trkpt lat="48.15407" lon="6.43141">
        <ele>379.38</ele>
        <time>2012-04-02T12:39:02Z</time>
      </trkpt>
      <trkpt lat="48.15401" lon="6.43144">
        <ele>377.94</ele>
        <time>2012-04-02T12:39:03Z</time>
      </trkpt>
      <trkpt lat="48.15396" lon="6.43146">
        <ele>376.97</ele>
        <time>2012-04-02T12:39:04Z</time>
      </trkpt>
      <trkpt lat="48.15392" lon="6.43148">
        <ele>375.53</ele>
        <time>2012-04-02T12:39:05Z</time>
      </trkpt>
      <trkpt lat="48.15388" lon="6.43149">
        <ele>374.57</ele>
        <time>2012-04-02T12:39:06Z</time>
      </trkpt>
      <trkpt lat="48.15365" lon="6.4316">
        <ele>365.92</ele>
        <time>2012-04-02T12:39:12Z</time>
      </trkpt>
      <trkpt lat="48.15353" lon="6.43166">
        <ele>363.52</ele>
        <time>2012-04-02T12:39:14Z</time>
      </trkpt>
      <trkpt lat="48.15347" lon="6.43171">
        <ele>362.07</ele>
        <time>2012-04-02T12:39:15Z</time>
      </trkpt>
      <trkpt lat="48.15342" lon="6.43177">
        <ele>361.11</ele>
        <time>2012-04-02T12:39:16Z</time>
      </trkpt>
      <trkpt lat="48.15338" lon="6.43184">
        <ele>360.15</ele>
        <time>2012-04-02T12:39:17Z</time>
      </trkpt>
      <trkpt lat="48.15333" lon="6.43191">
        <ele>359.19</ele>
        <time>2012-04-02T12:39:18Z</time>
      </trkpt>
      <trkpt lat="48.15329" lon="6.43201">
        <ele>357.75</ele>
        <time>2012-04-02T12:39:19Z</time>
      </trkpt>
      <trkpt lat="48.1532" lon="6.43229">
        <ele>353.42</ele>
        <time>2012-04-02T12:39:22Z</time>
      </trkpt>
      <trkpt lat="48.15315" lon="6.43259">
        <ele>353.9</ele>
        <time>2012-04-02T12:39:24Z</time>
      </trkpt>
      <trkpt lat="48.15312" lon="6.43274">
        <ele>354.86</ele>
        <time>2012-04-02T12:39:25Z</time>
      </trkpt>
      <trkpt lat="48.15307" lon="6.43286">
        <ele>356.31</ele>
        <time>2012-04-02T12:39:26Z</time>
      </trkpt>
      <trkpt lat="48.15303" lon="6.43299">
        <ele>357.75</ele>
        <time>2012-04-02T12:39:27Z</time>
      </trkpt>
      <trkpt lat="48.153" lon="6.43312">
        <ele>358.71</ele>
        <time>2012-04-02T12:39:28Z</time>
      </trkpt>
      <trkpt lat="48.15298" lon="6.43324">
        <ele>359.19</ele>
        <time>2012-04-02T12:39:29Z</time>
      </trkpt>
      <trkpt lat="48.15298" lon="6.43334">
        <ele>359.67</ele>
        <time>2012-04-02T12:39:30Z</time>
      </trkpt>
      <trkpt lat="48.15291" lon="6.43391">
        <ele>359.19</ele>
        <time>2012-04-02T12:39:35Z</time>
      </trkpt>
      <trkpt lat="48.15275" lon="6.43497">
        <ele>359.19</ele>
        <time>2012-04-02T12:39:45Z</time>
      </trkpt>
      <trkpt lat="48.15271" lon="6.43524">
        <ele>360.63</ele>
        <time>2012-04-02T12:39:48Z</time>
      </trkpt>
      <trkpt lat="48.15268" lon="6.4355">
        <ele>361.59</ele>
        <time>2012-04-02T12:39:51Z</time>
      </trkpt>
      <trkpt lat="48.15261" lon="6.43584">
        <ele>361.59</ele>
        <time>2012-04-02T12:39:55Z</time>
      </trkpt>
      <trkpt lat="48.15238" lon="6.4366">
        <ele>363.04</ele>
        <time>2012-04-02T12:40:04Z</time>
      </trkpt>
      <trkpt lat="48.15235" lon="6.43669">
        <ele>363.04</ele>
        <time>2012-04-02T12:40:05Z</time>
      </trkpt>
      <trkpt lat="48.15232" lon="6.43677">
        <ele>363.04</ele>
        <time>2012-04-02T12:40:06Z</time>
      </trkpt>
      <trkpt lat="48.15229" lon="6.43685">
        <ele>363.04</ele>
        <time>2012-04-02T12:40:07Z</time>
      </trkpt>
      <trkpt lat="48.15228" lon="6.43694">
        <ele>362.55</ele>
        <time>2012-04-02T12:40:08Z</time>
      </trkpt>
      <trkpt lat="48.15226" lon="6.437">
        <ele>362.55</ele>
        <time>2012-04-02T12:40:09Z</time>
      </trkpt>
      <trkpt lat="48.15224" lon="6.43706">
        <ele>361.59</ele>
        <time>2012-04-02T12:40:10Z</time>
      </trkpt>
      <trkpt lat="48.15223" lon="6.43713">
        <ele>361.11</ele>
        <time>2012-04-02T12:40:11Z</time>
      </trkpt>
      <trkpt lat="48.15221" lon="6.43721">
        <ele>360.15</ele>
        <time>2012-04-02T12:40:12Z</time>
      </trkpt>
      <trkpt lat="48.15219" lon="6.4373">
        <ele>359.67</ele>
        <time>2012-04-02T12:40:13Z</time>
      </trkpt>
      <trkpt lat="48.1522" lon="6.43739">
        <ele>358.71</ele>
        <time>2012-04-02T12:40:14Z</time>
      </trkpt>
      <trkpt lat="48.1522" lon="6.43747">
        <ele>358.23</ele>
        <time>2012-04-02T12:40:15Z</time>
      </trkpt>
      <trkpt lat="48.1522" lon="6.43755">
        <ele>357.75</ele>
        <time>2012-04-02T12:40:16Z</time>
      </trkpt>
      <trkpt lat="48.1522" lon="6.43771">
        <ele>356.79</ele>
        <time>2012-04-02T12:40:18Z</time>
      </trkpt>
      <trkpt lat="48.15219" lon="6.43796">
        <ele>354.86</ele>
        <time>2012-04-02T12:40:21Z</time>
      </trkpt>
      <trkpt lat="48.15215" lon="6.43811">
        <ele>353.42</ele>
        <time>2012-04-02T12:40:23Z</time>
      </trkpt>
      <trkpt lat="48.15213" lon="6.43819">
        <ele>353.42</ele>
        <time>2012-04-02T12:40:24Z</time>
      </trkpt>
      <trkpt lat="48.1521" lon="6.43828">
        <ele>353.9</ele>
        <time>2012-04-02T12:40:25Z</time>
      </trkpt>
      <trkpt lat="48.15204" lon="6.43843">
        <ele>354.86</ele>
        <time>2012-04-02T12:40:27Z</time>
      </trkpt>
      <trkpt lat="48.15191" lon="6.43873">
        <ele>355.83</ele>
        <time>2012-04-02T12:40:31Z</time>
      </trkpt>
      <trkpt lat="48.15178" lon="6.43895">
        <ele>355.83</ele>
        <time>2012-04-02T12:40:35Z</time>
      </trkpt>
      <trkpt lat="48.15174" lon="6.439">
        <ele>355.83</ele>
        <time>2012-04-02T12:40:36Z</time>
      </trkpt>
      <trkpt lat="48.1516" lon="6.43914">
        <ele>357.27</ele>
        <time>2012-04-02T12:40:39Z</time>
      </trkpt>
      <trkpt lat="48.15156" lon="6.43918">
        <ele>358.23</ele>
        <time>2012-04-02T12:40:40Z</time>
      </trkpt>
      <trkpt lat="48.15146" lon="6.43925">
        <ele>359.19</ele>
        <time>2012-04-02T12:40:42Z</time>
      </trkpt>
      <trkpt lat="48.15142" lon="6.4393">
        <ele>359.19</ele>
        <time>2012-04-02T12:40:43Z</time>
      </trkpt>
      <trkpt lat="48.1514" lon="6.43935">
        <ele>359.67</ele>
        <time>2012-04-02T12:40:44Z</time>
      </trkpt>
      <trkpt lat="48.1514" lon="6.43941">
        <ele>359.67</ele>
        <time>2012-04-02T12:40:45Z</time>
      </trkpt>
      <trkpt lat="48.15139" lon="6.43948">
        <ele>359.19</ele>
        <time>2012-04-02T12:40:46Z</time>
      </trkpt>
      <trkpt lat="48.1514" lon="6.43955">
        <ele>358.71</ele>
        <time>2012-04-02T12:40:47Z</time>
      </trkpt>
      <trkpt lat="48.1514" lon="6.43963">
        <ele>358.23</ele>
        <time>2012-04-02T12:40:48Z</time>
      </trkpt>
      <trkpt lat="48.1514" lon="6.43989">
        <ele>358.23</ele>
        <time>2012-04-02T12:40:52Z</time>
      </trkpt>
      <trkpt lat="48.15137" lon="6.43996">
        <ele>358.71</ele>
        <time>2012-04-02T12:40:53Z</time>
      </trkpt>
      <trkpt lat="48.15127" lon="6.4401">
        <ele>359.67</ele>
        <time>2012-04-02T12:40:55Z</time>
      </trkpt>
      <trkpt lat="48.15122" lon="6.44013">
        <ele>360.15</ele>
        <time>2012-04-02T12:40:56Z</time>
      </trkpt>
      <trkpt lat="48.15117" lon="6.44013">
        <ele>361.11</ele>
        <time>2012-04-02T12:40:57Z</time>
      </trkpt>
      <trkpt lat="48.15106" lon="6.44013">
        <ele>363.04</ele>
        <time>2012-04-02T12:40:59Z</time>
      </trkpt>
      <trkpt lat="48.15101" lon="6.44011">
        <ele>363.52</ele>
        <time>2012-04-02T12:41:00Z</time>
      </trkpt>
      <trkpt lat="48.15097" lon="6.44008">
        <ele>364</ele>
        <time>2012-04-02T12:41:01Z</time>
      </trkpt>
      <trkpt lat="48.15093" lon="6.44006">
        <ele>364.48</ele>
        <time>2012-04-02T12:41:02Z</time>
      </trkpt>
      <trkpt lat="48.15089" lon="6.44005">
        <ele>364.96</ele>
        <time>2012-04-02T12:41:03Z</time>
      </trkpt>
      <trkpt lat="48.15085" lon="6.44005">
        <ele>365.44</ele>
        <time>2012-04-02T12:41:04Z</time>
      </trkpt>
      <trkpt lat="48.15081" lon="6.44005">
        <ele>365.44</ele>
        <time>2012-04-02T12:41:05Z</time>
      </trkpt>
      <trkpt lat="48.15076" lon="6.44007">
        <ele>365.44</ele>
        <time>2012-04-02T12:41:06Z</time>
      </trkpt>
      <trkpt lat="48.15072" lon="6.44011">
        <ele>365.44</ele>
        <time>2012-04-02T12:41:07Z</time>
      </trkpt>
      <trkpt lat="48.15068" lon="6.44029">
        <ele>364.96</ele>
        <time>2012-04-02T12:41:10Z</time>
      </trkpt>
      <trkpt lat="48.15068" lon="6.44036">
        <ele>364.96</ele>
        <time>2012-04-02T12:41:11Z</time>
      </trkpt>
      <trkpt lat="48.15068" lon="6.44044">
        <ele>364.48</ele>
        <time>2012-04-02T12:41:12Z</time>
      </trkpt>
      <trkpt lat="48.15068" lon="6.44051">
        <ele>363.52</ele>
        <time>2012-04-02T12:41:13Z</time>
      </trkpt>
      <trkpt lat="48.15069" lon="6.44064">
        <ele>362.07</ele>
        <time>2012-04-02T12:41:15Z</time>
      </trkpt>
      <trkpt lat="48.15073" lon="6.44084">
        <ele>360.15</ele>
        <time>2012-04-02T12:41:18Z</time>
      </trkpt>
      <trkpt lat="48.15074" lon="6.44092">
        <ele>359.19</ele>
        <time>2012-04-02T12:41:19Z</time>
      </trkpt>
      <trkpt lat="48.15077" lon="6.4411">
        <ele>358.23</ele>
        <time>2012-04-02T12:41:21Z</time>
      </trkpt>
      <trkpt lat="48.15079" lon="6.44117">
        <ele>357.75</ele>
        <time>2012-04-02T12:41:22Z</time>
      </trkpt>
      <trkpt lat="48.15081" lon="6.44125">
        <ele>358.23</ele>
        <time>2012-04-02T12:41:23Z</time>
      </trkpt>
      <trkpt lat="48.15083" lon="6.44133">
        <ele>358.23</ele>
        <time>2012-04-02T12:41:24Z</time>
      </trkpt>
      <trkpt lat="48.15085" lon="6.44141">
        <ele>358.23</ele>
        <time>2012-04-02T12:41:25Z</time>
      </trkpt>
      <trkpt lat="48.15088" lon="6.44149">
        <ele>357.75</ele>
        <time>2012-04-02T12:41:26Z</time>
      </trkpt>
      <trkpt lat="48.15104" lon="6.44209">
        <ele>359.19</ele>
        <time>2012-04-02T12:41:33Z</time>
      </trkpt>
      <trkpt lat="48.15109" lon="6.44223">
        <ele>359.19</ele>
        <time>2012-04-02T12:41:35Z</time>
      </trkpt>
      <trkpt lat="48.15112" lon="6.44237">
        <ele>359.67</ele>
        <time>2012-04-02T12:41:37Z</time>
      </trkpt>
      <trkpt lat="48.15113" lon="6.44244">
        <ele>359.67</ele>
        <time>2012-04-02T12:41:38Z</time>
      </trkpt>
      <trkpt lat="48.15114" lon="6.4425">
        <ele>359.67</ele>
        <time>2012-04-02T12:41:39Z</time>
      </trkpt>
      <trkpt lat="48.15113" lon="6.44257">
        <ele>360.15</ele>
        <time>2012-04-02T12:41:40Z</time>
      </trkpt>
      <trkpt lat="48.15098" lon="6.44316">
        <ele>361.11</ele>
        <time>2012-04-02T12:41:48Z</time>
      </trkpt>
      <trkpt lat="48.15091" lon="6.44337">
        <ele>362.55</ele>
        <time>2012-04-02T12:41:51Z</time>
      </trkpt>
      <trkpt lat="48.15087" lon="6.44342">
        <ele>362.55</ele>
        <time>2012-04-02T12:41:52Z</time>
      </trkpt>
      <trkpt lat="48.15074" lon="6.44356">
        <ele>364.96</ele>
        <time>2012-04-02T12:41:55Z</time>
      </trkpt>
      <trkpt lat="48.15069" lon="6.4436">
        <ele>366.88</ele>
        <time>2012-04-02T12:41:56Z</time>
      </trkpt>
      <trkpt lat="48.15065" lon="6.44363">
        <ele>368.32</ele>
        <time>2012-04-02T12:41:57Z</time>
      </trkpt>
      <trkpt lat="48.15046" lon="6.44375">
        <ele>374.09</ele>
        <time>2012-04-02T12:42:02Z</time>
      </trkpt>
      <trkpt lat="48.15044" lon="6.44375">
        <ele>375.05</ele>
        <time>2012-04-02T12:42:03Z</time>
      </trkpt>
      <trkpt lat="48.15043" lon="6.44374">
        <ele>376.01</ele>
        <time>2012-04-02T12:42:04Z</time>
      </trkpt>
      <trkpt lat="48.15043" lon="6.44371">
        <ele>376.49</ele>
        <time>2012-04-02T12:42:05Z</time>
      </trkpt>
      <trkpt lat="48.15042" lon="6.44369">
        <ele>376.97</ele>
        <time>2012-04-02T12:42:06Z</time>
      </trkpt>
      <trkpt lat="48.15041" lon="6.44366">
        <ele>377.45</ele>
        <time>2012-04-02T12:42:07Z</time>
      </trkpt>
      <trkpt lat="48.15041" lon="6.44362">
        <ele>377.94</ele>
        <time>2012-04-02T12:42:08Z</time>
      </trkpt>
      <trkpt lat="48.15041" lon="6.44359">
        <ele>377.94</ele>
        <time>2012-04-02T12:42:09Z</time>
      </trkpt>
      <trkpt lat="48.15041" lon="6.44354">
        <ele>378.42</ele>
        <time>2012-04-02T12:42:10Z</time>
      </trkpt>
      <trkpt lat="48.1504" lon="6.4435">
        <ele>378.42</ele>
        <time>2012-04-02T12:42:11Z</time>
      </trkpt>
      <trkpt lat="48.1504" lon="6.44346">
        <ele>378.9</ele>
        <time>2012-04-02T12:42:12Z</time>
      </trkpt>
      <trkpt lat="48.1504" lon="6.44342">
        <ele>378.9</ele>
        <time>2012-04-02T12:42:13Z</time>
      </trkpt>
      <trkpt lat="48.1504" lon="6.44337">
        <ele>379.38</ele>
        <time>2012-04-02T12:42:14Z</time>
      </trkpt>
      <trkpt lat="48.1504" lon="6.44332">
        <ele>379.86</ele>
        <time>2012-04-02T12:42:15Z</time>
      </trkpt>
      <trkpt lat="48.15039" lon="6.44293">
        <ele>381.78</ele>
        <time>2012-04-02T12:42:24Z</time>
      </trkpt>
      <trkpt lat="48.15036" lon="6.44271">
        <ele>380.82</ele>
        <time>2012-04-02T12:42:28Z</time>
      </trkpt>
      <trkpt lat="48.15035" lon="6.44266">
        <ele>380.82</ele>
        <time>2012-04-02T12:42:29Z</time>
      </trkpt>
      <trkpt lat="48.15014" lon="6.44216">
        <ele>379.86</ele>
        <time>2012-04-02T12:42:39Z</time>
      </trkpt>
      <trkpt lat="48.15" lon="6.44186">
        <ele>382.74</ele>
        <time>2012-04-02T12:42:45Z</time>
      </trkpt>
      <trkpt lat="48.14991" lon="6.4416">
        <ele>386.11</ele>
        <time>2012-04-02T12:42:50Z</time>
      </trkpt>
      <trkpt lat="48.14989" lon="6.44153">
        <ele>386.59</ele>
        <time>2012-04-02T12:42:51Z</time>
      </trkpt>
      <trkpt lat="48.14987" lon="6.44147">
        <ele>387.55</ele>
        <time>2012-04-02T12:42:52Z</time>
      </trkpt>
      <trkpt lat="48.14985" lon="6.44142">
        <ele>388.51</ele>
        <time>2012-04-02T12:42:53Z</time>
      </trkpt>
      <trkpt lat="48.14982" lon="6.44137">
        <ele>389.47</ele>
        <time>2012-04-02T12:42:54Z</time>
      </trkpt>
      <trkpt lat="48.14964" lon="6.44077">
        <ele>398.12</ele>
        <time>2012-04-02T12:43:04Z</time>
      </trkpt>
      <trkpt lat="48.14955" lon="6.44056">
        <ele>399.08</ele>
        <time>2012-04-02T12:43:08Z</time>
      </trkpt>
      <trkpt lat="48.14954" lon="6.4405">
        <ele>399.57</ele>
        <time>2012-04-02T12:43:09Z</time>
      </trkpt>
      <trkpt lat="48.14954" lon="6.44047">
        <ele>399.57</ele>
        <time>2012-04-02T12:43:10Z</time>
      </trkpt>
      <trkpt lat="48.14953" lon="6.44043">
        <ele>400.05</ele>
        <time>2012-04-02T12:43:11Z</time>
      </trkpt>
      <trkpt lat="48.1495" lon="6.44038">
        <ele>400.53</ele>
        <time>2012-04-02T12:43:12Z</time>
      </trkpt>
      <trkpt lat="48.14927" lon="6.43984">
        <ele>405.33</ele>
        <time>2012-04-02T12:43:22Z</time>
      </trkpt>
      <trkpt lat="48.14925" lon="6.43978">
        <ele>405.81</ele>
        <time>2012-04-02T12:43:23Z</time>
      </trkpt>
      <trkpt lat="48.14926" lon="6.43972">
        <ele>406.29</ele>
        <time>2012-04-02T12:43:24Z</time>
      </trkpt>
      <trkpt lat="48.14929" lon="6.43959">
        <ele>407.74</ele>
        <time>2012-04-02T12:43:28Z</time>
      </trkpt>
      <trkpt lat="48.14928" lon="6.43931">
        <ele>411.58</ele>
        <time>2012-04-02T12:43:39Z</time>
      </trkpt>
      <trkpt lat="48.14926" lon="6.43918">
        <ele>413.98</ele>
        <time>2012-04-02T12:43:44Z</time>
      </trkpt>
      <trkpt lat="48.14922" lon="6.43888">
        <ele>413.02</ele>
        <time>2012-04-02T12:43:55Z</time>
      </trkpt>
      <trkpt lat="48.1492" lon="6.43847">
        <ele>411.1</ele>
        <time>2012-04-02T12:44:10Z</time>
      </trkpt>
      <trkpt lat="48.14923" lon="6.43825">
        <ele>411.1</ele>
        <time>2012-04-02T12:44:19Z</time>
      </trkpt>
      <trkpt lat="48.14923" lon="6.43802">
        <ele>411.58</ele>
        <time>2012-04-02T12:44:28Z</time>
      </trkpt>
      <trkpt lat="48.14924" lon="6.43779">
        <ele>412.54</ele>
        <time>2012-04-02T12:44:39Z</time>
      </trkpt>
      <trkpt lat="48.14925" lon="6.4375">
        <ele>416.39</ele>
        <time>2012-04-02T12:44:52Z</time>
      </trkpt>
      <trkpt lat="48.14924" lon="6.43729">
        <ele>418.79</ele>
        <time>2012-04-02T12:45:00Z</time>
      </trkpt>
      <trkpt lat="48.14925" lon="6.43709">
        <ele>420.71</ele>
        <time>2012-04-02T12:45:09Z</time>
      </trkpt>
      <trkpt lat="48.14925" lon="6.43697">
        <ele>421.19</ele>
        <time>2012-04-02T12:45:14Z</time>
      </trkpt>
      <trkpt lat="48.14927" lon="6.43673">
        <ele>422.16</ele>
        <time>2012-04-02T12:45:23Z</time>
      </trkpt>
      <trkpt lat="48.1493" lon="6.43638">
        <ele>421.68</ele>
        <time>2012-04-02T12:45:34Z</time>
      </trkpt>
      <trkpt lat="48.1493" lon="6.43623">
        <ele>422.64</ele>
        <time>2012-04-02T12:45:47Z</time>
      </trkpt>
      <trkpt lat="48.1493" lon="6.43623">
        <ele>422.64</ele>
        <time>2012-04-02T12:45:56Z</time>
      </trkpt>
      <trkpt lat="48.14933" lon="6.43601">
        <ele>421.68</ele>
        <time>2012-04-02T12:46:07Z</time>
      </trkpt>
      <trkpt lat="48.14935" lon="6.43597">
        <ele>421.68</ele>
        <time>2012-04-02T12:46:09Z</time>
      </trkpt>
      <trkpt lat="48.14937" lon="6.43592">
        <ele>421.19</ele>
        <time>2012-04-02T12:46:11Z</time>
      </trkpt>
      <trkpt lat="48.1494" lon="6.4358">
        <ele>421.19</ele>
        <time>2012-04-02T12:46:16Z</time>
      </trkpt>
      <trkpt lat="48.14938" lon="6.43564">
        <ele>420.23</ele>
        <time>2012-04-02T12:46:22Z</time>
      </trkpt>
      <trkpt lat="48.14938" lon="6.43559">
        <ele>420.71</ele>
        <time>2012-04-02T12:46:25Z</time>
      </trkpt>
      <trkpt lat="48.14932" lon="6.43546">
        <ele>421.68</ele>
        <time>2012-04-02T12:46:37Z</time>
      </trkpt>
      <trkpt lat="48.1493" lon="6.43544">
        <ele>421.68</ele>
        <time>2012-04-02T12:46:39Z</time>
      </trkpt>
      <trkpt lat="48.14889" lon="6.43512">
        <ele>425.52</ele>
        <time>2012-04-02T12:46:50Z</time>
      </trkpt>
      <trkpt lat="48.14876" lon="6.43505">
        <ele>427.44</ele>
        <time>2012-04-02T12:46:54Z</time>
      </trkpt>
      <trkpt lat="48.14855" lon="6.4348">
        <ele>433.69</ele>
        <time>2012-04-02T12:47:04Z</time>
      </trkpt>
      <trkpt lat="48.14852" lon="6.43477">
        <ele>435.13</ele>
        <time>2012-04-02T12:47:05Z</time>
      </trkpt>
      <trkpt lat="48.14824" lon="6.43436">
        <ele>439.94</ele>
        <time>2012-04-02T12:47:16Z</time>
      </trkpt>
      <trkpt lat="48.14822" lon="6.43432">
        <ele>439.94</ele>
        <time>2012-04-02T12:47:17Z</time>
      </trkpt>
      <trkpt lat="48.14818" lon="6.43416">
        <ele>440.9</ele>
        <time>2012-04-02T12:47:21Z</time>
      </trkpt>
      <trkpt lat="48.14811" lon="6.43367">
        <ele>435.61</ele>
        <time>2012-04-02T12:47:31Z</time>
      </trkpt>
      <trkpt lat="48.14809" lon="6.43315">
        <ele>431.77</ele>
        <time>2012-04-02T12:47:43Z</time>
      </trkpt>
      <trkpt lat="48.1481" lon="6.433">
        <ele>430.81</ele>
        <time>2012-04-02T12:47:46Z</time>
      </trkpt>
      <trkpt lat="48.1482" lon="6.43265">
        <ele>430.81</ele>
        <time>2012-04-02T12:47:57Z</time>
      </trkpt>
      <trkpt lat="48.14821" lon="6.4326">
        <ele>431.29</ele>
        <time>2012-04-02T12:47:59Z</time>
      </trkpt>
      <trkpt lat="48.14829" lon="6.43227">
        <ele>434.17</ele>
        <time>2012-04-02T12:48:12Z</time>
      </trkpt>
      <trkpt lat="48.14828" lon="6.43195">
        <ele>436.1</ele>
        <time>2012-04-02T12:48:22Z</time>
      </trkpt>
      <trkpt lat="48.14825" lon="6.43165">
        <ele>435.61</ele>
        <time>2012-04-02T12:48:32Z</time>
      </trkpt>
      <trkpt lat="48.14825" lon="6.43137">
        <ele>435.61</ele>
        <time>2012-04-02T12:48:41Z</time>
      </trkpt>
      <trkpt lat="48.14818" lon="6.43116">
        <ele>436.58</ele>
        <time>2012-04-02T12:48:46Z</time>
      </trkpt>
      <trkpt lat="48.14811" lon="6.4309">
        <ele>438.02</ele>
        <time>2012-04-02T12:48:51Z</time>
      </trkpt>
      <trkpt lat="48.14804" lon="6.43052">
        <ele>438.98</ele>
        <time>2012-04-02T12:48:57Z</time>
      </trkpt>
      <trkpt lat="48.14807" lon="6.42983">
        <ele>436.58</ele>
        <time>2012-04-02T12:49:10Z</time>
      </trkpt>
      <trkpt lat="48.14821" lon="6.4294">
        <ele>435.61</ele>
        <time>2012-04-02T12:49:19Z</time>
      </trkpt>
      <trkpt lat="48.14839" lon="6.42909">
        <ele>434.65</ele>
        <time>2012-04-02T12:49:26Z</time>
      </trkpt>
      <trkpt lat="48.1485" lon="6.42895">
        <ele>433.69</ele>
        <time>2012-04-02T12:49:29Z</time>
      </trkpt>
      <trkpt lat="48.14858" lon="6.42885">
        <ele>432.73</ele>
        <time>2012-04-02T12:49:31Z</time>
      </trkpt>
      <trkpt lat="48.14869" lon="6.42864">
        <ele>432.25</ele>
        <time>2012-04-02T12:49:34Z</time>
      </trkpt>
      <trkpt lat="48.14875" lon="6.42829">
        <ele>429.85</ele>
        <time>2012-04-02T12:49:40Z</time>
      </trkpt>
      <trkpt lat="48.14869" lon="6.4278">
        <ele>430.33</ele>
        <time>2012-04-02T12:49:50Z</time>
      </trkpt>
      <trkpt lat="48.14863" lon="6.42735">
        <ele>435.61</ele>
        <time>2012-04-02T12:50:00Z</time>
      </trkpt>
      <trkpt lat="48.14861" lon="6.42692">
        <ele>438.02</ele>
        <time>2012-04-02T12:50:10Z</time>
      </trkpt>
      <trkpt lat="48.14871" lon="6.42628">
        <ele>433.21</ele>
        <time>2012-04-02T12:50:21Z</time>
      </trkpt>
      <trkpt lat="48.14872" lon="6.42623">
        <ele>432.25</ele>
        <time>2012-04-02T12:50:22Z</time>
      </trkpt>
      <trkpt lat="48.14875" lon="6.42602">
        <ele>429.37</ele>
        <time>2012-04-02T12:50:25Z</time>
      </trkpt>
      <trkpt lat="48.14878" lon="6.42585">
        <ele>426.96</ele>
        <time>2012-04-02T12:50:27Z</time>
      </trkpt>
      <trkpt lat="48.14882" lon="6.42558">
        <ele>423.6</ele>
        <time>2012-04-02T12:50:30Z</time>
      </trkpt>
      <trkpt lat="48.14862" lon="6.42513">
        <ele>418.31</ele>
        <time>2012-04-02T12:50:38Z</time>
      </trkpt>
      <trkpt lat="48.14853" lon="6.42507">
        <ele>416.87</ele>
        <time>2012-04-02T12:50:41Z</time>
      </trkpt>
      <trkpt lat="48.14842" lon="6.42502">
        <ele>416.87</ele>
        <time>2012-04-02T12:50:43Z</time>
      </trkpt>
      <trkpt lat="48.14823" lon="6.4248">
        <ele>413.98</ele>
        <time>2012-04-02T12:50:47Z</time>
      </trkpt>
      <trkpt lat="48.1479" lon="6.42417">
        <ele>410.14</ele>
        <time>2012-04-02T12:50:54Z</time>
      </trkpt>
      <trkpt lat="48.14777" lon="6.42382">
        <ele>407.74</ele>
        <time>2012-04-02T12:50:57Z</time>
      </trkpt>
      <trkpt lat="48.1477" lon="6.42339">
        <ele>405.33</ele>
        <time>2012-04-02T12:51:01Z</time>
      </trkpt>
      <trkpt lat="48.14773" lon="6.42291">
        <ele>402.45</ele>
        <time>2012-04-02T12:51:05Z</time>
      </trkpt>
      <trkpt lat="48.14765" lon="6.42237">
        <ele>396.68</ele>
        <time>2012-04-02T12:51:11Z</time>
      </trkpt>
      <trkpt lat="48.14737" lon="6.42226">
        <ele>397.16</ele>
        <time>2012-04-02T12:51:19Z</time>
      </trkpt>
      <trkpt lat="48.14722" lon="6.42182">
        <ele>398.6</ele>
        <time>2012-04-02T12:51:31Z</time>
      </trkpt>
      <trkpt lat="48.14721" lon="6.42178">
        <ele>398.12</ele>
        <time>2012-04-02T12:51:32Z</time>
      </trkpt>
      <trkpt lat="48.14725" lon="6.42132">
        <ele>401.01</ele>
        <time>2012-04-02T12:51:42Z</time>
      </trkpt>
      <trkpt lat="48.14734" lon="6.42101">
        <ele>401.01</ele>
        <time>2012-04-02T12:51:50Z</time>
      </trkpt>
      <trkpt lat="48.14748" lon="6.42042">
        <ele>401.01</ele>
        <time>2012-04-02T12:52:02Z</time>
      </trkpt>
      <trkpt lat="48.14759" lon="6.42005">
        <ele>403.89</ele>
        <time>2012-04-02T12:52:10Z</time>
      </trkpt>
      <trkpt lat="48.14781" lon="6.4198">
        <ele>403.89</ele>
        <time>2012-04-02T12:52:18Z</time>
      </trkpt>
      <trkpt lat="48.14813" lon="6.41945">
        <ele>401.01</ele>
        <time>2012-04-02T12:52:29Z</time>
      </trkpt>
      <trkpt lat="48.14833" lon="6.4191">
        <ele>398.12</ele>
        <time>2012-04-02T12:52:38Z</time>
      </trkpt>
      <trkpt lat="48.14834" lon="6.41909">
        <ele>398.12</ele>
        <time>2012-04-02T12:52:39Z</time>
      </trkpt>
      <trkpt lat="48.14834" lon="6.41901">
        <ele>397.16</ele>
        <time>2012-04-02T12:52:44Z</time>
      </trkpt>
      <trkpt lat="48.14837" lon="6.4187">
        <ele>397.16</ele>
        <time>2012-04-02T12:52:54Z</time>
      </trkpt>
      <trkpt lat="48.1483" lon="6.41829">
        <ele>398.6</ele>
        <time>2012-04-02T12:53:02Z</time>
      </trkpt>
      <trkpt lat="48.14825" lon="6.41813">
        <ele>398.6</ele>
        <time>2012-04-02T12:53:04Z</time>
      </trkpt>
      <trkpt lat="48.14819" lon="6.41751">
        <ele>401.49</ele>
        <time>2012-04-02T12:53:13Z</time>
      </trkpt>
      <trkpt lat="48.1482" lon="6.41692">
        <ele>400.53</ele>
        <time>2012-04-02T12:53:24Z</time>
      </trkpt>
      <trkpt lat="48.14831" lon="6.41646">
        <ele>399.08</ele>
        <time>2012-04-02T12:53:35Z</time>
      </trkpt>
      <trkpt lat="48.14833" lon="6.41644">
        <ele>399.08</ele>
        <time>2012-04-02T12:53:37Z</time>
      </trkpt>
      <trkpt lat="48.14841" lon="6.41633">
        <ele>396.68</ele>
        <time>2012-04-02T12:53:42Z</time>
      </trkpt>
      <trkpt lat="48.14851" lon="6.41613">
        <ele>399.08</ele>
        <time>2012-04-02T12:53:50Z</time>
      </trkpt>
      <trkpt lat="48.14855" lon="6.41599">
        <ele>398.6</ele>
        <time>2012-04-02T12:53:55Z</time>
      </trkpt>
      <trkpt lat="48.14841" lon="6.41581">
        <ele>402.93</ele>
        <time>2012-04-02T12:54:05Z</time>
      </trkpt>
      <trkpt lat="48.14833" lon="6.4157">
        <ele>406.29</ele>
        <time>2012-04-02T12:54:17Z</time>
      </trkpt>
      <trkpt lat="48.14822" lon="6.41565">
        <ele>407.26</ele>
        <time>2012-04-02T12:54:21Z</time>
      </trkpt>
      <trkpt lat="48.14813" lon="6.4156">
        <ele>407.74</ele>
        <time>2012-04-02T12:54:23Z</time>
      </trkpt>
      <trkpt lat="48.14809" lon="6.41556">
        <ele>407.74</ele>
        <time>2012-04-02T12:54:24Z</time>
      </trkpt>
      <trkpt lat="48.14805" lon="6.41553">
        <ele>407.74</ele>
        <time>2012-04-02T12:54:25Z</time>
      </trkpt>
      <trkpt lat="48.14802" lon="6.41552">
        <ele>407.26</ele>
        <time>2012-04-02T12:54:26Z</time>
      </trkpt>
      <trkpt lat="48.14799" lon="6.41546">
        <ele>406.77</ele>
        <time>2012-04-02T12:54:27Z</time>
      </trkpt>
      <trkpt lat="48.14794" lon="6.41539">
        <ele>406.77</ele>
        <time>2012-04-02T12:54:28Z</time>
      </trkpt>
      <trkpt lat="48.14789" lon="6.41532">
        <ele>406.29</ele>
        <time>2012-04-02T12:54:29Z</time>
      </trkpt>
      <trkpt lat="48.14785" lon="6.41525">
        <ele>406.29</ele>
        <time>2012-04-02T12:54:30Z</time>
      </trkpt>
      <trkpt lat="48.14781" lon="6.4152">
        <ele>405.81</ele>
        <time>2012-04-02T12:54:31Z</time>
      </trkpt>
      <trkpt lat="48.14765" lon="6.41484">
        <ele>407.26</ele>
        <time>2012-04-02T12:54:39Z</time>
      </trkpt>
      <trkpt lat="48.14753" lon="6.4144">
        <ele>415.91</ele>
        <time>2012-04-02T12:54:49Z</time>
      </trkpt>
      <trkpt lat="48.14753" lon="6.41437">
        <ele>415.91</ele>
        <time>2012-04-02T12:54:50Z</time>
      </trkpt>
      <trkpt lat="48.14754" lon="6.41388">
        <ele>420.71</ele>
        <time>2012-04-02T12:55:03Z</time>
      </trkpt>
      <trkpt lat="48.14755" lon="6.41384">
        <ele>420.71</ele>
        <time>2012-04-02T12:55:04Z</time>
      </trkpt>
      <trkpt lat="48.14755" lon="6.4138">
        <ele>420.71</ele>
        <time>2012-04-02T12:55:05Z</time>
      </trkpt>
      <trkpt lat="48.14756" lon="6.41376">
        <ele>420.71</ele>
        <time>2012-04-02T12:55:06Z</time>
      </trkpt>
      <trkpt lat="48.14757" lon="6.41372">
        <ele>420.71</ele>
        <time>2012-04-02T12:55:07Z</time>
      </trkpt>
      <trkpt lat="48.14756" lon="6.41369">
        <ele>420.23</ele>
        <time>2012-04-02T12:55:08Z</time>
      </trkpt>
      <trkpt lat="48.14757" lon="6.41365">
        <ele>420.23</ele>
        <time>2012-04-02T12:55:09Z</time>
      </trkpt>
      <trkpt lat="48.14765" lon="6.41335">
        <ele>417.35</ele>
        <time>2012-04-02T12:55:16Z</time>
      </trkpt>
      <trkpt lat="48.14766" lon="6.41332">
        <ele>416.39</ele>
        <time>2012-04-02T12:55:17Z</time>
      </trkpt>
      <trkpt lat="48.14767" lon="6.41326">
        <ele>414.95</ele>
        <time>2012-04-02T12:55:19Z</time>
      </trkpt>
      <trkpt lat="48.14765" lon="6.41322">
        <ele>414.47</ele>
        <time>2012-04-02T12:55:20Z</time>
      </trkpt>
      <trkpt lat="48.14762" lon="6.41317">
        <ele>413.02</ele>
        <time>2012-04-02T12:55:21Z</time>
      </trkpt>
      <trkpt lat="48.14751" lon="6.41278">
        <ele>412.06</ele>
        <time>2012-04-02T12:55:31Z</time>
      </trkpt>
      <trkpt lat="48.1475" lon="6.41265">
        <ele>412.06</ele>
        <time>2012-04-02T12:55:35Z</time>
      </trkpt>
      <trkpt lat="48.14749" lon="6.41262">
        <ele>412.06</ele>
        <time>2012-04-02T12:55:36Z</time>
      </trkpt>
      <trkpt lat="48.14749" lon="6.4126">
        <ele>411.58</ele>
        <time>2012-04-02T12:55:37Z</time>
      </trkpt>
      <trkpt lat="48.1475" lon="6.41257">
        <ele>411.58</ele>
        <time>2012-04-02T12:55:39Z</time>
      </trkpt>
      <trkpt lat="48.14752" lon="6.41244">
        <ele>410.62</ele>
        <time>2012-04-02T12:55:49Z</time>
      </trkpt>
      <trkpt lat="48.14753" lon="6.41225">
        <ele>410.62</ele>
        <time>2012-04-02T12:55:57Z</time>
      </trkpt>
      <trkpt lat="48.1475" lon="6.41194">
        <ele>410.14</ele>
        <time>2012-04-02T12:56:10Z</time>
      </trkpt>
      <trkpt lat="48.14751" lon="6.4118">
        <ele>408.7</ele>
        <time>2012-04-02T12:56:15Z</time>
      </trkpt>
      <trkpt lat="48.1475" lon="6.4116">
        <ele>407.74</ele>
        <time>2012-04-02T12:56:22Z</time>
      </trkpt>
      <trkpt lat="48.14748" lon="6.41142">
        <ele>407.26</ele>
        <time>2012-04-02T12:56:29Z</time>
      </trkpt>
      <trkpt lat="48.14746" lon="6.41131">
        <ele>407.26</ele>
        <time>2012-04-02T12:56:35Z</time>
      </trkpt>
      <trkpt lat="48.14746" lon="6.41122">
        <ele>407.26</ele>
        <time>2012-04-02T12:56:39Z</time>
      </trkpt>
      <trkpt lat="48.14746" lon="6.41116">
        <ele>407.26</ele>
        <time>2012-04-02T12:56:41Z</time>
      </trkpt>
      <trkpt lat="48.14735" lon="6.41067">
        <ele>406.77</ele>
        <time>2012-04-02T12:56:52Z</time>
      </trkpt>
      <trkpt lat="48.14732" lon="6.41053">
        <ele>406.29</ele>
        <time>2012-04-02T12:56:54Z</time>
      </trkpt>
      <trkpt lat="48.1473" lon="6.41043">
        <ele>406.77</ele>
        <time>2012-04-02T12:56:55Z</time>
      </trkpt>
      <trkpt lat="48.14729" lon="6.41035">
        <ele>406.77</ele>
        <time>2012-04-02T12:56:56Z</time>
      </trkpt>
      <trkpt lat="48.14728" lon="6.41028">
        <ele>407.26</ele>
        <time>2012-04-02T12:56:57Z</time>
      </trkpt>
      <trkpt lat="48.1473" lon="6.41023">
        <ele>408.22</ele>
        <time>2012-04-02T12:56:58Z</time>
      </trkpt>
      <trkpt lat="48.14731" lon="6.41018">
        <ele>408.7</ele>
        <time>2012-04-02T12:56:59Z</time>
      </trkpt>
      <trkpt lat="48.14732" lon="6.41014">
        <ele>409.18</ele>
        <time>2012-04-02T12:57:00Z</time>
      </trkpt>
      <trkpt lat="48.14734" lon="6.41011">
        <ele>409.18</ele>
        <time>2012-04-02T12:57:01Z</time>
      </trkpt>
      <trkpt lat="48.14737" lon="6.41009">
        <ele>409.18</ele>
        <time>2012-04-02T12:57:02Z</time>
      </trkpt>
      <trkpt lat="48.14739" lon="6.41005">
        <ele>409.66</ele>
        <time>2012-04-02T12:57:03Z</time>
      </trkpt>
      <trkpt lat="48.14739" lon="6.41002">
        <ele>410.62</ele>
        <time>2012-04-02T12:57:04Z</time>
      </trkpt>
      <trkpt lat="48.14741" lon="6.40998">
        <ele>411.1</ele>
        <time>2012-04-02T12:57:05Z</time>
      </trkpt>
      <trkpt lat="48.14743" lon="6.40995">
        <ele>411.1</ele>
        <time>2012-04-02T12:57:06Z</time>
      </trkpt>
      <trkpt lat="48.14751" lon="6.40983">
        <ele>411.1</ele>
        <time>2012-04-02T12:57:10Z</time>
      </trkpt>
      <trkpt lat="48.14752" lon="6.40979">
        <ele>412.06</ele>
        <time>2012-04-02T12:57:11Z</time>
      </trkpt>
      <trkpt lat="48.14752" lon="6.40939">
        <ele>417.83</ele>
        <time>2012-04-02T12:57:19Z</time>
      </trkpt>
      <trkpt lat="48.14752" lon="6.40933">
        <ele>419.75</ele>
        <time>2012-04-02T12:57:20Z</time>
      </trkpt>
      <trkpt lat="48.14752" lon="6.40927">
        <ele>421.19</ele>
        <time>2012-04-02T12:57:21Z</time>
      </trkpt>
      <trkpt lat="48.14752" lon="6.40921">
        <ele>422.64</ele>
        <time>2012-04-02T12:57:22Z</time>
      </trkpt>
      <trkpt lat="48.14753" lon="6.40918">
        <ele>423.12</ele>
        <time>2012-04-02T12:57:23Z</time>
      </trkpt>
      <trkpt lat="48.14752" lon="6.40914">
        <ele>423.6</ele>
        <time>2012-04-02T12:57:24Z</time>
      </trkpt>
      <trkpt lat="48.14749" lon="6.40908">
        <ele>425.04</ele>
        <time>2012-04-02T12:57:25Z</time>
      </trkpt>
      <trkpt lat="48.14746" lon="6.40904">
        <ele>426.48</ele>
        <time>2012-04-02T12:57:26Z</time>
      </trkpt>
      <trkpt lat="48.14743" lon="6.40901">
        <ele>427.44</ele>
        <time>2012-04-02T12:57:27Z</time>
      </trkpt>
      <trkpt lat="48.14739" lon="6.40899">
        <ele>427.92</ele>
        <time>2012-04-02T12:57:28Z</time>
      </trkpt>
      <trkpt lat="48.14736" lon="6.40898">
        <ele>428.4</ele>
        <time>2012-04-02T12:57:29Z</time>
      </trkpt>
      <trkpt lat="48.14702" lon="6.40896">
        <ele>432.73</ele>
        <time>2012-04-02T12:57:40Z</time>
      </trkpt>
      <trkpt lat="48.14667" lon="6.40905">
        <ele>437.54</ele>
        <time>2012-04-02T12:57:52Z</time>
      </trkpt>
      <trkpt lat="48.14633" lon="6.40882">
        <ele>442.34</ele>
        <time>2012-04-02T12:58:04Z</time>
      </trkpt>
      <trkpt lat="48.14632" lon="6.40847">
        <ele>444.75</ele>
        <time>2012-04-02T12:58:13Z</time>
      </trkpt>
      <trkpt lat="48.14637" lon="6.40838">
        <ele>444.27</ele>
        <time>2012-04-02T12:58:16Z</time>
      </trkpt>
      <trkpt lat="48.14638" lon="6.40835">
        <ele>444.27</ele>
        <time>2012-04-02T12:58:17Z</time>
      </trkpt>
      <trkpt lat="48.14639" lon="6.40832">
        <ele>444.75</ele>
        <time>2012-04-02T12:58:18Z</time>
      </trkpt>
      <trkpt lat="48.14641" lon="6.40829">
        <ele>444.75</ele>
        <time>2012-04-02T12:58:19Z</time>
      </trkpt>
      <trkpt lat="48.14644" lon="6.40827">
        <ele>444.75</ele>
        <time>2012-04-02T12:58:20Z</time>
      </trkpt>
      <trkpt lat="48.14647" lon="6.40825">
        <ele>445.23</ele>
        <time>2012-04-02T12:58:21Z</time>
      </trkpt>
      <trkpt lat="48.14649" lon="6.40822">
        <ele>445.23</ele>
        <time>2012-04-02T12:58:22Z</time>
      </trkpt>
      <trkpt lat="48.14666" lon="6.40791">
        <ele>446.67</ele>
        <time>2012-04-02T12:58:31Z</time>
      </trkpt>
      <trkpt lat="48.14676" lon="6.40754">
        <ele>447.15</ele>
        <time>2012-04-02T12:58:39Z</time>
      </trkpt>
      <trkpt lat="48.14673" lon="6.40702">
        <ele>446.67</ele>
        <time>2012-04-02T12:58:50Z</time>
      </trkpt>
      <trkpt lat="48.14667" lon="6.40671">
        <ele>446.19</ele>
        <time>2012-04-02T12:58:56Z</time>
      </trkpt>
      <trkpt lat="48.14675" lon="6.40634">
        <ele>445.71</ele>
        <time>2012-04-02T12:59:05Z</time>
      </trkpt>
      <trkpt lat="48.14677" lon="6.40626">
        <ele>445.71</ele>
        <time>2012-04-02T12:59:08Z</time>
      </trkpt>
      <trkpt lat="48.14677" lon="6.40607">
        <ele>445.23</ele>
        <time>2012-04-02T12:59:12Z</time>
      </trkpt>
      <trkpt lat="48.1468" lon="6.40577">
        <ele>444.75</ele>
        <time>2012-04-02T12:59:21Z</time>
      </trkpt>
      <trkpt lat="48.14677" lon="6.40566">
        <ele>444.75</ele>
        <time>2012-04-02T12:59:23Z</time>
      </trkpt>
      <trkpt lat="48.14676" lon="6.40558">
        <ele>444.75</ele>
        <time>2012-04-02T12:59:24Z</time>
      </trkpt>
      <trkpt lat="48.14677" lon="6.40552">
        <ele>444.75</ele>
        <time>2012-04-02T12:59:25Z</time>
      </trkpt>
      <trkpt lat="48.14678" lon="6.40548">
        <ele>444.27</ele>
        <time>2012-04-02T12:59:26Z</time>
      </trkpt>
      <trkpt lat="48.1468" lon="6.40544">
        <ele>444.27</ele>
        <time>2012-04-02T12:59:27Z</time>
      </trkpt>
      <trkpt lat="48.14693" lon="6.40476">
        <ele>443.79</ele>
        <time>2012-04-02T12:59:39Z</time>
      </trkpt>
      <trkpt lat="48.14709" lon="6.40413">
        <ele>451.48</ele>
        <time>2012-04-02T12:59:52Z</time>
      </trkpt>
      <trkpt lat="48.14755" lon="6.40375">
        <ele>451.96</ele>
        <time>2012-04-02T13:00:01Z</time>
      </trkpt>
      <trkpt lat="48.14815" lon="6.40342">
        <ele>450.03</ele>
        <time>2012-04-02T13:00:09Z</time>
      </trkpt>
      <trkpt lat="48.14827" lon="6.40335">
        <ele>448.59</ele>
        <time>2012-04-02T13:00:11Z</time>
      </trkpt>
      <trkpt lat="48.14831" lon="6.40337">
        <ele>448.11</ele>
        <time>2012-04-02T13:00:12Z</time>
      </trkpt>
      <trkpt lat="48.14835" lon="6.4034">
        <ele>447.63</ele>
        <time>2012-04-02T13:00:13Z</time>
      </trkpt>
      <trkpt lat="48.14839" lon="6.40361">
        <ele>447.63</ele>
        <time>2012-04-02T13:00:18Z</time>
      </trkpt>
      <trkpt lat="48.14856" lon="6.40396">
        <ele>451.96</ele>
        <time>2012-04-02T13:00:30Z</time>
      </trkpt>
      <trkpt lat="48.14874" lon="6.4041">
        <ele>451</ele>
        <time>2012-04-02T13:00:38Z</time>
      </trkpt>
      <trkpt lat="48.14882" lon="6.40426">
        <ele>448.11</ele>
        <time>2012-04-02T13:00:44Z</time>
      </trkpt>
      <trkpt lat="48.14885" lon="6.40436">
        <ele>447.63</ele>
        <time>2012-04-02T13:00:47Z</time>
      </trkpt>
      <trkpt lat="48.14896" lon="6.40462">
        <ele>448.11</ele>
        <time>2012-04-02T13:00:56Z</time>
      </trkpt>
      <trkpt lat="48.149" lon="6.40468">
        <ele>448.59</ele>
        <time>2012-04-02T13:00:58Z</time>
      </trkpt>
      <trkpt lat="48.14918" lon="6.40486">
        <ele>446.67</ele>
        <time>2012-04-02T13:01:06Z</time>
      </trkpt>
      <trkpt lat="48.1493" lon="6.40494">
        <ele>445.71</ele>
        <time>2012-04-02T13:01:10Z</time>
      </trkpt>
      <trkpt lat="48.14939" lon="6.40509">
        <ele>447.63</ele>
        <time>2012-04-02T13:01:14Z</time>
      </trkpt>
      <trkpt lat="48.14944" lon="6.40515">
        <ele>449.07</ele>
        <time>2012-04-02T13:01:16Z</time>
      </trkpt>
      <trkpt lat="48.14948" lon="6.4053">
        <ele>449.55</ele>
        <time>2012-04-02T13:01:20Z</time>
      </trkpt>
      <trkpt lat="48.14961" lon="6.40562">
        <ele>455.32</ele>
        <time>2012-04-02T13:01:30Z</time>
      </trkpt>
      <trkpt lat="48.1497" lon="6.40579">
        <ele>458.69</ele>
        <time>2012-04-02T13:01:36Z</time>
      </trkpt>
      <trkpt lat="48.14982" lon="6.40616">
        <ele>459.17</ele>
        <time>2012-04-02T13:01:48Z</time>
      </trkpt>
      <trkpt lat="48.14985" lon="6.40622">
        <ele>458.21</ele>
        <time>2012-04-02T13:01:50Z</time>
      </trkpt>
      <trkpt lat="48.15001" lon="6.40646">
        <ele>457.72</ele>
        <time>2012-04-02T13:02:01Z</time>
      </trkpt>
      <trkpt lat="48.15003" lon="6.4065">
        <ele>458.21</ele>
        <time>2012-04-02T13:02:03Z</time>
      </trkpt>
      <trkpt lat="48.15011" lon="6.40672">
        <ele>459.17</ele>
        <time>2012-04-02T13:02:10Z</time>
      </trkpt>
      <trkpt lat="48.15016" lon="6.40682">
        <ele>459.65</ele>
        <time>2012-04-02T13:02:14Z</time>
      </trkpt>
      <trkpt lat="48.15025" lon="6.4071">
        <ele>461.57</ele>
        <time>2012-04-02T13:02:25Z</time>
      </trkpt>
      <trkpt lat="48.15034" lon="6.40731">
        <ele>464.45</ele>
        <time>2012-04-02T13:02:33Z</time>
      </trkpt>
      <trkpt lat="48.15045" lon="6.40759">
        <ele>466.38</ele>
        <time>2012-04-02T13:02:39Z</time>
      </trkpt>
      <trkpt lat="48.15074" lon="6.40802">
        <ele>470.22</ele>
        <time>2012-04-02T13:02:50Z</time>
      </trkpt>
      <trkpt lat="48.1508" lon="6.40812">
        <ele>471.18</ele>
        <time>2012-04-02T13:02:53Z</time>
      </trkpt>
      <trkpt lat="48.15087" lon="6.40819">
        <ele>472.14</ele>
        <time>2012-04-02T13:02:56Z</time>
      </trkpt>
      <trkpt lat="48.15091" lon="6.40826">
        <ele>471.66</ele>
        <time>2012-04-02T13:02:58Z</time>
      </trkpt>
      <trkpt lat="48.15101" lon="6.40835">
        <ele>471.18</ele>
        <time>2012-04-02T13:03:01Z</time>
      </trkpt>
      <trkpt lat="48.15122" lon="6.4084">
        <ele>470.22</ele>
        <time>2012-04-02T13:03:06Z</time>
      </trkpt>
      <trkpt lat="48.15148" lon="6.40875">
        <ele>473.59</ele>
        <time>2012-04-02T13:03:15Z</time>
      </trkpt>
      <trkpt lat="48.15148" lon="6.40886">
        <ele>475.03</ele>
        <time>2012-04-02T13:03:18Z</time>
      </trkpt>
      <trkpt lat="48.15148" lon="6.40889">
        <ele>475.03</ele>
        <time>2012-04-02T13:03:19Z</time>
      </trkpt>
      <trkpt lat="48.15149" lon="6.40892">
        <ele>475.03</ele>
        <time>2012-04-02T13:03:20Z</time>
      </trkpt>
      <trkpt lat="48.1515" lon="6.40896">
        <ele>474.55</ele>
        <time>2012-04-02T13:03:21Z</time>
      </trkpt>
      <trkpt lat="48.15151" lon="6.40902">
        <ele>474.07</ele>
        <time>2012-04-02T13:03:22Z</time>
      </trkpt>
      <trkpt lat="48.15153" lon="6.40907">
        <ele>473.59</ele>
        <time>2012-04-02T13:03:23Z</time>
      </trkpt>
      <trkpt lat="48.15154" lon="6.40912">
        <ele>473.59</ele>
        <time>2012-04-02T13:03:24Z</time>
      </trkpt>
      <trkpt lat="48.15155" lon="6.40914">
        <ele>474.07</ele>
        <time>2012-04-02T13:03:25Z</time>
      </trkpt>
      <trkpt lat="48.15157" lon="6.40916">
        <ele>475.51</ele>
        <time>2012-04-02T13:03:34Z</time>
      </trkpt>
      <trkpt lat="48.15155" lon="6.40913">
        <ele>475.99</ele>
        <time>2012-04-02T13:03:43Z</time>
      </trkpt>
      <trkpt lat="48.15155" lon="6.40911">
        <ele>475.99</ele>
        <time>2012-04-02T13:03:44Z</time>
      </trkpt>
      <trkpt lat="48.15155" lon="6.40908">
        <ele>475.99</ele>
        <time>2012-04-02T13:03:45Z</time>
      </trkpt>
      <trkpt lat="48.15155" lon="6.40904">
        <ele>475.51</ele>
        <time>2012-04-02T13:03:46Z</time>
      </trkpt>
      <trkpt lat="48.15155" lon="6.40901">
        <ele>475.03</ele>
        <time>2012-04-02T13:03:47Z</time>
      </trkpt>
      <trkpt lat="48.15156" lon="6.40887">
        <ele>473.11</ele>
        <time>2012-04-02T13:03:52Z</time>
      </trkpt>
      <trkpt lat="48.15156" lon="6.40885">
        <ele>473.11</ele>
        <time>2012-04-02T13:03:54Z</time>
      </trkpt>
      <trkpt lat="48.15155" lon="6.40884">
        <ele>473.11</ele>
        <time>2012-04-02T13:03:56Z</time>
      </trkpt>
      <trkpt lat="48.15156" lon="6.40881">
        <ele>473.11</ele>
        <time>2012-04-02T13:03:57Z</time>
      </trkpt>
      <trkpt lat="48.15157" lon="6.40878">
        <ele>473.59</ele>
        <time>2012-04-02T13:03:58Z</time>
      </trkpt>
      <trkpt lat="48.15158" lon="6.40874">
        <ele>473.59</ele>
        <time>2012-04-02T13:03:59Z</time>
      </trkpt>
      <trkpt lat="48.15158" lon="6.40868">
        <ele>474.07</ele>
        <time>2012-04-02T13:04:00Z</time>
      </trkpt>
      <trkpt lat="48.1516" lon="6.40861">
        <ele>474.07</ele>
        <time>2012-04-02T13:04:01Z</time>
      </trkpt>
      <trkpt lat="48.15162" lon="6.40833">
        <ele>473.11</ele>
        <time>2012-04-02T13:04:04Z</time>
      </trkpt>
      <trkpt lat="48.15165" lon="6.40824">
        <ele>473.11</ele>
        <time>2012-04-02T13:04:05Z</time>
      </trkpt>
      <trkpt lat="48.15173" lon="6.40797">
        <ele>472.63</ele>
        <time>2012-04-02T13:04:08Z</time>
      </trkpt>
      <trkpt lat="48.15175" lon="6.40787">
        <ele>472.14</ele>
        <time>2012-04-02T13:04:09Z</time>
      </trkpt>
      <trkpt lat="48.15184" lon="6.40732">
        <ele>470.7</ele>
        <time>2012-04-02T13:04:14Z</time>
      </trkpt>
      <trkpt lat="48.1519" lon="6.40713">
        <ele>469.74</ele>
        <time>2012-04-02T13:04:16Z</time>
      </trkpt>
      <trkpt lat="48.15197" lon="6.40696">
        <ele>469.26</ele>
        <time>2012-04-02T13:04:18Z</time>
      </trkpt>
      <trkpt lat="48.1521" lon="6.40671">
        <ele>468.3</ele>
        <time>2012-04-02T13:04:21Z</time>
      </trkpt>
      <trkpt lat="48.15232" lon="6.40648">
        <ele>466.38</ele>
        <time>2012-04-02T13:04:25Z</time>
      </trkpt>
      <trkpt lat="48.15247" lon="6.40669">
        <ele>462.53</ele>
        <time>2012-04-02T13:04:32Z</time>
      </trkpt>
      <trkpt lat="48.1525" lon="6.40721">
        <ele>459.17</ele>
        <time>2012-04-02T13:04:38Z</time>
      </trkpt>
      <trkpt lat="48.15251" lon="6.40732">
        <ele>458.21</ele>
        <time>2012-04-02T13:04:39Z</time>
      </trkpt>
      <trkpt lat="48.15253" lon="6.40742">
        <ele>457.72</ele>
        <time>2012-04-02T13:04:40Z</time>
      </trkpt>
      <trkpt lat="48.15255" lon="6.40752">
        <ele>457.24</ele>
        <time>2012-04-02T13:04:41Z</time>
      </trkpt>
      <trkpt lat="48.15259" lon="6.40761">
        <ele>456.76</ele>
        <time>2012-04-02T13:04:42Z</time>
      </trkpt>
      <trkpt lat="48.15263" lon="6.40768">
        <ele>456.28</ele>
        <time>2012-04-02T13:04:43Z</time>
      </trkpt>
      <trkpt lat="48.15273" lon="6.40789">
        <ele>454.84</ele>
        <time>2012-04-02T13:04:46Z</time>
      </trkpt>
      <trkpt lat="48.15277" lon="6.40794">
        <ele>454.36</ele>
        <time>2012-04-02T13:04:47Z</time>
      </trkpt>
      <trkpt lat="48.15281" lon="6.40799">
        <ele>453.88</ele>
        <time>2012-04-02T13:04:48Z</time>
      </trkpt>
      <trkpt lat="48.15292" lon="6.40815">
        <ele>452.92</ele>
        <time>2012-04-02T13:04:51Z</time>
      </trkpt>
      <trkpt lat="48.15315" lon="6.40852">
        <ele>450.52</ele>
        <time>2012-04-02T13:04:58Z</time>
      </trkpt>
      <trkpt lat="48.15318" lon="6.40857">
        <ele>450.52</ele>
        <time>2012-04-02T13:04:59Z</time>
      </trkpt>
      <trkpt lat="48.15321" lon="6.40861">
        <ele>450.52</ele>
        <time>2012-04-02T13:05:00Z</time>
      </trkpt>
      <trkpt lat="48.15324" lon="6.40866">
        <ele>450.52</ele>
        <time>2012-04-02T13:05:01Z</time>
      </trkpt>
      <trkpt lat="48.15327" lon="6.40871">
        <ele>450.52</ele>
        <time>2012-04-02T13:05:02Z</time>
      </trkpt>
      <trkpt lat="48.1533" lon="6.40876">
        <ele>451</ele>
        <time>2012-04-02T13:05:03Z</time>
      </trkpt>
      <trkpt lat="48.15332" lon="6.40881">
        <ele>451.48</ele>
        <time>2012-04-02T13:05:04Z</time>
      </trkpt>
      <trkpt lat="48.15334" lon="6.40886">
        <ele>451.96</ele>
        <time>2012-04-02T13:05:05Z</time>
      </trkpt>
      <trkpt lat="48.15336" lon="6.40892">
        <ele>452.92</ele>
        <time>2012-04-02T13:05:06Z</time>
      </trkpt>
      <trkpt lat="48.15337" lon="6.40897">
        <ele>453.4</ele>
        <time>2012-04-02T13:05:07Z</time>
      </trkpt>
      <trkpt lat="48.15337" lon="6.40903">
        <ele>453.4</ele>
        <time>2012-04-02T13:05:08Z</time>
      </trkpt>
      <trkpt lat="48.15348" lon="6.40987">
        <ele>459.65</ele>
        <time>2012-04-02T13:05:22Z</time>
      </trkpt>
      <trkpt lat="48.15347" lon="6.41072">
        <ele>460.61</ele>
        <time>2012-04-02T13:05:32Z</time>
      </trkpt>
      <trkpt lat="48.15345" lon="6.41133">
        <ele>461.57</ele>
        <time>2012-04-02T13:05:39Z</time>
      </trkpt>
      <trkpt lat="48.15348" lon="6.41149">
        <ele>462.05</ele>
        <time>2012-04-02T13:05:41Z</time>
      </trkpt>
      <trkpt lat="48.1535" lon="6.41156">
        <ele>462.05</ele>
        <time>2012-04-02T13:05:42Z</time>
      </trkpt>
      <trkpt lat="48.15356" lon="6.41171">
        <ele>462.05</ele>
        <time>2012-04-02T13:05:44Z</time>
      </trkpt>
      <trkpt lat="48.15363" lon="6.41186">
        <ele>462.05</ele>
        <time>2012-04-02T13:05:46Z</time>
      </trkpt>
      <trkpt lat="48.15384" lon="6.4122">
        <ele>462.05</ele>
        <time>2012-04-02T13:05:51Z</time>
      </trkpt>
      <trkpt lat="48.15418" lon="6.4127">
        <ele>461.57</ele>
        <time>2012-04-02T13:05:59Z</time>
      </trkpt>
      <trkpt lat="48.15421" lon="6.41277">
        <ele>461.09</ele>
        <time>2012-04-02T13:06:00Z</time>
      </trkpt>
      <trkpt lat="48.15433" lon="6.4131">
        <ele>461.57</ele>
        <time>2012-04-02T13:06:04Z</time>
      </trkpt>
      <trkpt lat="48.15462" lon="6.41386">
        <ele>459.65</ele>
        <time>2012-04-02T13:06:15Z</time>
      </trkpt>
      <trkpt lat="48.15466" lon="6.41393">
        <ele>458.21</ele>
        <time>2012-04-02T13:06:17Z</time>
      </trkpt>
      <trkpt lat="48.15467" lon="6.41397">
        <ele>457.72</ele>
        <time>2012-04-02T13:06:18Z</time>
      </trkpt>
      <trkpt lat="48.15468" lon="6.41401">
        <ele>457.24</ele>
        <time>2012-04-02T13:06:19Z</time>
      </trkpt>
      <trkpt lat="48.1547" lon="6.41406">
        <ele>456.76</ele>
        <time>2012-04-02T13:06:20Z</time>
      </trkpt>
      <trkpt lat="48.15472" lon="6.41411">
        <ele>456.28</ele>
        <time>2012-04-02T13:06:21Z</time>
      </trkpt>
      <trkpt lat="48.15475" lon="6.41414">
        <ele>455.8</ele>
        <time>2012-04-02T13:06:22Z</time>
      </trkpt>
      <trkpt lat="48.15479" lon="6.41414">
        <ele>455.8</ele>
        <time>2012-04-02T13:06:23Z</time>
      </trkpt>
      <trkpt lat="48.15484" lon="6.41412">
        <ele>455.32</ele>
        <time>2012-04-02T13:06:24Z</time>
      </trkpt>
      <trkpt lat="48.15488" lon="6.41408">
        <ele>454.84</ele>
        <time>2012-04-02T13:06:25Z</time>
      </trkpt>
      <trkpt lat="48.15491" lon="6.41403">
        <ele>454.36</ele>
        <time>2012-04-02T13:06:26Z</time>
      </trkpt>
      <trkpt lat="48.15494" lon="6.41397">
        <ele>453.88</ele>
        <time>2012-04-02T13:06:27Z</time>
      </trkpt>
      <trkpt lat="48.15497" lon="6.41391">
        <ele>453.4</ele>
        <time>2012-04-02T13:06:28Z</time>
      </trkpt>
      <trkpt lat="48.15498" lon="6.41385">
        <ele>453.4</ele>
        <time>2012-04-02T13:06:29Z</time>
      </trkpt>
      <trkpt lat="48.15498" lon="6.41379">
        <ele>453.4</ele>
        <time>2012-04-02T13:06:30Z</time>
      </trkpt>
      <trkpt lat="48.15499" lon="6.41367">
        <ele>452.92</ele>
        <time>2012-04-02T13:06:32Z</time>
      </trkpt>
      <trkpt lat="48.15498" lon="6.41361">
        <ele>453.4</ele>
        <time>2012-04-02T13:06:33Z</time>
      </trkpt>
      <trkpt lat="48.15497" lon="6.41354">
        <ele>452.92</ele>
        <time>2012-04-02T13:06:34Z</time>
      </trkpt>
      <trkpt lat="48.15498" lon="6.41347">
        <ele>452.92</ele>
        <time>2012-04-02T13:06:35Z</time>
      </trkpt>
      <trkpt lat="48.15499" lon="6.4134">
        <ele>453.4</ele>
        <time>2012-04-02T13:06:36Z</time>
      </trkpt>
      <trkpt lat="48.15499" lon="6.41333">
        <ele>453.4</ele>
        <time>2012-04-02T13:06:37Z</time>
      </trkpt>
      <trkpt lat="48.15502" lon="6.4132">
        <ele>452.92</ele>
        <time>2012-04-02T13:06:39Z</time>
      </trkpt>
      <trkpt lat="48.15504" lon="6.41314">
        <ele>452.44</ele>
        <time>2012-04-02T13:06:40Z</time>
      </trkpt>
      <trkpt lat="48.15511" lon="6.41282">
        <ele>450.52</ele>
        <time>2012-04-02T13:06:45Z</time>
      </trkpt>
      <trkpt lat="48.15521" lon="6.41276">
        <ele>449.55</ele>
        <time>2012-04-02T13:06:49Z</time>
      </trkpt>
      <trkpt lat="48.15536" lon="6.41286">
        <ele>445.71</ele>
        <time>2012-04-02T13:06:54Z</time>
      </trkpt>
      <trkpt lat="48.15571" lon="6.41316">
        <ele>438.98</ele>
        <time>2012-04-02T13:07:06Z</time>
      </trkpt>
      <trkpt lat="48.15584" lon="6.41318">
        <ele>438.02</ele>
        <time>2012-04-02T13:07:09Z</time>
      </trkpt>
      <trkpt lat="48.15588" lon="6.41319">
        <ele>438.02</ele>
        <time>2012-04-02T13:07:10Z</time>
      </trkpt>
      <trkpt lat="48.15592" lon="6.41319">
        <ele>437.54</ele>
        <time>2012-04-02T13:07:11Z</time>
      </trkpt>
      <trkpt lat="48.15605" lon="6.41318">
        <ele>436.1</ele>
        <time>2012-04-02T13:07:14Z</time>
      </trkpt>
      <trkpt lat="48.15636" lon="6.4132">
        <ele>432.25</ele>
        <time>2012-04-02T13:07:21Z</time>
      </trkpt>
      <trkpt lat="48.15641" lon="6.4132">
        <ele>431.29</ele>
        <time>2012-04-02T13:07:22Z</time>
      </trkpt>
      <trkpt lat="48.15646" lon="6.4132">
        <ele>431.29</ele>
        <time>2012-04-02T13:07:23Z</time>
      </trkpt>
      <trkpt lat="48.15651" lon="6.41321">
        <ele>430.81</ele>
        <time>2012-04-02T13:07:24Z</time>
      </trkpt>
      <trkpt lat="48.15657" lon="6.4132">
        <ele>430.33</ele>
        <time>2012-04-02T13:07:25Z</time>
      </trkpt>
      <trkpt lat="48.15662" lon="6.41318">
        <ele>429.85</ele>
        <time>2012-04-02T13:07:26Z</time>
      </trkpt>
      <trkpt lat="48.15667" lon="6.41317">
        <ele>429.85</ele>
        <time>2012-04-02T13:07:27Z</time>
      </trkpt>
      <trkpt lat="48.15671" lon="6.41317">
        <ele>429.85</ele>
        <time>2012-04-02T13:07:28Z</time>
      </trkpt>
      <trkpt lat="48.15676" lon="6.41317">
        <ele>429.85</ele>
        <time>2012-04-02T13:07:29Z</time>
      </trkpt>
      <trkpt lat="48.1568" lon="6.41316">
        <ele>429.85</ele>
        <time>2012-04-02T13:07:30Z</time>
      </trkpt>
      <trkpt lat="48.15684" lon="6.41315">
        <ele>429.85</ele>
        <time>2012-04-02T13:07:31Z</time>
      </trkpt>
      <trkpt lat="48.15688" lon="6.41314">
        <ele>429.85</ele>
        <time>2012-04-02T13:07:32Z</time>
      </trkpt>
      <trkpt lat="48.15693" lon="6.41315">
        <ele>429.37</ele>
        <time>2012-04-02T13:07:33Z</time>
      </trkpt>
      <trkpt lat="48.15696" lon="6.41315">
        <ele>428.89</ele>
        <time>2012-04-02T13:07:34Z</time>
      </trkpt>
      <trkpt lat="48.157" lon="6.41315">
        <ele>428.89</ele>
        <time>2012-04-02T13:07:35Z</time>
      </trkpt>
      <trkpt lat="48.15704" lon="6.41315">
        <ele>428.89</ele>
        <time>2012-04-02T13:07:36Z</time>
      </trkpt>
      <trkpt lat="48.15708" lon="6.41315">
        <ele>428.4</ele>
        <time>2012-04-02T13:07:37Z</time>
      </trkpt>
      <trkpt lat="48.15713" lon="6.41315">
        <ele>428.89</ele>
        <time>2012-04-02T13:07:38Z</time>
      </trkpt>
      <trkpt lat="48.15718" lon="6.41315">
        <ele>428.89</ele>
        <time>2012-04-02T13:07:39Z</time>
      </trkpt>
      <trkpt lat="48.15722" lon="6.41315">
        <ele>428.4</ele>
        <time>2012-04-02T13:07:40Z</time>
      </trkpt>
      <trkpt lat="48.15726" lon="6.41315">
        <ele>428.4</ele>
        <time>2012-04-02T13:07:41Z</time>
      </trkpt>
      <trkpt lat="48.15753" lon="6.41316">
        <ele>426.96</ele>
        <time>2012-04-02T13:07:48Z</time>
      </trkpt>
      <trkpt lat="48.15758" lon="6.41315">
        <ele>426.48</ele>
        <time>2012-04-02T13:07:49Z</time>
      </trkpt>
      <trkpt lat="48.15763" lon="6.41314">
        <ele>426.48</ele>
        <time>2012-04-02T13:07:50Z</time>
      </trkpt>
      <trkpt lat="48.15767" lon="6.41313">
        <ele>426.48</ele>
        <time>2012-04-02T13:07:51Z</time>
      </trkpt>
      <trkpt lat="48.1577" lon="6.41314">
        <ele>426.48</ele>
        <time>2012-04-02T13:07:52Z</time>
      </trkpt>
      <trkpt lat="48.15774" lon="6.41314">
        <ele>426.96</ele>
        <time>2012-04-02T13:07:53Z</time>
      </trkpt>
      <trkpt lat="48.15777" lon="6.41314">
        <ele>426.96</ele>
        <time>2012-04-02T13:07:54Z</time>
      </trkpt>
      <trkpt lat="48.15779" lon="6.41314">
        <ele>427.44</ele>
        <time>2012-04-02T13:07:55Z</time>
      </trkpt>
      <trkpt lat="48.1578" lon="6.41315">
        <ele>426.96</ele>
        <time>2012-04-02T13:07:56Z</time>
      </trkpt>
      <trkpt lat="48.15783" lon="6.41316">
        <ele>426.48</ele>
        <time>2012-04-02T13:07:57Z</time>
      </trkpt>
      <trkpt lat="48.15787" lon="6.41315">
        <ele>425.52</ele>
        <time>2012-04-02T13:07:58Z</time>
      </trkpt>
      <trkpt lat="48.15792" lon="6.41315">
        <ele>425.04</ele>
        <time>2012-04-02T13:07:59Z</time>
      </trkpt>
      <trkpt lat="48.15835" lon="6.41307">
        <ele>432.73</ele>
        <time>2012-04-02T13:08:07Z</time>
      </trkpt>
      <trkpt lat="48.1584" lon="6.41307">
        <ele>432.73</ele>
        <time>2012-04-02T13:08:08Z</time>
      </trkpt>
      <trkpt lat="48.15845" lon="6.41306">
        <ele>432.25</ele>
        <time>2012-04-02T13:08:09Z</time>
      </trkpt>
      <trkpt lat="48.15851" lon="6.41305">
        <ele>431.77</ele>
        <time>2012-04-02T13:08:10Z</time>
      </trkpt>
      <trkpt lat="48.15857" lon="6.41304">
        <ele>431.29</ele>
        <time>2012-04-02T13:08:11Z</time>
      </trkpt>
      <trkpt lat="48.15864" lon="6.41304">
        <ele>430.81</ele>
        <time>2012-04-02T13:08:12Z</time>
      </trkpt>
      <trkpt lat="48.1587" lon="6.41303">
        <ele>430.33</ele>
        <time>2012-04-02T13:08:13Z</time>
      </trkpt>
      <trkpt lat="48.15874" lon="6.41302">
        <ele>430.33</ele>
        <time>2012-04-02T13:08:14Z</time>
      </trkpt>
      <trkpt lat="48.15877" lon="6.413">
        <ele>430.33</ele>
        <time>2012-04-02T13:08:15Z</time>
      </trkpt>
      <trkpt lat="48.1588" lon="6.41298">
        <ele>429.85</ele>
        <time>2012-04-02T13:08:16Z</time>
      </trkpt>
      <trkpt lat="48.15883" lon="6.41295">
        <ele>429.37</ele>
        <time>2012-04-02T13:08:17Z</time>
      </trkpt>
      <trkpt lat="48.15887" lon="6.41293">
        <ele>428.4</ele>
        <time>2012-04-02T13:08:18Z</time>
      </trkpt>
      <trkpt lat="48.15899" lon="6.41288">
        <ele>426</ele>
        <time>2012-04-02T13:08:20Z</time>
      </trkpt>
      <trkpt lat="48.15906" lon="6.41288">
        <ele>425.04</ele>
        <time>2012-04-02T13:08:21Z</time>
      </trkpt>
      <trkpt lat="48.15912" lon="6.4129">
        <ele>423.6</ele>
        <time>2012-04-02T13:08:22Z</time>
      </trkpt>
      <trkpt lat="48.1592" lon="6.41294">
        <ele>422.64</ele>
        <time>2012-04-02T13:08:23Z</time>
      </trkpt>
      <trkpt lat="48.15929" lon="6.41296">
        <ele>421.19</ele>
        <time>2012-04-02T13:08:24Z</time>
      </trkpt>
      <trkpt lat="48.1594" lon="6.41298">
        <ele>420.23</ele>
        <time>2012-04-02T13:08:25Z</time>
      </trkpt>
      <trkpt lat="48.15961" lon="6.41304">
        <ele>417.83</ele>
        <time>2012-04-02T13:08:27Z</time>
      </trkpt>
      <trkpt lat="48.1597" lon="6.41307">
        <ele>416.39</ele>
        <time>2012-04-02T13:08:28Z</time>
      </trkpt>
      <trkpt lat="48.15979" lon="6.41308">
        <ele>415.43</ele>
        <time>2012-04-02T13:08:29Z</time>
      </trkpt>
      <trkpt lat="48.15987" lon="6.41308">
        <ele>414.47</ele>
        <time>2012-04-02T13:08:30Z</time>
      </trkpt>
      <trkpt lat="48.15994" lon="6.41306">
        <ele>413.5</ele>
        <time>2012-04-02T13:08:31Z</time>
      </trkpt>
      <trkpt lat="48.16014" lon="6.41303">
        <ele>410.62</ele>
        <time>2012-04-02T13:08:34Z</time>
      </trkpt>
      <trkpt lat="48.1603" lon="6.41309">
        <ele>409.18</ele>
        <time>2012-04-02T13:08:36Z</time>
      </trkpt>
      <trkpt lat="48.16063" lon="6.41322">
        <ele>404.85</ele>
        <time>2012-04-02T13:08:40Z</time>
      </trkpt>
      <trkpt lat="48.16116" lon="6.41347">
        <ele>399.08</ele>
        <time>2012-04-02T13:08:46Z</time>
      </trkpt>
      <trkpt lat="48.16124" lon="6.41349">
        <ele>398.12</ele>
        <time>2012-04-02T13:08:47Z</time>
      </trkpt>
      <trkpt lat="48.16132" lon="6.41349">
        <ele>397.16</ele>
        <time>2012-04-02T13:08:48Z</time>
      </trkpt>
      <trkpt lat="48.1614" lon="6.4135">
        <ele>396.2</ele>
        <time>2012-04-02T13:08:49Z</time>
      </trkpt>
      <trkpt lat="48.16148" lon="6.41351">
        <ele>395.24</ele>
        <time>2012-04-02T13:08:50Z</time>
      </trkpt>
      <trkpt lat="48.16162" lon="6.41355">
        <ele>393.32</ele>
        <time>2012-04-02T13:08:52Z</time>
      </trkpt>
      <trkpt lat="48.16169" lon="6.41358">
        <ele>392.36</ele>
        <time>2012-04-02T13:08:53Z</time>
      </trkpt>
      <trkpt lat="48.16175" lon="6.41359">
        <ele>391.39</ele>
        <time>2012-04-02T13:08:54Z</time>
      </trkpt>
      <trkpt lat="48.16182" lon="6.41358">
        <ele>390.43</ele>
        <time>2012-04-02T13:08:55Z</time>
      </trkpt>
      <trkpt lat="48.1619" lon="6.41358">
        <ele>389.47</ele>
        <time>2012-04-02T13:08:56Z</time>
      </trkpt>
      <trkpt lat="48.16206" lon="6.41354">
        <ele>387.55</ele>
        <time>2012-04-02T13:08:58Z</time>
      </trkpt>
      <trkpt lat="48.16215" lon="6.41349">
        <ele>386.11</ele>
        <time>2012-04-02T13:08:59Z</time>
      </trkpt>
      <trkpt lat="48.16223" lon="6.41341">
        <ele>385.15</ele>
        <time>2012-04-02T13:09:00Z</time>
      </trkpt>
      <trkpt lat="48.16231" lon="6.41333">
        <ele>383.7</ele>
        <time>2012-04-02T13:09:01Z</time>
      </trkpt>
      <trkpt lat="48.16238" lon="6.41325">
        <ele>382.26</ele>
        <time>2012-04-02T13:09:02Z</time>
      </trkpt>
      <trkpt lat="48.16246" lon="6.41319">
        <ele>381.3</ele>
        <time>2012-04-02T13:09:03Z</time>
      </trkpt>
      <trkpt lat="48.16253" lon="6.41315">
        <ele>380.34</ele>
        <time>2012-04-02T13:09:04Z</time>
      </trkpt>
      <trkpt lat="48.1626" lon="6.41311">
        <ele>379.38</ele>
        <time>2012-04-02T13:09:05Z</time>
      </trkpt>
      <trkpt lat="48.16268" lon="6.41309">
        <ele>378.42</ele>
        <time>2012-04-02T13:09:06Z</time>
      </trkpt>
      <trkpt lat="48.16276" lon="6.41308">
        <ele>377.94</ele>
        <time>2012-04-02T13:09:07Z</time>
      </trkpt>
      <trkpt lat="48.16283" lon="6.41307">
        <ele>377.45</ele>
        <time>2012-04-02T13:09:08Z</time>
      </trkpt>
      <trkpt lat="48.16299" lon="6.41303">
        <ele>375.53</ele>
        <time>2012-04-02T13:09:10Z</time>
      </trkpt>
      <trkpt lat="48.16305" lon="6.413">
        <ele>374.57</ele>
        <time>2012-04-02T13:09:11Z</time>
      </trkpt>
      <trkpt lat="48.16311" lon="6.41298">
        <ele>374.09</ele>
        <time>2012-04-02T13:09:12Z</time>
      </trkpt>
      <trkpt lat="48.16318" lon="6.41296">
        <ele>373.61</ele>
        <time>2012-04-02T13:09:15Z</time>
      </trkpt>
      <trkpt lat="48.1632" lon="6.41298">
        <ele>373.61</ele>
        <time>2012-04-02T13:09:16Z</time>
      </trkpt>
      <trkpt lat="48.16322" lon="6.41298">
        <ele>380.34</ele>
        <time>2012-04-02T13:09:33Z</time>
      </trkpt>
      <trkpt lat="48.1633" lon="6.41295">
        <ele>380.34</ele>
        <time>2012-04-02T13:09:42Z</time>
      </trkpt>
      <trkpt lat="48.16333" lon="6.41296">
        <ele>381.78</ele>
        <time>2012-04-02T13:09:55Z</time>
      </trkpt>
      <trkpt lat="48.16339" lon="6.413">
        <ele>382.26</ele>
        <time>2012-04-02T13:10:06Z</time>
      </trkpt>
      <trkpt lat="48.16341" lon="6.413">
        <ele>381.78</ele>
        <time>2012-04-02T13:10:08Z</time>
      </trkpt>
      <trkpt lat="48.16344" lon="6.413">
        <ele>381.3</ele>
        <time>2012-04-02T13:10:09Z</time>
      </trkpt>
      <trkpt lat="48.1636" lon="6.41328">
        <ele>377.45</ele>
        <time>2012-04-02T13:10:16Z</time>
      </trkpt>
      <trkpt lat="48.16358" lon="6.4134">
        <ele>376.49</ele>
        <time>2012-04-02T13:10:18Z</time>
      </trkpt>
      <trkpt lat="48.16354" lon="6.41343">
        <ele>375.53</ele>
        <time>2012-04-02T13:10:19Z</time>
      </trkpt>
      <trkpt lat="48.16351" lon="6.41345">
        <ele>375.05</ele>
        <time>2012-04-02T13:10:20Z</time>
      </trkpt>
      <trkpt lat="48.16347" lon="6.41347">
        <ele>374.57</ele>
        <time>2012-04-02T13:10:21Z</time>
      </trkpt>
      <trkpt lat="48.16342" lon="6.41349">
        <ele>373.61</ele>
        <time>2012-04-02T13:10:22Z</time>
      </trkpt>
      <trkpt lat="48.16327" lon="6.41352">
        <ele>371.69</ele>
        <time>2012-04-02T13:10:25Z</time>
      </trkpt>
      <trkpt lat="48.16306" lon="6.41362">
        <ele>369.76</ele>
        <time>2012-04-02T13:10:29Z</time>
      </trkpt>
      <trkpt lat="48.16301" lon="6.41366">
        <ele>369.28</ele>
        <time>2012-04-02T13:10:30Z</time>
      </trkpt>
      <trkpt lat="48.16254" lon="6.41408">
        <ele>364</ele>
        <time>2012-04-02T13:10:41Z</time>
      </trkpt>
      <trkpt lat="48.16247" lon="6.41422">
        <ele>361.59</ele>
        <time>2012-04-02T13:10:44Z</time>
      </trkpt>
      <trkpt lat="48.1623" lon="6.4147">
        <ele>359.19</ele>
        <time>2012-04-02T13:10:50Z</time>
      </trkpt>
      <trkpt lat="48.16225" lon="6.41485">
        <ele>358.23</ele>
        <time>2012-04-02T13:10:52Z</time>
      </trkpt>
      <trkpt lat="48.16222" lon="6.41491">
        <ele>357.75</ele>
        <time>2012-04-02T13:10:53Z</time>
      </trkpt>
      <trkpt lat="48.16216" lon="6.41503">
        <ele>357.27</ele>
        <time>2012-04-02T13:10:55Z</time>
      </trkpt>
      <trkpt lat="48.16199" lon="6.41532">
        <ele>355.83</ele>
        <time>2012-04-02T13:11:00Z</time>
      </trkpt>
      <trkpt lat="48.16195" lon="6.41538">
        <ele>356.31</ele>
        <time>2012-04-02T13:11:01Z</time>
      </trkpt>
      <trkpt lat="48.16188" lon="6.41551">
        <ele>356.31</ele>
        <time>2012-04-02T13:11:03Z</time>
      </trkpt>
      <trkpt lat="48.16186" lon="6.41558">
        <ele>356.31</ele>
        <time>2012-04-02T13:11:04Z</time>
      </trkpt>
      <trkpt lat="48.16186" lon="6.41565">
        <ele>356.31</ele>
        <time>2012-04-02T13:11:05Z</time>
      </trkpt>
      <trkpt lat="48.16195" lon="6.41574">
        <ele>358.23</ele>
        <time>2012-04-02T13:11:11Z</time>
      </trkpt>
      <trkpt lat="48.16209" lon="6.41554">
        <ele>359.19</ele>
        <time>2012-04-02T13:11:15Z</time>
      </trkpt>
      <trkpt lat="48.1623" lon="6.41528">
        <ele>359.67</ele>
        <time>2012-04-02T13:11:20Z</time>
      </trkpt>
      <trkpt lat="48.16252" lon="6.41507">
        <ele>360.15</ele>
        <time>2012-04-02T13:11:24Z</time>
      </trkpt>
      <trkpt lat="48.16258" lon="6.41502">
        <ele>360.15</ele>
        <time>2012-04-02T13:11:25Z</time>
      </trkpt>
      <trkpt lat="48.16304" lon="6.41467">
        <ele>361.11</ele>
        <time>2012-04-02T13:11:33Z</time>
      </trkpt>
      <trkpt lat="48.16324" lon="6.41455">
        <ele>360.63</ele>
        <time>2012-04-02T13:11:36Z</time>
      </trkpt>
      <trkpt lat="48.16339" lon="6.4145">
        <ele>360.15</ele>
        <time>2012-04-02T13:11:38Z</time>
      </trkpt>
      <trkpt lat="48.16348" lon="6.41451">
        <ele>359.67</ele>
        <time>2012-04-02T13:11:39Z</time>
      </trkpt>
      <trkpt lat="48.16356" lon="6.41451">
        <ele>359.19</ele>
        <time>2012-04-02T13:11:40Z</time>
      </trkpt>
      <trkpt lat="48.16371" lon="6.4145">
        <ele>358.23</ele>
        <time>2012-04-02T13:11:42Z</time>
      </trkpt>
      <trkpt lat="48.16386" lon="6.41451">
        <ele>357.27</ele>
        <time>2012-04-02T13:11:44Z</time>
      </trkpt>
      <trkpt lat="48.16393" lon="6.41452">
        <ele>356.79</ele>
        <time>2012-04-02T13:11:45Z</time>
      </trkpt>
      <trkpt lat="48.16399" lon="6.41455">
        <ele>356.31</ele>
        <time>2012-04-02T13:11:46Z</time>
      </trkpt>
      <trkpt lat="48.1641" lon="6.41462">
        <ele>355.34</ele>
        <time>2012-04-02T13:11:48Z</time>
      </trkpt>
      <trkpt lat="48.16471" lon="6.41493">
        <ele>354.86</ele>
        <time>2012-04-02T13:11:57Z</time>
      </trkpt>
      <trkpt lat="48.16477" lon="6.41498">
        <ele>354.86</ele>
        <time>2012-04-02T13:11:58Z</time>
      </trkpt>
      <trkpt lat="48.16498" lon="6.41516">
        <ele>355.83</ele>
        <time>2012-04-02T13:12:01Z</time>
      </trkpt>
      <trkpt lat="48.16509" lon="6.41528">
        <ele>356.79</ele>
        <time>2012-04-02T13:12:03Z</time>
      </trkpt>
      <trkpt lat="48.1656" lon="6.41588">
        <ele>360.63</ele>
        <time>2012-04-02T13:12:12Z</time>
      </trkpt>
      <trkpt lat="48.16565" lon="6.41592">
        <ele>360.63</ele>
        <time>2012-04-02T13:12:13Z</time>
      </trkpt>
      <trkpt lat="48.16569" lon="6.41598">
        <ele>360.63</ele>
        <time>2012-04-02T13:12:14Z</time>
      </trkpt>
      <trkpt lat="48.16581" lon="6.41615">
        <ele>360.63</ele>
        <time>2012-04-02T13:12:18Z</time>
      </trkpt>
      <trkpt lat="48.16583" lon="6.41618">
        <ele>361.11</ele>
        <time>2012-04-02T13:12:19Z</time>
      </trkpt>
      <trkpt lat="48.16584" lon="6.41619">
        <ele>361.11</ele>
        <time>2012-04-02T13:12:20Z</time>
      </trkpt>
      <trkpt lat="48.16586" lon="6.4162">
        <ele>361.11</ele>
        <time>2012-04-02T13:12:21Z</time>
      </trkpt>
      <trkpt lat="48.16588" lon="6.41622">
        <ele>361.11</ele>
        <time>2012-04-02T13:12:22Z</time>
      </trkpt>
      <trkpt lat="48.16589" lon="6.41623">
        <ele>361.59</ele>
        <time>2012-04-02T13:12:23Z</time>
      </trkpt>
      <trkpt lat="48.16593" lon="6.41626">
        <ele>362.07</ele>
        <time>2012-04-02T13:12:26Z</time>
      </trkpt>
      <trkpt lat="48.16594" lon="6.4163">
        <ele>362.55</ele>
        <time>2012-04-02T13:12:27Z</time>
      </trkpt>
      <trkpt lat="48.16595" lon="6.41635">
        <ele>363.04</ele>
        <time>2012-04-02T13:12:28Z</time>
      </trkpt>
      <trkpt lat="48.16595" lon="6.41637">
        <ele>363.04</ele>
        <time>2012-04-02T13:12:29Z</time>
      </trkpt>
      <trkpt lat="48.16597" lon="6.41639">
        <ele>363.04</ele>
        <time>2012-04-02T13:12:30Z</time>
      </trkpt>
      <trkpt lat="48.16599" lon="6.41641">
        <ele>363.04</ele>
        <time>2012-04-02T13:12:31Z</time>
      </trkpt>
      <trkpt lat="48.16622" lon="6.41668">
        <ele>361.11</ele>
        <time>2012-04-02T13:12:39Z</time>
      </trkpt>
      <trkpt lat="48.16626" lon="6.41671">
        <ele>360.63</ele>
        <time>2012-04-02T13:12:40Z</time>
      </trkpt>
      <trkpt lat="48.1663" lon="6.41675">
        <ele>359.67</ele>
        <time>2012-04-02T13:12:41Z</time>
      </trkpt>
      <trkpt lat="48.16634" lon="6.4168">
        <ele>359.19</ele>
        <time>2012-04-02T13:12:42Z</time>
      </trkpt>
      <trkpt lat="48.16637" lon="6.41686">
        <ele>358.23</ele>
        <time>2012-04-02T13:12:43Z</time>
      </trkpt>
      <trkpt lat="48.16638" lon="6.41691">
        <ele>357.75</ele>
        <time>2012-04-02T13:12:44Z</time>
      </trkpt>
      <trkpt lat="48.16639" lon="6.41694">
        <ele>357.27</ele>
        <time>2012-04-02T13:12:45Z</time>
      </trkpt>
      <trkpt lat="48.16642" lon="6.41699">
        <ele>357.27</ele>
        <time>2012-04-02T13:12:46Z</time>
      </trkpt>
      <trkpt lat="48.16646" lon="6.41704">
        <ele>357.75</ele>
        <time>2012-04-02T13:12:47Z</time>
      </trkpt>
      <trkpt lat="48.1665" lon="6.41708">
        <ele>357.75</ele>
        <time>2012-04-02T13:12:48Z</time>
      </trkpt>
      <trkpt lat="48.16654" lon="6.41714">
        <ele>357.75</ele>
        <time>2012-04-02T13:12:49Z</time>
      </trkpt>
      <trkpt lat="48.16659" lon="6.41719">
        <ele>357.75</ele>
        <time>2012-04-02T13:12:50Z</time>
      </trkpt>
      <trkpt lat="48.16664" lon="6.41724">
        <ele>357.75</ele>
        <time>2012-04-02T13:12:51Z</time>
      </trkpt>
      <trkpt lat="48.16668" lon="6.4173">
        <ele>357.75</ele>
        <time>2012-04-02T13:12:52Z</time>
      </trkpt>
      <trkpt lat="48.16717" lon="6.41792">
        <ele>358.23</ele>
        <time>2012-04-02T13:13:02Z</time>
      </trkpt>
      <trkpt lat="48.16725" lon="6.41803">
        <ele>358.23</ele>
        <time>2012-04-02T13:13:04Z</time>
      </trkpt>
      <trkpt lat="48.16744" lon="6.41829">
        <ele>358.23</ele>
        <time>2012-04-02T13:13:10Z</time>
      </trkpt>
      <trkpt lat="48.16749" lon="6.41838">
        <ele>358.23</ele>
        <time>2012-04-02T13:13:12Z</time>
      </trkpt>
      <trkpt lat="48.16762" lon="6.4185">
        <ele>358.23</ele>
        <time>2012-04-02T13:13:15Z</time>
      </trkpt>
      <trkpt lat="48.16803" lon="6.41888">
        <ele>359.19</ele>
        <time>2012-04-02T13:13:23Z</time>
      </trkpt>
      <trkpt lat="48.16807" lon="6.41893">
        <ele>359.19</ele>
        <time>2012-04-02T13:13:24Z</time>
      </trkpt>
      <trkpt lat="48.16812" lon="6.41897">
        <ele>359.19</ele>
        <time>2012-04-02T13:13:25Z</time>
      </trkpt>
      <trkpt lat="48.16816" lon="6.41901">
        <ele>359.19</ele>
        <time>2012-04-02T13:13:26Z</time>
      </trkpt>
      <trkpt lat="48.16819" lon="6.41906">
        <ele>359.19</ele>
        <time>2012-04-02T13:13:27Z</time>
      </trkpt>
      <trkpt lat="48.16822" lon="6.4191">
        <ele>359.19</ele>
        <time>2012-04-02T13:13:28Z</time>
      </trkpt>
      <trkpt lat="48.16823" lon="6.41913">
        <ele>359.19</ele>
        <time>2012-04-02T13:13:29Z</time>
      </trkpt>
      <trkpt lat="48.16825" lon="6.41915">
        <ele>359.67</ele>
        <time>2012-04-02T13:13:30Z</time>
      </trkpt>
      <trkpt lat="48.16837" lon="6.41928">
        <ele>359.19</ele>
        <time>2012-04-02T13:13:34Z</time>
      </trkpt>
      <trkpt lat="48.16841" lon="6.41933">
        <ele>358.71</ele>
        <time>2012-04-02T13:13:35Z</time>
      </trkpt>
      <trkpt lat="48.16845" lon="6.41938">
        <ele>358.23</ele>
        <time>2012-04-02T13:13:36Z</time>
      </trkpt>
      <trkpt lat="48.1685" lon="6.41943">
        <ele>358.23</ele>
        <time>2012-04-02T13:13:37Z</time>
      </trkpt>
      <trkpt lat="48.16856" lon="6.41948">
        <ele>357.75</ele>
        <time>2012-04-02T13:13:38Z</time>
      </trkpt>
      <trkpt lat="48.16861" lon="6.41954">
        <ele>357.27</ele>
        <time>2012-04-02T13:13:39Z</time>
      </trkpt>
      <trkpt lat="48.16866" lon="6.4196">
        <ele>357.27</ele>
        <time>2012-04-02T13:13:40Z</time>
      </trkpt>
      <trkpt lat="48.16869" lon="6.41965">
        <ele>356.79</ele>
        <time>2012-04-02T13:13:41Z</time>
      </trkpt>
      <trkpt lat="48.16871" lon="6.41966">
        <ele>356.31</ele>
        <time>2012-04-02T13:13:42Z</time>
      </trkpt>
      <trkpt lat="48.16874" lon="6.41966">
        <ele>356.79</ele>
        <time>2012-04-02T13:13:43Z</time>
      </trkpt>
      <trkpt lat="48.16878" lon="6.41963">
        <ele>356.79</ele>
        <time>2012-04-02T13:13:44Z</time>
      </trkpt>
      <trkpt lat="48.16882" lon="6.41958">
        <ele>356.79</ele>
        <time>2012-04-02T13:13:45Z</time>
      </trkpt>
      <trkpt lat="48.16886" lon="6.41952">
        <ele>357.27</ele>
        <time>2012-04-02T13:13:46Z</time>
      </trkpt>
      <trkpt lat="48.16889" lon="6.41947">
        <ele>357.27</ele>
        <time>2012-04-02T13:13:47Z</time>
      </trkpt>
      <trkpt lat="48.16892" lon="6.41941">
        <ele>357.27</ele>
        <time>2012-04-02T13:13:48Z</time>
      </trkpt>
      <trkpt lat="48.16893" lon="6.41934">
        <ele>357.27</ele>
        <time>2012-04-02T13:13:49Z</time>
      </trkpt>
      <trkpt lat="48.16894" lon="6.41928">
        <ele>356.79</ele>
        <time>2012-04-02T13:13:50Z</time>
      </trkpt>
      <trkpt lat="48.16896" lon="6.41923">
        <ele>356.79</ele>
        <time>2012-04-02T13:13:51Z</time>
      </trkpt>
      <trkpt lat="48.16899" lon="6.41918">
        <ele>356.79</ele>
        <time>2012-04-02T13:13:52Z</time>
      </trkpt>
      <trkpt lat="48.16902" lon="6.41914">
        <ele>357.27</ele>
        <time>2012-04-02T13:13:53Z</time>
      </trkpt>
      <trkpt lat="48.16905" lon="6.41912">
        <ele>357.27</ele>
        <time>2012-04-02T13:13:54Z</time>
      </trkpt>
      <trkpt lat="48.16908" lon="6.41911">
        <ele>357.75</ele>
        <time>2012-04-02T13:13:55Z</time>
      </trkpt>
      <trkpt lat="48.16911" lon="6.4191">
        <ele>358.23</ele>
        <time>2012-04-02T13:13:56Z</time>
      </trkpt>
      <trkpt lat="48.16914" lon="6.41911">
        <ele>358.71</ele>
        <time>2012-04-02T13:13:57Z</time>
      </trkpt>
      <trkpt lat="48.16917" lon="6.41912">
        <ele>359.19</ele>
        <time>2012-04-02T13:13:58Z</time>
      </trkpt>
      <trkpt lat="48.16921" lon="6.41915">
        <ele>359.67</ele>
        <time>2012-04-02T13:13:59Z</time>
      </trkpt>
      <trkpt lat="48.16925" lon="6.41916">
        <ele>360.15</ele>
        <time>2012-04-02T13:14:00Z</time>
      </trkpt>
      <trkpt lat="48.16928" lon="6.41918">
        <ele>360.15</ele>
        <time>2012-04-02T13:14:01Z</time>
      </trkpt>
      <trkpt lat="48.16932" lon="6.4192">
        <ele>360.15</ele>
        <time>2012-04-02T13:14:02Z</time>
      </trkpt>
      <trkpt lat="48.16936" lon="6.41921">
        <ele>360.63</ele>
        <time>2012-04-02T13:14:03Z</time>
      </trkpt>
      <trkpt lat="48.16983" lon="6.41937">
        <ele>364.48</ele>
        <time>2012-04-02T13:14:15Z</time>
      </trkpt>
      <trkpt lat="48.16988" lon="6.41939">
        <ele>364.96</ele>
        <time>2012-04-02T13:14:16Z</time>
      </trkpt>
      <trkpt lat="48.16993" lon="6.41942">
        <ele>365.44</ele>
        <time>2012-04-02T13:14:17Z</time>
      </trkpt>
      <trkpt lat="48.17001" lon="6.41949">
        <ele>365.44</ele>
        <time>2012-04-02T13:14:19Z</time>
      </trkpt>
      <trkpt lat="48.17019" lon="6.41965">
        <ele>365.92</ele>
        <time>2012-04-02T13:14:23Z</time>
      </trkpt>
      <trkpt lat="48.17078" lon="6.42018">
        <ele>366.88</ele>
        <time>2012-04-02T13:14:37Z</time>
      </trkpt>
      <trkpt lat="48.17113" lon="6.4205">
        <ele>367.36</ele>
        <time>2012-04-02T13:14:45Z</time>
      </trkpt>
      <trkpt lat="48.17117" lon="6.42054">
        <ele>367.36</ele>
        <time>2012-04-02T13:14:46Z</time>
      </trkpt>
      <trkpt lat="48.17121" lon="6.42059">
        <ele>367.36</ele>
        <time>2012-04-02T13:14:47Z</time>
      </trkpt>
      <trkpt lat="48.17124" lon="6.42063">
        <ele>367.36</ele>
        <time>2012-04-02T13:14:48Z</time>
      </trkpt>
      <trkpt lat="48.17129" lon="6.42066">
        <ele>367.36</ele>
        <time>2012-04-02T13:14:49Z</time>
      </trkpt>
      <trkpt lat="48.17191" lon="6.42123">
        <ele>365.92</ele>
        <time>2012-04-02T13:15:03Z</time>
      </trkpt>
      <trkpt lat="48.17196" lon="6.42127">
        <ele>365.44</ele>
        <time>2012-04-02T13:15:04Z</time>
      </trkpt>
      <trkpt lat="48.172" lon="6.42131">
        <ele>364.96</ele>
        <time>2012-04-02T13:15:05Z</time>
      </trkpt>
      <trkpt lat="48.17205" lon="6.42136">
        <ele>364.48</ele>
        <time>2012-04-02T13:15:06Z</time>
      </trkpt>
      <trkpt lat="48.17209" lon="6.42141">
        <ele>364.48</ele>
        <time>2012-04-02T13:15:07Z</time>
      </trkpt>
      <trkpt lat="48.17237" lon="6.42171">
        <ele>363.52</ele>
        <time>2012-04-02T13:15:13Z</time>
      </trkpt>
      <trkpt lat="48.17242" lon="6.42174">
        <ele>363.52</ele>
        <time>2012-04-02T13:15:14Z</time>
      </trkpt>
      <trkpt lat="48.17247" lon="6.42175">
        <ele>363.52</ele>
        <time>2012-04-02T13:15:15Z</time>
      </trkpt>
      <trkpt lat="48.17286" lon="6.4218">
        <ele>366.88</ele>
        <time>2012-04-02T13:15:25Z</time>
      </trkpt>
      <trkpt lat="48.17311" lon="6.42182">
        <ele>370.24</ele>
        <time>2012-04-02T13:15:33Z</time>
      </trkpt>
      <trkpt lat="48.17313" lon="6.42181">
        <ele>370.24</ele>
        <time>2012-04-02T13:15:34Z</time>
      </trkpt>
      <trkpt lat="48.17318" lon="6.42173">
        <ele>371.69</ele>
        <time>2012-04-02T13:15:38Z</time>
      </trkpt>
      <trkpt lat="48.17313" lon="6.42164">
        <ele>374.57</ele>
        <time>2012-04-02T13:15:54Z</time>
      </trkpt>
      <trkpt lat="48.17314" lon="6.42163">
        <ele>377.45</ele>
        <time>2012-04-02T13:16:21Z</time>
      </trkpt>
    </trkseg>
  </trk>
</gpx>